Provisional Data: Baldwin Run near Wellsboro Junction, PA


Please select a monitoring station.
Please select start date.
Please select start date.

Toggle Unit: C/F Toggle Unit: C/F
Sample Time Temperature (C) Temperature (F) Specific Conductivity (mS/cm) pH   Turbidity (NTU+) DO (mg/L)
3/7/2021 12:00:00 AM 0.56 33.008 0.056 7.13 64.95 13.93
3/7/2021 12:15:00 AM 0.55 32.99 0.056 7.15 58.26 13.94
3/7/2021 12:30:00 AM 0.55 32.99 0.056 7.16 53.61 13.94
3/7/2021 12:45:00 AM 0.55 32.99 0.056 7.13 29.91 13.94
3/7/2021 1:00:00 AM 0.54 32.972 0.056 7.12 46.88 13.94
3/7/2021 1:15:00 AM 0.53 32.954 0.056 7.13 43.47 13.94
3/7/2021 1:30:00 AM 0.51 32.918 0.056 7.14 40.45 13.95
3/7/2021 1:45:00 AM 0.48 32.864 0.057 7.14 58.34 13.97
3/7/2021 2:00:00 AM 0.44 32.792 0.057 7.14 30.12 13.98
3/7/2021 2:15:00 AM 0.41 32.738 0.057 7.12 93.46 14
3/7/2021 2:30:00 AM 0.38 32.684 0.057 7.15 34.52 14
3/7/2021 2:45:00 AM 0.35 32.63 0.057 7.15 35.57 14.02
3/7/2021 3:00:00 AM 0.31 32.558 0.057 7.15 54.96 14.03
3/7/2021 3:15:00 AM 0.28 32.504 0.057 7.14 66.01 14.04
3/7/2021 3:30:00 AM 0.25 32.45 0.057 7.12 86.83 14.06
3/7/2021 3:45:00 AM 0.21 32.378 0.057 7.15 43.84 14.08
3/7/2021 4:00:00 AM 0.18 32.324 0.057 7.14 56.63 14.09
3/7/2021 4:15:00 AM 0.14 32.252 0.057 7.14 64.56 14.11
3/7/2021 4:30:00 AM 0.11 32.198 0.057 7.14 56.35 14.12
3/7/2021 4:45:00 AM 0.07 32.126 0.057 7.13 36.84 14.14
3/7/2021 5:00:00 AM 0.04 32.072 0.057 7.14 49.66 14.16
3/7/2021 5:15:00 AM 0 32 0.057 7.13 32.4 14.18
3/7/2021 5:30:00 AM -0.02 31.964 0.057 7.1 30.27 14.19
3/7/2021 5:45:00 AM -0.02 31.964 0.057 7.15 51.96 14.2
3/7/2021 6:00:00 AM -0.01 31.982 0.057 7.14 47.64 14.22
3/7/2021 6:15:00 AM -0.01 31.982 0.057 7.13 42.15 14.22
3/7/2021 6:30:00 AM -0.01 31.982 0.057 7.16 40.97 14.23
3/7/2021 6:45:00 AM -0.01 31.982 0.057 7.18 40.81 14.25
3/7/2021 7:00:00 AM -0.01 31.982 0.057 7.15 52 14.25
3/7/2021 7:15:00 AM -0.01 31.982 0.057 6.95 66.63 14.26
3/7/2021 7:30:00 AM -0.01 31.982 0.057 7.14 52.05 14.27
3/7/2021 7:45:00 AM -0.01 31.982 0.057 7.16 44.66 14.28
3/7/2021 8:00:00 AM 0 32 0.057 7.13 40.59 14.28
3/7/2021 8:15:00 AM 0 32 0.057 7.15 50.21 14.29
3/7/2021 8:30:00 AM 0 32 0.057 7.15 78.67 14.29
3/7/2021 8:45:00 AM 0 32 0.057 7.14 29.97 14.3
3/7/2021 9:00:00 AM 0.02 32.036 0.057 7.07 86.47 14.28
3/7/2021 9:15:00 AM 0.06 32.108 0.057 7.15 44.5 14.28
3/7/2021 9:30:00 AM 0.07 32.126 0.057 7.15 55.19 14.28
3/7/2021 9:45:00 AM 0.07 32.126 0.057 7.11 47.53 14.28
3/7/2021 10:00:00 AM 0.09 32.162 0.057 7.15 39.15 14.27
3/7/2021 10:15:00 AM 0.22 32.396 0.057 7.16 68.35 14.23
3/7/2021 10:30:00 AM 0.28 32.504 0.057 7.16 40.32 14.22
3/7/2021 10:45:00 AM 0.35 32.63 0.057 7.12 52.08 14.2
3/7/2021 11:00:00 AM 0.41 32.738 0.057 7.17 42.9 14.18
3/7/2021 11:15:00 AM 0.47 32.846 0.057 7.16 44.55 14.16
3/7/2021 11:30:00 AM 0.54 32.972 0.056 7.14 30.67 14.14
3/7/2021 11:45:00 AM 0.61 33.098 0.056 7.15 38.77 14.11
3/7/2021 12:00:00 PM 0.65 33.17 0.057 7.16 40.84 14.1
3/7/2021 12:15:00 PM 0.68 33.224 0.057 7.17 44.37 14.07
3/7/2021 12:30:00 PM 0.73 33.314 0.057 7.14 34.33 14.05
3/7/2021 12:45:00 PM 0.74 33.332 0.057 7.15 30.99 14.04
3/7/2021 1:00:00 PM 0.81 33.458 0.057 7.13 61.7 14.01
3/7/2021 1:15:00 PM 0.85 33.53 0.057 7.18 36.84 13.97
3/7/2021 1:30:00 PM 0.87 33.566 0.057 7.17 39.77 13.95
3/7/2021 1:45:00 PM 0.89 33.602 0.057 7.1 61.31 13.95
3/7/2021 2:00:00 PM 0.89 33.602 0.057 7.18 36.23 13.95
3/7/2021 2:15:00 PM 0.89 33.602 0.057 7.17 65.71 13.93
3/7/2021 2:30:00 PM 0.89 33.602 0.057 7.18 30.4 13.93
3/7/2021 2:45:00 PM 0.87 33.566 0.057 7.16 70.06 13.93
3/7/2021 3:00:00 PM 0.85 33.53 0.057 7.17 44.58 13.93
3/7/2021 3:15:00 PM 0.83 33.494 0.057 7.15 59.43 13.94
3/7/2021 3:30:00 PM 0.82 33.476 0.057 7.17 31.81 13.94
3/7/2021 3:45:00 PM 0.79 33.422 0.057 7.17 38.39 13.94
3/7/2021 4:00:00 PM 0.78 33.404 0.057 7.16 34.95 13.94
3/7/2021 4:15:00 PM 0.76 33.368 0.057 7.16 69.42 13.95
3/7/2021 4:30:00 PM 0.73 33.314 0.057 7.14 61.69 13.96
3/7/2021 4:45:00 PM 0.71 33.278 0.057 7.16 33.39 13.97
3/7/2021 5:00:00 PM 0.69 33.242 0.057 7.13 43.24 13.97
3/7/2021 5:15:00 PM 0.68 33.224 0.057 7.15 81.62 13.97
3/7/2021 5:30:00 PM 0.66 33.188 0.057 7.16 76.34 13.98
3/7/2021 5:45:00 PM 0.64 33.152 0.057 7.15 42.22 13.98
3/7/2021 6:00:00 PM 0.63 33.134 0.057 7.11 49.34 13.98
3/7/2021 6:15:00 PM 0.61 33.098 0.057 7.15 39.62 13.98
3/7/2021 6:30:00 PM 0.59 33.062 0.057 7.15 52.53 13.99
3/7/2021 6:45:00 PM 0.58 33.044 0.057 7.15 37.91 13.99
3/7/2021 7:00:00 PM 0.56 33.008 0.057 7.15 46.39 14
3/7/2021 7:15:00 PM 0.55 32.99 0.057 7.15 42.86 14
3/7/2021 7:30:00 PM 0.53 32.954 0.057 7.14 42.02 14.01
3/7/2021 7:45:00 PM 0.52 32.936 0.057 7.13 67.49 14.02
3/7/2021 8:00:00 PM 0.5 32.9 0.057 7.11 29.1 14.03
3/7/2021 8:15:00 PM 0.49 32.882 0.057 7.14 45.54 14.03
3/7/2021 8:30:00 PM 0.47 32.846 0.057 7.15 32.23 14.04
3/7/2021 8:45:00 PM 0.45 32.81 0.057 7.14 57.07 14.05
3/7/2021 9:00:00 PM 0.43 32.774 0.057 7.13 41.91 14.06
3/7/2021 9:15:00 PM 0.41 32.738 0.057 7.14 40.83 14.07
3/7/2021 9:30:00 PM 0.39 32.702 0.057 7.14 75.46 14.07
3/7/2021 9:45:00 PM 0.37 32.666 0.057 7.12 34.64 14.09
3/7/2021 10:00:00 PM 0.34 32.612 0.057 7.14 63.25 14.1
3/7/2021 10:15:00 PM 0.32 32.576 0.057 7.14 62.39 14.11
3/7/2021 10:30:00 PM 0.29 32.522 0.057 7.11 45.65 14.12
3/7/2021 10:45:00 PM 0.26 32.468 0.057 7.11 47.47 14.13
3/7/2021 11:00:00 PM 0.24 32.432 0.057 7.12 33.97 14.14
3/7/2021 11:15:00 PM 0.21 32.378 0.057 7.04 44.8 14.15
3/7/2021 11:30:00 PM 0.18 32.324 0.057 7.14 66.89 14.16
3/7/2021 11:45:00 PM 0.15 32.27 0.057 7.14 45.32 14.17
3/8/2021 12:00:00 AM 0.12 32.216 0.057 7.1 62.89 14.19
3/8/2021 12:15:00 AM 0.09 32.162 0.057 7.14 32.73 14.2
3/8/2021 12:30:00 AM 0.05 32.09 0.057 7.14 36.94 14.21
3/8/2021 12:45:00 AM 0.03 32.054 0.058 7.13 45.76 14.23
3/8/2021 1:00:00 AM 0 32 0.058 7.08 47.44 14.23
3/8/2021 1:15:00 AM -0.03 31.946 0.058 7.15 36.4 14.25
3/8/2021 1:30:00 AM -0.04 31.928 0.058 7.11 43.42 14.27
3/8/2021 1:45:00 AM -0.02 31.964 0.058 7.14 33.04 14.27
3/8/2021 2:00:00 AM -0.02 31.964 0.058 7.13 59.61 14.28
3/8/2021 2:15:00 AM -0.01 31.982 0.058 7.02 73.86 14.29
3/8/2021 2:30:00 AM -0.01 31.982 0.058 7.11 51.7 14.29
3/8/2021 2:45:00 AM -0.01 31.982 0.058 7.17 38.15 14.29
3/8/2021 3:00:00 AM -0.01 31.982 0.058 7.16 34.31 14.31
3/8/2021 3:15:00 AM -0.01 31.982 0.058 7.15 45.6 14.31
3/8/2021 3:30:00 AM -0.01 31.982 0.058 7.13 56.74 14.31
3/8/2021 3:45:00 AM -0.01 31.982 0.058 7.04 58.36 14.29
3/8/2021 4:00:00 AM -0.01 31.982 0.059 7.08 46.65 14.3
3/8/2021 4:15:00 AM -0.01 31.982 0.059 7.15 64.11 14.29
3/8/2021 4:30:00 AM -0.01 31.982 0.059 6.97 48.1 14.29
3/8/2021 4:45:00 AM -0.01 31.982 0.059 7.13 42.13 14.3
3/8/2021 5:00:00 AM -0.01 31.982 0.059 7.17 63.16 14.3
3/8/2021 5:15:00 AM -0.01 31.982 0.059 7.14 45.94 14.3
3/8/2021 5:30:00 AM -0.01 31.982 0.059 7.14 97.19 14.3
3/8/2021 5:45:00 AM -0.01 31.982 0.059 7.08 33.87 14.3
3/8/2021 6:00:00 AM -0.01 31.982 0.06 7.13 30.53 14.3
3/8/2021 6:15:00 AM -0.01 31.982 0.06 7.15 43.17 14.29
3/8/2021 6:30:00 AM -0.01 31.982 0.06 7.13 36.76 14.29
3/8/2021 6:45:00 AM 0 32 0.06 7.14 38.16 14.31
3/8/2021 7:00:00 AM 0 32 0.06 7.15 54.6 14.31
3/8/2021 7:15:00 AM 0 32 0.06 7.16 50.22 14.32
3/8/2021 7:30:00 AM 0 32 0.061 7.16 57.84 14.34
3/8/2021 7:45:00 AM 0 32 0.061 7.16 32.52 14.34
3/8/2021 8:00:00 AM 0 32 0.061 7.12 72.98 14.35
3/8/2021 8:15:00 AM 0 32 0.061 7.16 39.93 14.36
3/8/2021 8:30:00 AM 0 32 0.061 7.17 51.14 14.36
3/8/2021 8:45:00 AM 0 32 0.061 7.18 38.61 14.36
3/8/2021 9:00:00 AM 0 32 0.061 7.19 55.35 14.35
3/8/2021 9:15:00 AM 0 32 0.061 7.17 46.23 14.35
3/8/2021 9:30:00 AM 0 32 0.06 7.19 59.58 14.33
3/8/2021 9:45:00 AM 0 32 0.06 7.19 54.16 14.33
3/8/2021 10:00:00 AM 0 32 0.06 7.18 67.2 14.32
3/8/2021 10:15:00 AM 0.01 32.018 0.06 7.19 133.56 14.32
3/8/2021 10:30:00 AM 0.03 32.054 0.06 7.05 80.85 14.31
3/8/2021 10:45:00 AM 0.05 32.09 0.059 7.16 84.26 14.31
3/8/2021 11:00:00 AM 0.05 32.09 0.059 7.19 139.61 14.3
3/8/2021 11:15:00 AM 0.03 32.054 0.059 7.18 209.33 14.3
3/8/2021 11:30:00 AM 0.06 32.108 0.058 7.19 229.7 14.3
3/8/2021 11:45:00 AM 0.04 32.072 0.058 7.08 219.33 14.29
3/8/2021 12:00:00 PM 0.03 32.054 0.057 7.2 178.06 14.28
3/8/2021 12:15:00 PM 0.03 32.054 0.057 7.18 152.91 14.29
3/8/2021 12:30:00 PM 0.03 32.054 0.056 7.18 194.56 14.28
3/8/2021 12:45:00 PM 0.03 32.054 0.056 7.18 121.64 14.3
3/8/2021 1:00:00 PM 0.04 32.072 0.056 7.13 108.65 14.29
3/8/2021 1:15:00 PM 0.07 32.126 0.056 7.13 114.48 14.29
3/8/2021 1:30:00 PM 0.09 32.162 0.056 7.17 110.72 14.28
3/8/2021 1:45:00 PM 0.1 32.18 0.056 7.18 135.37 14.27
3/8/2021 2:00:00 PM 0.14 32.252 0.056 7.18 165.83 14.25
3/8/2021 2:15:00 PM 0.18 32.324 0.056 7.17 90.44 14.24
3/8/2021 2:30:00 PM 0.2 32.36 0.056 7.17 120.58 14.23
3/8/2021 2:45:00 PM 0.24 32.432 0.056 7.17 44.33 14.22
3/8/2021 3:00:00 PM 0.28 32.504 0.056 7.18 60.06 14.2
3/8/2021 3:15:00 PM 0.33 32.594 0.056 7.18 57.5 14.19
3/8/2021 3:30:00 PM 0.34 32.612 0.057 7.17 66.86 14.16
3/8/2021 3:45:00 PM 0.35 32.63 0.057 7.17 96.89 14.15
3/8/2021 4:00:00 PM 0.38 32.684 0.057 7.17 54.75 14.13
3/8/2021 4:15:00 PM 0.43 32.774 0.057 7.17 45.77 14.11
3/8/2021 4:30:00 PM 0.47 32.846 0.057 7.17 42.69 14.09
3/8/2021 4:45:00 PM 0.51 32.918 0.057 7.17 66.87 14.07
3/8/2021 5:00:00 PM 0.56 33.008 0.057 7.17 41.4 14.05
3/8/2021 5:15:00 PM 0.59 33.062 0.057 7.17 75.08 14.04
3/8/2021 5:30:00 PM 0.6 33.08 0.057 7.16 68.96 14.01
3/8/2021 5:45:00 PM 0.6 33.08 0.057 7.16 46.7 14
3/8/2021 6:00:00 PM 0.6 33.08 0.057 7.16 65.8 13.99
3/8/2021 6:15:00 PM 0.61 33.098 0.057 7.15 39.03 13.97
3/8/2021 6:30:00 PM 0.61 33.098 0.057 7.15 48.71 13.97
3/8/2021 6:45:00 PM 0.62 33.116 0.057 7.16 56.91 13.96
3/8/2021 7:00:00 PM 0.63 33.134 0.057 7.16 75.23 13.96
3/8/2021 7:15:00 PM 0.65 33.17 0.057 7.15 71.84 13.95
3/8/2021 7:30:00 PM 0.66 33.188 0.057 7.15 60.06 13.95
3/8/2021 7:45:00 PM 0.66 33.188 0.057 7.11 52.76 13.95
3/8/2021 8:00:00 PM 0.66 33.188 0.057 7.1 70.5 13.94
3/8/2021 8:15:00 PM 0.67 33.206 0.057 7.14 29.34 13.94
3/8/2021 8:30:00 PM 0.67 33.206 0.057 7.14 37.5 13.94
3/8/2021 8:45:00 PM 0.68 33.224 0.057 7.14 46.82 13.93
3/8/2021 9:00:00 PM 0.69 33.242 0.057 7.14 54.67 13.92
3/8/2021 9:15:00 PM 0.7 33.26 0.057 7.15 63.85 13.93
3/8/2021 9:30:00 PM 0.7 33.26 0.057 7.15 52.47 13.92
3/8/2021 9:45:00 PM 0.71 33.278 0.057 7.12 63.06 13.91
3/8/2021 10:00:00 PM 0.73 33.314 0.057 7.15 48.99 13.92
3/8/2021 10:15:00 PM 0.75 33.35 0.057 7.15 30.01 13.9
3/8/2021 10:30:00 PM 0.77 33.386 0.057 7.13 57.08 13.9
3/8/2021 10:45:00 PM 0.79 33.422 0.057 7.11 44.29 13.89
3/8/2021 11:00:00 PM 0.81 33.458 0.058 7.15 55.01 13.87
3/8/2021 11:15:00 PM 0.83 33.494 0.058 7.11 39.23 13.87
3/8/2021 11:30:00 PM 0.85 33.53 0.057 7.13 38.65 13.87
3/8/2021 11:45:00 PM 0.85 33.53 0.058 7.1 38.1 13.85
3/9/2021 12:00:00 AM 0.86 33.548 0.058 7.16 91.63 13.84
3/9/2021 12:15:00 AM 0.87 33.566 0.058 7.15 45.41 13.83
3/9/2021 12:30:00 AM 0.88 33.584 0.058 7.15 48.69 13.83
3/9/2021 12:45:00 AM 0.88 33.584 0.058 7.16 73.5 13.84
3/9/2021 1:00:00 AM 0.88 33.584 0.058 7.12 67.86 13.83
3/9/2021 1:15:00 AM 0.89 33.602 0.058 7.15 65.45 13.82
3/9/2021 1:30:00 AM 0.89 33.602 0.058 7.15 37.78 13.83
3/9/2021 1:45:00 AM 0.89 33.602 0.058 7.15 55.87 13.83
3/9/2021 2:00:00 AM 0.89 33.602 0.058 7.15 37.29 13.83
3/9/2021 2:15:00 AM 0.89 33.602 0.058 7.16 38.27 13.82
3/9/2021 2:30:00 AM 0.89 33.602 0.058 7.14 49.82 13.81
3/9/2021 2:45:00 AM 0.89 33.602 0.058 7.14 81.27 13.81
3/9/2021 3:00:00 AM 0.9 33.62 0.058 7.14 36.82 13.81
3/9/2021 3:15:00 AM 0.9 33.62 0.058 7.15 36.6 13.81
3/9/2021 3:30:00 AM 0.9 33.62 0.058 7.15 44.6 13.81
3/9/2021 3:45:00 AM 0.9 33.62 0.058 7.15 48.36 13.82
3/9/2021 4:00:00 AM 0.9 33.62 0.058 7.09 33.33 13.82
3/9/2021 4:15:00 AM 0.91 33.638 0.058 7.15 43.24 13.82
3/9/2021 4:30:00 AM 0.91 33.638 0.058 7.15 34.5 13.8
3/9/2021 4:45:00 AM 0.91 33.638 0.058 7.12 64.58 13.81
3/9/2021 5:00:00 AM 0.91 33.638 0.058 7.15 62.65 13.82
3/9/2021 5:15:00 AM 0.91 33.638 0.058 7.14 61.56 13.81
3/9/2021 5:30:00 AM 0.91 33.638 0.058 7.15 61.07 13.81
3/9/2021 5:45:00 AM 0.91 33.638 0.058 7.15 35.57 13.82
3/9/2021 6:00:00 AM 0.91 33.638 0.058 7.16 69.24 13.82
3/9/2021 6:15:00 AM 0.9 33.62 0.058 7.14 72.97 13.83
3/9/2021 6:30:00 AM 0.9 33.62 0.058 7.15 65.12 13.83
3/9/2021 6:45:00 AM 0.9 33.62 0.058 7.12 72.71 13.84
3/9/2021 7:00:00 AM 0.91 33.638 0.058 7.16 76.48 13.85
3/9/2021 7:15:00 AM 0.94 33.692 0.058 7.14 43.09 13.86
3/9/2021 7:30:00 AM 0.98 33.764 0.058 7.16 58.8 13.87
3/9/2021 7:45:00 AM 1.02 33.836 0.058 7.16 68.43 13.86
3/9/2021 8:00:00 AM 1.07 33.926 0.058 7.15 87.8 13.87
3/9/2021 8:15:00 AM 1.12 34.016 0.058 7.18 54.79 13.85
3/9/2021 8:30:00 AM 1.18 34.124 0.058 7.19 49.41 13.85
3/9/2021 8:45:00 AM 1.26 34.268 0.058 7.18 63.02 13.83
3/9/2021 9:00:00 AM 1.34 34.412 0.058 7.12 44.86 13.82
3/9/2021 9:15:00 AM 1.42 34.556 0.058 7.15 63.16 13.79
3/9/2021 9:30:00 AM 1.52 34.736 0.058 7.18 61.95 13.76
3/9/2021 9:45:00 AM 1.63 34.934 0.058 7.19 54.03 13.72
3/9/2021 10:00:00 AM 1.75 35.15 0.058 7.2 64.32 13.69
3/9/2021 10:15:00 AM 1.84 35.312 0.058 7.06 61.69 13.66
3/9/2021 10:30:00 AM 1.93 35.474 0.058 7.21 53.68 13.62
3/9/2021 10:45:00 AM 2 35.6 0.058 7.22 42.85 13.6
3/9/2021 11:00:00 AM 2.04 35.672 0.058 7.22 86.11 13.57
3/9/2021 11:15:00 AM 2.14 35.852 0.058 7.1 49.82 13.54
3/9/2021 11:30:00 AM 2.18 35.924 0.058 7.24 80.21 13.52
3/9/2021 11:45:00 AM 2.22 35.996 0.058 7.16 74.28 13.51
3/9/2021 12:00:00 PM 2.26 36.068 0.058 7.15 173.47 13.49
3/9/2021 12:15:00 PM 2.25 36.05 0.058 7.23 106.64 13.48
3/9/2021 12:30:00 PM 2.23 36.014 0.058 7.21 139.35 13.48
3/9/2021 12:45:00 PM 2.27 36.086 0.058 7.23 94.21 13.44
3/9/2021 1:00:00 PM 2.32 36.176 0.059 7.24 223.54 13.43
3/9/2021 1:15:00 PM 2.36 36.248 0.059 7.24 252.38 13.41
3/9/2021 1:30:00 PM 2.32 36.176 0.059 7.24 99.67 13.4
3/9/2021 1:45:00 PM 2.27 36.086 0.059 7.23 288.34 13.39
3/9/2021 2:00:00 PM 2.25 36.05 0.059 7.23 127.78 13.4
3/9/2021 2:15:00 PM 2.26 36.068 0.059 7.13 148.67 13.41
3/9/2021 2:30:00 PM 2.08 35.744 0.059 7.22 142.72 13.43
3/9/2021 2:45:00 PM 2.17 35.906 0.059 7.23 229.9 13.43
3/9/2021 3:00:00 PM 2.15 35.87 0.058 7.22 112.13 13.43
3/9/2021 3:15:00 PM 2.07 35.726 0.058 7.22 285.83 13.45
3/9/2021 3:30:00 PM 2.02 35.636 0.058 7.22 156.13 13.47
3/9/2021 3:45:00 PM 1.93 35.474 0.058 7.22 226.83 13.5
3/9/2021 4:00:00 PM 1.95 35.51 0.058 7.21 129.63 13.49
3/9/2021 4:15:00 PM 1.87 35.366 0.058 7.19 162.08 13.51
3/9/2021 4:30:00 PM 1.79 35.222 0.058 7.16 161.16 13.54
3/9/2021 4:45:00 PM 1.78 35.204 0.058 7.2 243.43 13.54
3/9/2021 5:00:00 PM 1.74 35.132 0.058 7.18 214.38 13.56
3/9/2021 5:15:00 PM 1.68 35.024 0.058 7.18 144.95 13.58
3/9/2021 5:30:00 PM 1.62 34.916 0.058 7.19 188.62 13.61
3/9/2021 5:45:00 PM 1.62 34.916 0.058 7.15 138.74 13.61
3/9/2021 6:00:00 PM 1.59 34.862 0.058 7.18 187.86 13.62
3/9/2021 6:15:00 PM 1.56 34.808 0.058 7.13 129.45 13.63
3/9/2021 6:30:00 PM 1.53 34.754 0.058 7.17 148.68 13.63
3/9/2021 6:45:00 PM 1.52 34.736 0.058 7.18 109.03 13.64
3/9/2021 7:00:00 PM 1.5 34.7 0.058 7.17 183.3 13.65
3/9/2021 7:15:00 PM 1.48 34.664 0.058 7.17 161.62 13.66
3/9/2021 7:30:00 PM 1.47 34.646 0.058 7.14 160.48 13.67
3/9/2021 7:45:00 PM 1.46 34.628 0.058 7.17 176.19 13.67
3/9/2021 8:00:00 PM 1.45 34.61 0.058 7.17 271.42 13.67
3/9/2021 8:15:00 PM 1.44 34.592 0.058 7.16 68.77 13.68
3/9/2021 8:30:00 PM 1.43 34.574 0.058 7.16 100.47 13.68
3/9/2021 8:45:00 PM 1.42 34.556 0.058 7.17 99.38 13.69
3/9/2021 9:00:00 PM 1.41 34.538 0.058 7.16 131.74 13.7
3/9/2021 9:15:00 PM 1.4 34.52 0.058 7.17 226.69 13.7
3/9/2021 9:30:00 PM 1.38 34.484 0.058 7.17 107.18 13.7
3/9/2021 9:45:00 PM 1.37 34.466 0.058 7.17 162.44 13.7
3/9/2021 10:00:00 PM 1.36 34.448 0.058 7.16 108.56 13.72
3/9/2021 10:15:00 PM 1.35 34.43 0.058 7.17 78.38 13.71
3/9/2021 10:30:00 PM 1.34 34.412 0.058 7.16 192.72 13.73
3/9/2021 10:45:00 PM 1.33 34.394 0.058 7.16 112.08 13.73
3/9/2021 11:00:00 PM 1.32 34.376 0.058 7.16 88.15 13.73
3/9/2021 11:15:00 PM 1.31 34.358 0.058 7.16 143.55 13.73
3/9/2021 11:30:00 PM 1.29 34.322 0.058 7.16 142.92 13.74
3/9/2021 11:45:00 PM 1.28 34.304 0.058 7.14 122.87 13.74
3/10/2021 12:00:00 AM 1.28 34.304 0.058 7.16 121.91 13.76
3/10/2021 12:15:00 AM 1.27 34.286 0.058 7.15 95.72 13.76
3/10/2021 12:30:00 AM 1.26 34.268 0.058 7.14 153.93 13.76
3/10/2021 12:45:00 AM 1.25 34.25 0.058 7.15 89.05 13.76
3/10/2021 1:00:00 AM 1.25 34.25 0.058 7.16 79.78 13.76
3/10/2021 1:15:00 AM 1.24 34.232 0.058 7.15 81.05 13.77
3/10/2021 1:30:00 AM 1.23 34.214 0.058 7.15 124.65 13.77
3/10/2021 1:45:00 AM 1.22 34.196 0.058 7.14 111.42 13.77
3/10/2021 2:00:00 AM 1.22 34.196 0.058 7.05 109.47 13.78
3/10/2021 2:15:00 AM 1.21 34.178 0.058 7.16 94.43 13.79
3/10/2021 2:30:00 AM 1.2 34.16 0.058 7.16 59.16 13.78
3/10/2021 2:45:00 AM 1.2 34.16 0.057 7.16 58.53 13.79
3/10/2021 3:00:00 AM 1.2 34.16 0.057 7.15 77.72 13.78
3/10/2021 3:15:00 AM 1.19 34.142 0.057 7.15 207.52 13.78
3/10/2021 3:30:00 AM 1.18 34.124 0.057 7.15 72.01 13.78
3/10/2021 3:45:00 AM 1.17 34.106 0.057 7.15 54.9 13.79
3/10/2021 4:00:00 AM 1.16 34.088 0.057 7.15 60.21 13.79
3/10/2021 4:15:00 AM 1.16 34.088 0.057 7.14 87.36 13.79
3/10/2021 4:30:00 AM 1.15 34.07 0.057 7.14 112.42 13.81
3/10/2021 4:45:00 AM 1.14 34.052 0.057 7.14 99.04 13.81
3/10/2021 5:00:00 AM 1.13 34.034 0.057 7.14 54.03 13.8
3/10/2021 5:15:00 AM 1.12 34.016 0.057 7.14 138.41 13.81
3/10/2021 5:30:00 AM 1.11 33.998 0.057 7.14 85.74 13.81
3/10/2021 5:45:00 AM 1.11 33.998 0.057 7.02 55.04 13.83
3/10/2021 6:00:00 AM 1.1 33.98 0.057 7.15 81.04 13.82
3/10/2021 6:15:00 AM 1.09 33.962 0.057 7.12 49.19 13.83
3/10/2021 6:30:00 AM 1.08 33.944 0.057 7.14 69.12 13.83
3/10/2021 6:45:00 AM 1.08 33.944 0.057 7.11 140.26 13.85
3/10/2021 7:00:00 AM 1.09 33.962 0.057 7.15 62.15 13.86
3/10/2021 7:15:00 AM 1.1 33.98 0.057 7.15 82.33 13.85
3/10/2021 7:30:00 AM 1.11 33.998 0.057 7.15 69.11 13.87
3/10/2021 7:45:00 AM 1.15 34.07 0.057 7.16 103.7 13.87
3/10/2021 8:00:00 AM 1.2 34.16 0.057 7.16 61.18 13.86
3/10/2021 8:15:00 AM 1.27 34.286 0.057 7.16 103.49 13.85
3/10/2021 8:30:00 AM 1.35 34.43 0.057 7.12 58.88 13.83
3/10/2021 8:45:00 AM 1.44 34.592 0.057 7.12 60.82 13.82
3/10/2021 9:00:00 AM 1.55 34.79 0.057 7.18 73.63 13.78
3/10/2021 9:15:00 AM 1.66 34.988 0.057 7.18 53.46 13.75
3/10/2021 9:30:00 AM 1.78 35.204 0.057 7.13 71.04 13.71
3/10/2021 9:45:00 AM 1.9 35.42 0.056 7.18 65.31 13.68
3/10/2021 10:00:00 AM 2.01 35.618 0.056 7.19 89.8 13.63
3/10/2021 10:15:00 AM 2.12 35.816 0.056 7.2 167.75 13.6
3/10/2021 10:30:00 AM 2.22 35.996 0.056 7.2 61.74 13.57
3/10/2021 10:45:00 AM 2.33 36.194 0.057 7.19 83.92 13.52
3/10/2021 11:00:00 AM 2.43 36.374 0.057 7.2 86.04 13.48
3/10/2021 11:15:00 AM 2.49 36.482 0.056 7.09 52.73 13.46
3/10/2021 11:30:00 AM 2.56 36.608 0.056 7.22 135.37 13.41
3/10/2021 11:45:00 AM 2.67 36.806 0.056 7.17 190.67 13.37
3/10/2021 12:00:00 PM 2.73 36.914 0.056 7.21 128.18 13.34
3/10/2021 12:15:00 PM 2.74 36.932 0.056 7.21 129.74 13.33
3/10/2021 12:30:00 PM 2.7 36.86 0.056 7.22 112.88 13.31
3/10/2021 12:45:00 PM 2.75 36.95 0.056 7.22 241.69 13.27
3/10/2021 1:00:00 PM 2.86 37.148 0.056 7.19 126.49 13.24
3/10/2021 1:15:00 PM 2.77 36.986 0.056 7.21 148.57 13.23
3/10/2021 1:30:00 PM 2.86 37.148 0.056 7.21 279.77 13.21
3/10/2021 1:45:00 PM 2.78 37.004 0.056 7.08 158.82 13.22
3/10/2021 2:00:00 PM 2.7 36.86 0.056 7.16 305.68 13.23
3/10/2021 2:15:00 PM 2.62 36.716 0.056 7.23 194.62 13.23
3/10/2021 2:30:00 PM 2.58 36.644 0.056 7.22 208.88 13.24
3/10/2021 2:45:00 PM 2.55 36.59 0.056 7.21 297.36 13.27
3/10/2021 3:00:00 PM 2.46 36.428 0.055 7.21 350.72 13.27
3/10/2021 3:15:00 PM 2.46 36.428 0.055 7.21 413.2 13.29
3/10/2021 3:30:00 PM 2.4 36.32 0.055 7.17 214.5 13.3
3/10/2021 3:45:00 PM 2.3 36.14 0.055 7.14 574.8 13.32
3/10/2021 4:00:00 PM 2.26 36.068 0.055 7.18 263.54 13.33
3/10/2021 4:15:00 PM 2.2 35.96 0.054 7.05 257.62 13.36
3/10/2021 4:30:00 PM 2.15 35.87 0.054 7.18 175.87 13.37
3/10/2021 4:45:00 PM 2.06 35.708 0.054 7.17 223.81 13.39
3/10/2021 5:00:00 PM 2.02 35.636 0.054 7.15 247.62 13.42
3/10/2021 5:15:00 PM 1.96 35.528 0.053 7.14 409.15 13.45
3/10/2021 5:30:00 PM 1.92 35.456 0.053 7.13 329.52 13.46
3/10/2021 5:45:00 PM 1.91 35.438 0.053 7.13 218.4 13.46
3/10/2021 6:00:00 PM 1.86 35.348 0.053 7.1 331.35 13.47
3/10/2021 6:15:00 PM 1.82 35.276 0.053 7.09 225.39 13.49
3/10/2021 6:30:00 PM 1.82 35.276 0.053 6.93 185.18 13.49
3/10/2021 6:45:00 PM 1.82 35.276 0.052 7.1 185.45 13.49
3/10/2021 7:00:00 PM 1.78 35.204 0.052 7.09 350.45 13.5
3/10/2021 7:15:00 PM 1.72 35.096 0.052 7.08 206.15 13.52
3/10/2021 7:30:00 PM 1.77 35.186 0.052 6.89 270.29 13.52
3/10/2021 7:45:00 PM 1.79 35.222 0.051 7.09 213.26 13.51
3/10/2021 8:00:00 PM 1.8 35.24 0.051 7.08 277.67 13.5
3/10/2021 8:15:00 PM 1.75 35.15 0.051 7.06 219.37 13.5
3/10/2021 8:30:00 PM 1.82 35.276 0.051 6.99 303.28 13.5
3/10/2021 8:45:00 PM 1.83 35.294 0.051 7.04 337.2 13.49
3/10/2021 9:00:00 PM 1.85 35.33 0.05 7.07 239.63 13.48
3/10/2021 9:15:00 PM 1.87 35.366 0.05 7.05 278.61 13.48
3/10/2021 9:30:00 PM 1.89 35.402 0.05 7.05 194.57 13.47
3/10/2021 9:45:00 PM 1.91 35.438 0.05 7.06 238.38 13.46
3/10/2021 10:00:00 PM 1.93 35.474 0.049 7.07 221.56 13.46
3/10/2021 10:15:00 PM 1.94 35.492 0.049 6.93 168.72 13.45
3/10/2021 10:30:00 PM 1.97 35.546 0.049 7.02 224.38 13.45
3/10/2021 10:45:00 PM 1.98 35.564 0.049 7.05 201.21 13.44
3/10/2021 11:00:00 PM 1.99 35.582 0.049 6.95 236.17 13.43
3/10/2021 11:15:00 PM 1.99 35.582 0.048 7.05 284.71 13.43
3/10/2021 11:30:00 PM 2 35.6 0.048 6.94 441.73 13.43
3/10/2021 11:45:00 PM 2.02 35.636 0.048 7.04 194.12 13.42
3/11/2021 12:00:00 AM 2.01 35.618 0.048 7.02 228.3 13.42
3/11/2021 12:15:00 AM 2 35.6 0.048 7.03 208.74 13.43
3/11/2021 12:30:00 AM 1.98 35.564 0.047 7.02 198.31 13.43
3/11/2021 12:45:00 AM 1.99 35.582 0.047 7.03 161.95 13.43
3/11/2021 1:00:00 AM 2.01 35.618 0.047 6.93 166.69 13.42
3/11/2021 1:15:00 AM 2.03 35.654 0.047 7.01 280.58 13.42
3/11/2021 1:30:00 AM 2.04 35.672 0.047 7.03 231.94 13.41
3/11/2021 1:45:00 AM 2.04 35.672 0.047 7.01 243.68 13.41
3/11/2021 2:00:00 AM 2.04 35.672 0.047 6.84 198.56 13.41
3/11/2021 2:15:00 AM 2.06 35.708 0.047 7.02 264.62 13.4
3/11/2021 2:30:00 AM 2.08 35.744 0.047 7.01 238.61 13.39
3/11/2021 2:45:00 AM 2.1 35.78 0.046 6.98 150.2 13.38
3/11/2021 3:00:00 AM 2.11 35.798 0.046 7.01 239.75 13.38
3/11/2021 3:15:00 AM 2.12 35.816 0.046 6.9 132.24 13.37
3/11/2021 3:30:00 AM 2.14 35.852 0.046 7 181.19 13.37
3/11/2021 3:45:00 AM 2.15 35.87 0.046 7.01 207.07 13.36
3/11/2021 4:00:00 AM 2.15 35.87 0.046 6.93 244.35 13.36
3/11/2021 4:15:00 AM 2.16 35.888 0.046 7.02 186.9 13.36
3/11/2021 4:30:00 AM 2.16 35.888 0.046 7.01 173.45 13.36
3/11/2021 4:45:00 AM 2.16 35.888 0.046 6.96 217.47 13.36
3/11/2021 5:00:00 AM 2.17 35.906 0.046 7.01 197.5 13.35
3/11/2021 5:15:00 AM 2.18 35.924 0.046 6.91 195.54 13.35
3/11/2021 5:30:00 AM 2.17 35.906 0.046 6.99 163.75 13.35
3/11/2021 5:45:00 AM 2.18 35.924 0.046 7 151.3 13.35
3/11/2021 6:00:00 AM 2.16 35.888 0.045 7 172.34 13.35
3/11/2021 6:15:00 AM 2.16 35.888 0.045 6.99 153.28 13.36
3/11/2021 6:30:00 AM 2.17 35.906 0.045 7 158.13 13.35
3/11/2021 6:45:00 AM 2.17 35.906 0.045 6.86 154.62 13.36
3/11/2021 7:00:00 AM 2.19 35.942 0.045 6.9 185.47 13.35
3/11/2021 7:15:00 AM 2.19 35.942 0.045 6.97 190.8 13.35
3/11/2021 7:30:00 AM 2.19 35.942 0.045 7 147.37 13.35
3/11/2021 7:45:00 AM 2.23 36.014 0.045 7 168.11 13.34
3/11/2021 8:00:00 AM 2.22 35.996 0.045 6.98 232.45 13.35
3/11/2021 8:15:00 AM 2.28 36.104 0.045 7.01 175.52 13.34
3/11/2021 8:30:00 AM 2.37 36.266 0.044 6.89 163.31 13.32
3/11/2021 8:45:00 AM 2.45 36.41 0.044 6.89 153.45 13.3
3/11/2021 9:00:00 AM 2.48 36.464 0.044 7.01 157.36 13.29
3/11/2021 9:15:00 AM 2.61 36.698 0.044 6.97 174.9 13.26
3/11/2021 9:30:00 AM 2.65 36.77 0.044 7.01 169.57 13.23
3/11/2021 9:45:00 AM 2.66 36.788 0.044 7.02 221.6 13.21
3/11/2021 10:00:00 AM 2.65 36.77 0.044 7.01 198.9 13.21
3/11/2021 10:15:00 AM 2.69 36.842 0.044 6.87 209.76 13.2
3/11/2021 10:30:00 AM 2.77 36.986 0.044 7 168.98 13.17
3/11/2021 10:45:00 AM 2.93 37.274 0.044 6.93 228.38 13.13
3/11/2021 11:00:00 AM 2.98 37.364 0.044 6.95 255.9 13.09
3/11/2021 11:15:00 AM 3.06 37.508 0.043 7.05 233.09 13.08
3/11/2021 11:30:00 AM 3.14 37.652 0.043 7.02 316.31 13.04
3/11/2021 11:45:00 AM 3.28 37.904 0.043 7.03 245.74 13
3/11/2021 12:00:00 PM 3.41 38.138 0.043 6.9 373.63 12.95
3/11/2021 12:15:00 PM 3.45 38.21 0.043 7.02 334.07 12.92
3/11/2021 12:30:00 PM 3.57 38.426 0.043 6.81 380.93 12.87
3/11/2021 12:45:00 PM 3.71 38.678 0.043 7.02 415.31 12.84
3/11/2021 1:00:00 PM 3.72 38.696 0.042 6.99 568.53 12.82
3/11/2021 1:15:00 PM 3.65 38.57 0.042 6.99 430.37 12.83
3/11/2021 1:30:00 PM 3.73 38.714 0.042 6.99 422.96 12.81
3/11/2021 1:45:00 PM 3.65 38.57 0.042 7.01 419.79 12.82
3/11/2021 2:00:00 PM 3.5 38.3 0.041 7.02 419.94 12.88
3/11/2021 2:15:00 PM 3.58 38.444 0.041 7.01 620.9 12.85
3/11/2021 2:30:00 PM 3.6 38.48 0.041 6.82 582.67 12.84
3/11/2021 2:45:00 PM 3.57 38.426 0.041 6.95 514.24 12.86
3/11/2021 3:00:00 PM 3.59 38.462 0.041 6.95 485.1 12.85
3/11/2021 3:15:00 PM 3.61 38.498 0.041 7.01 459.11 12.84
3/11/2021 3:30:00 PM 3.53 38.354 0.04 6.96 665.62 12.87
3/11/2021 3:45:00 PM 3.53 38.354 0.04 7.01 417.85 12.87
3/11/2021 4:00:00 PM 3.51 38.318 0.04 6.96 439.64 12.88
3/11/2021 4:15:00 PM 3.45 38.21 0.04 6.95 487.66 12.9
3/11/2021 4:30:00 PM 3.42 38.156 0.039 6.76 447.04 12.91
3/11/2021 4:45:00 PM 3.43 38.174 0.039 7 418.02 12.9
3/11/2021 5:00:00 PM 3.42 38.156 0.039 6.98 489.45 12.91
3/11/2021 5:15:00 PM 3.38 38.084 0.039 6.93 450.88 12.92
3/11/2021 5:30:00 PM 3.33 37.994 0.038 6.93 267.94 12.94
3/11/2021 5:45:00 PM 3.29 37.922 0.038 6.93 277.73 12.95
3/11/2021 6:00:00 PM 3.24 37.832 0.038 6.91 330.57 12.96
3/11/2021 6:15:00 PM 3.19 37.742 0.038 6.87 279.7 12.97
3/11/2021 6:30:00 PM 3.15 37.67 0.038 6.83 325.64 12.98
3/11/2021 6:45:00 PM 3.17 37.706 0.038 6.89 252.22 12.98
3/11/2021 7:00:00 PM 3.25 37.85 0.037 6.95 319.97 12.96
3/11/2021 7:15:00 PM 3.29 37.922 0.037 6.94 214.81 12.94
3/11/2021 7:30:00 PM 3.37 38.066 0.037 6.9 366.61 12.92
3/11/2021 7:45:00 PM 3.38 38.084 0.037 6.79 227.4 12.91
3/11/2021 8:00:00 PM 3.35 38.03 0.037 6.89 182.05 12.92
3/11/2021 8:15:00 PM 3.33 37.994 0.037 6.87 261.32 12.93
3/11/2021 8:30:00 PM 3.34 38.012 0.037 6.83 162.39 12.93
3/11/2021 8:45:00 PM 3.34 38.012 0.037 6.73 252.41 12.92
3/11/2021 9:00:00 PM 3.36 38.048 0.036 6.87 244.73 12.91
3/11/2021 9:15:00 PM 3.38 38.084 0.036 6.87 184.86 12.91
3/11/2021 9:30:00 PM 3.4 38.12 0.036 6.91 1643.33 12.9
3/11/2021 9:45:00 PM 3.41 38.138 0.036 6.93 224.73 12.9
3/11/2021 10:00:00 PM 3.39 38.102 0.036 6.81 181.39 12.9
3/11/2021 10:15:00 PM 3.39 38.102 0.036 6.95 182.52 12.9
3/11/2021 10:30:00 PM 3.4 38.12 0.036 6.94 211.79 12.9
3/11/2021 10:45:00 PM 3.39 38.102 0.036 6.93 182.75 12.9
3/11/2021 11:00:00 PM 3.39 38.102 0.036 6.93 226.41 12.9
3/11/2021 11:15:00 PM 3.4 38.12 0.036 6.94 207.35 12.9
3/11/2021 11:30:00 PM 3.41 38.138 0.036 6.87 189.44 12.9
3/11/2021 11:45:00 PM 3.42 38.156 0.036 6.93 227.24 12.9
3/12/2021 12:00:00 AM 3.43 38.174 0.036 6.93 184.48 12.88
3/12/2021 12:15:00 AM 3.44 38.192 0.035 6.91 184.52 12.89
3/12/2021 12:30:00 AM 3.46 38.228 0.035 6.9 156.75 12.89
3/12/2021 12:45:00 AM 3.47 38.246 0.035 6.92 197.07 12.88
3/12/2021 1:00:00 AM 3.47 38.246 0.035 6.75 199.28 12.89
3/12/2021 1:15:00 AM 3.48 38.264 0.035 6.88 140.42 12.89
3/12/2021 1:30:00 AM 3.51 38.318 0.035 6.9 166.71 12.88
3/12/2021 1:45:00 AM 3.51 38.318 0.035 6.88 195.33 12.87
3/12/2021 2:00:00 AM 3.54 38.372 0.035 6.93 173.83 12.88
3/12/2021 2:15:00 AM 3.53 38.354 0.035 6.82 179.23 12.88
3/12/2021 2:30:00 AM 3.52 38.336 0.035 6.85 207.4 12.88
3/12/2021 2:45:00 AM 3.51 38.318 0.035 6.87 170.12 12.89
3/12/2021 3:00:00 AM 3.51 38.318 0.035 6.83 164.73 12.89
3/12/2021 3:15:00 AM 3.52 38.336 0.035 6.86 180.76 12.89
3/12/2021 3:30:00 AM 3.52 38.336 0.035 6.56 161.79 12.9
3/12/2021 3:45:00 AM 3.53 38.354 0.034 6.75 185.49 12.9
3/12/2021 4:00:00 AM 3.52 38.336 0.035 6.92 157.31 12.9
3/12/2021 4:15:00 AM 3.52 38.336 0.035 6.91 148.14 12.89
3/12/2021 4:30:00 AM 3.5 38.3 0.034 6.73 160.08 12.91
3/12/2021 4:45:00 AM 3.49 38.282 0.034 6.85 166.44 12.92
3/12/2021 5:00:00 AM 3.47 38.246 0.034 6.88 157.68 12.92
3/12/2021 5:15:00 AM 3.45 38.21 0.034 6.86 168.44 12.93
3/12/2021 5:30:00 AM 3.42 38.156 0.034 6.9 141.89 12.94
3/12/2021 5:45:00 AM 3.4 38.12 0.034 6.78 127.17 12.95
3/12/2021 6:00:00 AM 3.38 38.084 0.034 6.86 157.08 12.96
3/12/2021 6:15:00 AM 3.36 38.048 0.034 6.91 128.31 12.97
3/12/2021 6:30:00 AM 3.33 37.994 0.034 6.89 127.93 12.98
3/12/2021 6:45:00 AM 3.31 37.958 0.034 6.72 138.82 12.98
3/12/2021 7:00:00 AM 3.3 37.94 0.034 6.91 146.31 12.99
3/12/2021 7:15:00 AM 3.3 37.94 0.034 6.73 140.32 13
3/12/2021 7:30:00 AM 3.3 37.94 0.034 6.82 119.07 13
3/12/2021 7:45:00 AM 3.31 37.958 0.034 6.87 150.88 13
3/12/2021 8:00:00 AM 3.32 37.976 0.034 6.84 106.55 13.01
3/12/2021 8:15:00 AM 3.35 38.03 0.034 6.77 105.46 13
3/12/2021 8:30:00 AM 3.4 38.12 0.034 6.88 103.1 12.99
3/12/2021 8:45:00 AM 3.47 38.246 0.034 6.82 105.21 12.97
3/12/2021 9:00:00 AM 3.54 38.372 0.034 7.01 98.51 12.94
3/12/2021 9:15:00 AM 3.63 38.534 0.034 6.87 106.44 12.91
3/12/2021 9:30:00 AM 3.72 38.696 0.034 6.89 97.98 12.89
3/12/2021 9:45:00 AM 3.82 38.876 0.034 6.97 165.77 12.86
3/12/2021 10:00:00 AM 3.92 39.056 0.034 6.97 117.64 12.81
3/12/2021 10:15:00 AM 4.03 39.254 0.034 7 127.44 12.78
3/12/2021 10:30:00 AM 4.15 39.47 0.034 7.01 120.09 12.74
3/12/2021 10:45:00 AM 4.25 39.65 0.034 7.01 130.66 12.7
3/12/2021 11:00:00 AM 4.34 39.812 0.034 7.03 124.14 12.67
3/12/2021 11:15:00 AM 4.44 39.992 0.034 6.89 147.91 12.63
3/12/2021 11:30:00 AM 4.53 40.154 0.034 6.97 117.76 12.6
3/12/2021 11:45:00 AM 4.62 40.316 0.034 7.02 111.07 12.57
3/12/2021 12:00:00 PM 4.7 40.46 0.034 7.06 119.94 12.54
3/12/2021 12:15:00 PM 4.77 40.586 0.034 6.93 98.09 12.51
3/12/2021 12:30:00 PM 4.84 40.712 0.034 6.92 125.05 12.49
3/12/2021 12:45:00 PM 4.88 40.784 0.034 6.91 116.84 12.47
3/12/2021 1:00:00 PM 4.91 40.838 0.034 6.92 111.1 12.44
3/12/2021 1:15:00 PM 4.93 40.874 0.034 6.95 107.3 12.44
3/12/2021 1:30:00 PM 4.94 40.892 0.034 6.79 102.16 12.43
3/12/2021 1:45:00 PM 4.94 40.892 0.034 6.89 127.18 12.43
3/12/2021 2:00:00 PM 4.93 40.874 0.034 6.95 125.21 12.44
3/12/2021 2:15:00 PM 4.9 40.82 0.034 6.81 140.6 12.44
3/12/2021 2:30:00 PM 4.88 40.784 0.034 6.97 258.89 12.45
3/12/2021 2:45:00 PM 4.85 40.73 0.034 6.98 191.67 12.44
3/12/2021 3:00:00 PM 4.82 40.676 0.034 6.98 185.41 12.46
3/12/2021 3:15:00 PM 4.77 40.586 0.034 6.96 148.63 12.46
3/12/2021 3:30:00 PM 4.72 40.496 0.034 6.97 179.65 12.49
3/12/2021 3:45:00 PM 4.68 40.424 0.034 6.84 160.93 12.5
3/12/2021 4:00:00 PM 4.63 40.334 0.034 6.98 131.99 12.52
3/12/2021 4:15:00 PM 4.59 40.262 0.034 6.96 128.82 12.53
3/12/2021 4:30:00 PM 4.54 40.172 0.034 6.97 135.67 12.54
3/12/2021 4:45:00 PM 4.49 40.082 0.034 6.96 159.34 12.56
3/12/2021 5:00:00 PM 4.43 39.974 0.034 6.95 126.71 12.57
3/12/2021 5:15:00 PM 4.37 39.866 0.034 6.83 135.07 12.59
3/12/2021 5:30:00 PM 4.31 39.758 0.034 6.85 122.58 12.61
3/12/2021 5:45:00 PM 4.26 39.668 0.034 6.96 151.84 12.63
3/12/2021 6:00:00 PM 4.21 39.578 0.034 6.95 122.18 12.65
3/12/2021 6:15:00 PM 4.17 39.506 0.052 6.98 126.25 12.66
3/12/2021 6:30:00 PM 4.13 39.434 0.034 6.81 130.89 12.68
3/12/2021 6:45:00 PM 4.1 39.38 0.034 6.96 141.81 12.69
3/12/2021 7:00:00 PM 4.08 39.344 0.034 6.8 99.85 12.7
3/12/2021 7:15:00 PM 4.05 39.29 0.034 7.01 97.56 12.71
3/12/2021 7:30:00 PM 4.03 39.254 0.034 6.99 95.36 12.72
3/12/2021 7:45:00 PM 4 39.2 0.034 6.99 102.67 12.73
3/12/2021 8:00:00 PM 3.99 39.182 0.034 7.02 93.79 12.74
3/12/2021 8:15:00 PM 3.97 39.146 0.034 6.93 103.06 12.75
3/12/2021 8:30:00 PM 3.95 39.11 0.034 7.02 105.17 12.75
3/12/2021 8:45:00 PM 3.94 39.092 0.034 7.03 106.45 12.76
3/12/2021 9:00:00 PM 3.93 39.074 0.034 7.02 113.93 12.77
3/12/2021 9:15:00 PM 3.92 39.056 0.034 7.05 113.82 12.78
3/12/2021 9:30:00 PM 3.91 39.038 0.034 6.91 93.54 12.78
3/12/2021 9:45:00 PM 3.89 39.002 0.034 6.96 87.49 12.79
3/12/2021 10:00:00 PM 3.87 38.966 0.034 6.98 76.58 12.8
3/12/2021 10:15:00 PM 3.84 38.912 0.034 7.05 77.13 12.81
3/12/2021 10:30:00 PM 3.8 38.84 0.034 7.05 81.26 12.83
3/12/2021 10:45:00 PM 3.75 38.75 0.034 7.03 85.31 12.85
3/12/2021 11:00:00 PM 3.71 38.678 0.034 7 83.83 12.87
3/12/2021 11:15:00 PM 3.67 38.606 0.034 7.07 85.87 12.88
3/12/2021 11:30:00 PM 3.62 38.516 0.034 7.07 67.04 12.9
3/12/2021 11:45:00 PM 3.55 38.39 0.034 7.08 75.82 12.93
3/13/2021 12:00:00 AM 3.48 38.264 0.034 7.07 77.74 12.95
3/13/2021 12:15:00 AM 3.42 38.156 0.034 7.09 77.23 12.98
3/13/2021 12:30:00 AM 3.37 38.066 0.034 6.93 77.82 13
3/13/2021 12:45:00 AM 3.3 37.94 0.034 7.09 80.78 13.02
3/13/2021 1:00:00 AM 3.24 37.832 0.034 7.09 82.99 13.04
3/13/2021 1:15:00 AM 3.19 37.742 0.034 6.99 74.34 13.06
3/13/2021 1:30:00 AM 3.14 37.652 0.034 7.02 74.58 13.08
3/13/2021 1:45:00 AM 3.08 37.544 0.034 7.11 71.52 13.11
3/13/2021 2:00:00 AM 3.02 37.436 0.034 7.1 72.23 13.13
3/13/2021 2:15:00 AM 2.97 37.346 0.034 7.1 73.04 13.15
3/13/2021 2:30:00 AM 2.93 37.274 0.034 7.12 73.46 13.16
3/13/2021 2:45:00 AM 2.9 37.22 0.034 7.1 77.68 13.18
3/13/2021 3:00:00 AM 2.87 37.166 0.034 7.12 95.41 13.19
3/13/2021 3:15:00 AM 2.83 37.094 0.034 7.13 65.81 13.21
3/13/2021 3:30:00 AM 2.78 37.004 0.034 7.12 69.08 13.22
3/13/2021 3:45:00 AM 2.74 36.932 0.034 7.14 72.61 13.24
3/13/2021 4:00:00 AM 2.7 36.86 0.034 7.12 64.23 13.26
3/13/2021 4:15:00 AM 2.66 36.788 0.034 7.14 67.59 13.27
3/13/2021 4:30:00 AM 2.62 36.716 0.034 7.03 73.2 13.28
3/13/2021 4:45:00 AM 2.58 36.644 0.034 7.12 68.58 13.3
3/13/2021 5:00:00 AM 2.54 36.572 0.034 7.16 71.07 13.32
3/13/2021 5:15:00 AM 2.5 36.5 0.034 7.14 75.55 13.33
3/13/2021 5:30:00 AM 2.46 36.428 0.034 7.04 64.93 13.35
3/13/2021 5:45:00 AM 2.42 36.356 0.034 7.08 64.5 13.36
3/13/2021 6:00:00 AM 2.39 36.302 0.034 7.17 55.78 13.38
3/13/2021 6:15:00 AM 2.36 36.248 0.034 7.16 62.57 13.38
3/13/2021 6:30:00 AM 2.34 36.212 0.034 7.17 62.38 13.4
3/13/2021 6:45:00 AM 2.33 36.194 0.034 7.18 65.52 13.4
3/13/2021 7:00:00 AM 2.32 36.176 0.035 7.16 61.99 13.41
3/13/2021 7:15:00 AM 2.31 36.158 0.034 6.99 77.09 13.42
3/13/2021 7:30:00 AM 2.3 36.14 0.034 7.07 127.25 13.42
3/13/2021 7:45:00 AM 2.32 36.176 0.035 7.04 65.63 13.42
3/13/2021 8:00:00 AM 2.32 36.176 0.035 7.06 67.13 13.44
3/13/2021 8:15:00 AM 2.34 36.212 0.035 7.09 64.33 13.43
3/13/2021 8:30:00 AM 2.38 36.284 0.035 7.11 70.01 13.42
3/13/2021 8:45:00 AM 2.43 36.374 0.035 7.09 53.61 13.41
3/13/2021 9:00:00 AM 2.48 36.464 0.035 7.06 62.57 13.39
3/13/2021 9:15:00 AM 2.54 36.572 0.035 7.11 53.61 13.37
3/13/2021 9:30:00 AM 2.62 36.716 0.035 7.12 62.02 13.34
3/13/2021 9:45:00 AM 2.69 36.842 0.035 7.12 60.28 13.31
3/13/2021 10:00:00 AM 2.78 37.004 0.035 7.09 64.66 13.28
3/13/2021 10:15:00 AM 2.87 37.166 0.035 7.11 54.5 13.25
3/13/2021 10:30:00 AM 2.98 37.364 0.035 7 59.13 13.21
3/13/2021 10:45:00 AM 3.08 37.544 0.035 7.12 53.08 13.18
3/13/2021 11:00:00 AM 3.18 37.724 0.035 7.15 59.22 13.14
3/13/2021 11:15:00 AM 3.28 37.904 0.035 7.12 55.6 13.1
3/13/2021 11:30:00 AM 3.38 38.084 0.035 7.11 56.97 13.06
3/13/2021 11:45:00 AM 3.48 38.264 0.035 7.12 53.16 13.03
3/13/2021 12:00:00 PM 3.58 38.444 0.035 7.13 57.46 12.98
3/13/2021 12:15:00 PM 3.7 38.66 0.035 7.09 65.79 12.94
3/13/2021 12:30:00 PM 3.79 38.822 0.035 7.14 77.61 12.91
3/13/2021 12:45:00 PM 3.86 38.948 0.035 7.14 61.74 12.87
3/13/2021 1:00:00 PM 3.93 39.074 0.035 7.16 68.86 12.85
3/13/2021 1:15:00 PM 3.99 39.182 0.035 7.13 62.17 12.82
3/13/2021 1:30:00 PM 4.06 39.308 0.035 7.14 75.92 12.79
3/13/2021 1:45:00 PM 4.11 39.398 0.035 7.14 76.84 12.77
3/13/2021 2:00:00 PM 4.14 39.452 0.035 7.05 54.98 12.75
3/13/2021 2:15:00 PM 4.16 39.488 0.035 7.16 77.76 12.74
3/13/2021 2:30:00 PM 4.17 39.506 0.035 7.17 77.7 12.73
3/13/2021 2:45:00 PM 4.18 39.524 0.035 7.2 69.73 12.72
3/13/2021 3:00:00 PM 4.18 39.524 0.035 7.18 68.91 12.72
3/13/2021 3:15:00 PM 4.18 39.524 0.035 7.11 72.17 12.71
3/13/2021 3:30:00 PM 4.16 39.488 0.035 7.17 93.95 12.71
3/13/2021 3:45:00 PM 4.16 39.488 0.035 7.08 77.55 12.71
3/13/2021 4:00:00 PM 4.14 39.452 0.035 7.16 78.29 12.71
3/13/2021 4:15:00 PM 4.12 39.416 0.035 7.15 70.74 12.72
3/13/2021 4:30:00 PM 4.1 39.38 0.035 7.13 73.29 12.71
3/13/2021 4:45:00 PM 4.07 39.326 0.035 7.05 71.51 12.72
3/13/2021 5:00:00 PM 4.04 39.272 0.035 7.16 60.14 12.73
3/13/2021 5:15:00 PM 4 39.2 0.035 7.18 64.32 12.74
3/13/2021 5:30:00 PM 3.95 39.11 0.035 7.16 60.01 12.75
3/13/2021 5:45:00 PM 3.91 39.038 0.035 7.17 62.79 12.77
3/13/2021 6:00:00 PM 3.86 38.948 0.035 7.16 76.68 12.78
3/13/2021 6:15:00 PM 3.82 38.876 0.036 7.15 74.82 12.8
3/13/2021 6:30:00 PM 3.77 38.786 0.036 7 67.61 12.82
3/13/2021 6:45:00 PM 3.72 38.696 0.036 7.17 55.96 12.82
3/13/2021 7:00:00 PM 3.67 38.606 0.036 7.17 57.71 12.84
3/13/2021 7:15:00 PM 3.62 38.516 0.036 7.17 60.81 12.86
3/13/2021 7:30:00 PM 3.56 38.408 0.036 7.19 56.69 12.87
3/13/2021 7:45:00 PM 3.51 38.318 0.036 7.18 52.29 12.9
3/13/2021 8:00:00 PM 3.46 38.228 0.036 7.17 61.59 12.91
3/13/2021 8:15:00 PM 3.41 38.138 0.036 7.2 59.7 12.93
3/13/2021 8:30:00 PM 3.37 38.066 0.036 7.19 53.04 12.94
3/13/2021 8:45:00 PM 3.33 37.994 0.036 7.19 50.27 12.95
3/13/2021 9:00:00 PM 3.3 37.94 0.036 7.16 176.89 12.96
3/13/2021 9:15:00 PM 3.27 37.886 0.036 7.01 76.65 12.96
3/13/2021 9:30:00 PM 3.24 37.832 0.036 7.11 52.07 12.97
3/13/2021 9:45:00 PM 3.22 37.796 0.036 7.2 50.34 12.98
3/13/2021 10:00:00 PM 3.2 37.76 0.036 7.19 44.75 12.99
3/13/2021 10:15:00 PM 3.18 37.724 0.036 7.19 77.52 13
3/13/2021 10:30:00 PM 3.17 37.706 0.036 7.17 50.92 13
3/13/2021 10:45:00 PM 3.15 37.67 0.036 7.18 63.17 13
3/13/2021 11:00:00 PM 3.14 37.652 0.036 7.15 51.78 13.01
3/13/2021 11:15:00 PM 3.13 37.634 0.036 7.16 50.17 13
3/13/2021 11:30:00 PM 3.12 37.616 0.036 7.12 73.91 13.01
3/13/2021 11:45:00 PM 3.12 37.616 0.036 7.19 65.28 13.01
3/14/2021 12:00:00 AM 3.11 37.598 0.036 7.03 68.78 13.01
3/14/2021 12:15:00 AM 3.11 37.598 0.036 7.17 63.12 13.01
3/14/2021 12:30:00 AM 3.1 37.58 0.036 7.17 65.84 13.01
3/14/2021 12:45:00 AM 3.09 37.562 0.036 7.13 75.6 13.01
3/14/2021 1:00:00 AM 3.08 37.544 0.036 7.19 85.42 13.01
3/14/2021 1:15:00 AM 3.07 37.526 0.036 7.01 59.06 13.01
3/14/2021 1:30:00 AM 3.07 37.526 0.036 7.19 66.64 13.02
3/14/2021 1:45:00 AM 3.06 37.508 0.036 7.18 67.57 13.01
3/14/2021 3:00:00 AM 3.03 37.454 0.037 7.06 61.97 13.01
3/14/2021 3:15:00 AM 3.02 37.436 0.037 7.18 60.93 13.01
3/14/2021 3:30:00 AM 3.01 37.418 0.037 7.16 58.06 13.01
3/14/2021 3:45:00 AM 3.01 37.418 0.037 7.17 64.22 13.01
3/14/2021 4:00:00 AM 2.99 37.382 0.037 7.17 57.08 13.02
3/14/2021 4:15:00 AM 3 37.4 0.037 7.13 56.63 13.01
3/14/2021 4:30:00 AM 3 37.4 0.037 7.15 60.18 13.01
3/14/2021 4:45:00 AM 2.99 37.382 0.037 7.03 53.84 13.02
3/14/2021 5:00:00 AM 2.98 37.364 0.037 7.16 54.79 13.02
3/14/2021 5:15:00 AM 2.96 37.328 0.037 7.02 82.96 13.02
3/14/2021 5:30:00 AM 2.95 37.31 0.037 7.12 71.47 13.02
3/14/2021 5:45:00 AM 2.93 37.274 0.037 7.17 48.96 13.03
3/14/2021 6:00:00 AM 2.92 37.256 0.037 7.16 59.72 13.04
3/14/2021 6:15:00 AM 2.91 37.238 0.037 7.19 91.65 13.04
3/14/2021 6:30:00 AM 2.9 37.22 0.037 7.19 61.85 13.05
3/14/2021 6:45:00 AM 2.9 37.22 0.037 7.23 106.02 13.06
3/14/2021 7:00:00 AM 2.91 37.238 0.037 7.2 101.09 13.06
3/14/2021 7:15:00 AM 2.93 37.274 0.037 7.21 88.57 13.05
3/14/2021 7:30:00 AM 2.96 37.328 0.037 7.25 79.33 13.05
3/14/2021 7:45:00 AM 3 37.4 0.037 7.22 94.37 13.04
3/14/2021 8:00:00 AM 3.04 37.472 0.037 7.2 77.01 13.03
3/14/2021 8:15:00 AM 3.1 37.58 0.037 7.2 59.81 13.02
3/14/2021 8:30:00 AM 3.19 37.742 0.037 7.25 58.73 13
3/14/2021 8:45:00 AM 3.28 37.904 0.037 7.23 70.18 12.97
3/14/2021 9:00:00 AM 3.38 38.084 0.037 7.24 74.3 12.94
3/14/2021 9:15:00 AM 3.47 38.246 0.037 7.24 75.52 12.92
3/14/2021 9:30:00 AM 3.58 38.444 0.037 7.21 72.95 12.88
3/14/2021 9:45:00 AM 3.68 38.624 0.037 7.13 84.56 12.85
3/14/2021 10:00:00 AM 3.78 38.804 0.037 7.2 73.02 12.81
3/14/2021 10:15:00 AM 3.89 39.002 0.037 7.26 75.05 12.77
3/14/2021 10:30:00 AM 3.99 39.182 0.037 7.27 69.52 12.73
3/14/2021 10:45:00 AM 4.07 39.326 0.037 7.26 80.33 12.71
3/14/2021 11:00:00 AM 4.22 39.596 0.037 7.31 63.31 12.67
3/14/2021 11:15:00 AM 4.35 39.83 0.037 7.27 65.69 12.63
3/14/2021 11:30:00 AM 4.41 39.938 0.037 7.3 64.92 12.6
3/14/2021 11:45:00 AM 4.52 40.136 0.037 7.3 74.35 12.58
3/14/2021 12:00:00 PM 4.6 40.28 0.037 7.3 72.78 12.55
3/14/2021 12:15:00 PM 4.58 40.244 0.037 7.32 66.01 12.55
3/14/2021 12:30:00 PM 4.68 40.424 0.037 7.35 71.19 12.52
3/14/2021 12:45:00 PM 4.75 40.55 0.037 7.19 98.67 12.5
3/14/2021 1:00:00 PM 4.74 40.532 0.037 7.34 78.3 12.49
3/14/2021 1:15:00 PM 4.76 40.568 0.037 7.36 112.98 12.49
3/14/2021 1:30:00 PM 4.78 40.604 0.037 7.35 68.88 12.48
3/14/2021 1:45:00 PM 4.74 40.532 0.037 7.23 143.2 12.48
3/14/2021 2:00:00 PM 4.73 40.514 0.037 7.28 95.9 12.49
3/14/2021 2:15:00 PM 4.65 40.37 0.037 7.38 90.7 12.5
3/14/2021 2:30:00 PM 4.58 40.244 0.037 7.35 99.66 12.52
3/14/2021 2:45:00 PM 4.59 40.262 0.037 7.38 88.25 12.54
3/14/2021 3:00:00 PM 4.5 40.1 0.037 7.37 82.29 12.56
3/14/2021 3:15:00 PM 4.46 40.028 0.037 7.37 75.25 12.58
3/14/2021 3:30:00 PM 4.39 39.902 0.037 7.3 83.1 12.59
3/14/2021 3:45:00 PM 4.31 39.758 0.037 7.35 73.26 12.61
3/14/2021 4:00:00 PM 4.22 39.596 0.038 7.37 83.93 12.64
3/14/2021 4:15:00 PM 4.11 39.398 0.038 7.36 68.33 12.67
3/14/2021 4:30:00 PM 4.03 39.254 0.038 7.34 58.29 12.7
3/14/2021 4:45:00 PM 3.94 39.092 0.038 7.36 61.01 12.73
3/14/2021 5:00:00 PM 3.87 38.966 0.038 7.35 68.99 12.76
3/14/2021 5:15:00 PM 3.8 38.84 0.038 7.36 94.37 12.79
3/14/2021 5:30:00 PM 3.71 38.678 0.038 7.25 75.7 12.81
3/14/2021 5:45:00 PM 3.63 38.534 0.038 7.29 68.3 12.84
3/14/2021 6:00:00 PM 3.53 38.354 0.038 7.35 79.17 12.88
3/14/2021 6:15:00 PM 3.44 38.192 0.038 7.37 60.11 12.91
3/14/2021 6:30:00 PM 3.36 38.048 0.038 7.36 65.73 12.94
3/14/2021 6:45:00 PM 3.28 37.904 0.038 7.28 61.06 12.97
3/14/2021 7:00:00 PM 3.19 37.742 0.038 7.37 67.44 13.01
3/14/2021 7:15:00 PM 3.12 37.616 0.038 7.34 74.28 13.04
3/14/2021 7:30:00 PM 3.03 37.454 0.038 7.32 68.2 13.07
3/14/2021 7:45:00 PM 2.96 37.328 0.038 7.29 66.23 13.1
3/14/2021 8:00:00 PM 2.9 37.22 0.038 7.31 57.38 13.13
3/14/2021 8:15:00 PM 2.83 37.094 0.038 7.18 54.94 13.16
3/14/2021 8:30:00 PM 2.74 36.932 0.038 7.27 58.88 13.19
3/14/2021 8:45:00 PM 2.68 36.824 0.038 7.25 56.41 13.22
3/14/2021 9:00:00 PM 2.61 36.698 0.038 7.25 49.74 13.25
3/14/2021 9:15:00 PM 2.57 36.626 0.038 7.31 48.65 13.27
3/14/2021 9:30:00 PM 2.52 36.536 0.038 7.2 59.6 13.29
3/14/2021 9:45:00 PM 2.46 36.428 0.039 7.24 78.05 13.31
3/14/2021 10:00:00 PM 2.39 36.302 0.039 7.31 69.43 13.34
3/14/2021 10:15:00 PM 2.31 36.158 0.039 7.32 53.97 13.37
3/14/2021 10:30:00 PM 2.25 36.05 0.039 7.31 65.84 13.4
3/14/2021 10:45:00 PM 2.2 35.96 0.039 7.32 57.88 13.42
3/14/2021 11:00:00 PM 2.14 35.852 0.039 7.32 57.35 13.44
3/14/2021 11:15:00 PM 2.09 35.762 0.039 7.27 58.26 13.46
3/14/2021 11:30:00 PM 2.05 35.69 0.039 7.25 51.1 13.48
3/14/2021 11:45:00 PM 2 35.6 0.039 7.31 50.96 13.5
3/15/2021 12:00:00 AM 1.94 35.492 0.039 7.32 60.78 13.52
3/15/2021 12:15:00 AM 1.9 35.42 0.039 7.25 40.9 13.54
3/15/2021 12:30:00 AM 1.83 35.294 0.039 7.33 65.47 13.56
3/15/2021 12:45:00 AM 1.79 35.222 0.039 7.32 51.4 13.58
3/15/2021 1:00:00 AM 1.74 35.132 0.039 7.23 60.51 13.59
3/15/2021 1:15:00 AM 1.69 35.042 0.039 7.29 47.58 13.62
3/15/2021 1:30:00 AM 1.65 34.97 0.039 7.32 49.1 13.63
3/15/2021 1:45:00 AM 1.61 34.898 0.039 7.22 46.86 13.64
3/15/2021 2:00:00 AM 1.57 34.826 0.039 7.33 70.54 13.67
3/15/2021 3:15:00 AM 1.52 34.736 0.039 7.33 54.46 13.68
3/15/2021 3:30:00 AM 1.48 34.664 0.039 7.22 52.47 13.69
3/15/2021 3:45:00 AM 1.44 34.592 0.039 7.27 53.22 13.71
3/15/2021 4:00:00 AM 1.41 34.538 0.039 7.35 44.03 13.71
3/15/2021 4:15:00 AM 1.38 34.484 0.039 7.32 43.01 13.73
3/15/2021 4:30:00 AM 1.33 34.394 0.039 7.33 46.82 13.74
3/15/2021 4:45:00 AM 1.28 34.304 0.039 7.32 46.65 13.76
3/15/2021 5:00:00 AM 1.25 34.25 0.039 7.32 49.34 13.78
3/15/2021 5:15:00 AM 1.22 34.196 0.039 7.22 42.86 13.8
3/15/2021 5:30:00 AM 1.19 34.142 0.039 7.25 49.04 13.8
3/15/2021 5:45:00 AM 1.15 34.07 0.039 7.33 58.93 13.82
3/15/2021 6:00:00 AM 1.12 34.016 0.039 7.33 47.69 13.83
3/15/2021 6:15:00 AM 1.07 33.926 0.039 7.33 46.69 13.86
3/15/2021 6:30:00 AM 1.04 33.872 0.039 7.31 42.8 13.87
3/15/2021 6:45:00 AM 1 33.8 0.039 7.32 35.83 13.9
3/15/2021 7:00:00 AM 0.97 33.746 0.039 7.33 43.28 13.9
3/15/2021 7:15:00 AM 0.93 33.674 0.039 7.33 42.03 13.92
3/15/2021 7:30:00 AM 0.88 33.584 0.04 7.19 75.77 13.94
3/15/2021 7:45:00 AM 0.85 33.53 0.04 7.33 52.5 13.97
3/15/2021 8:00:00 AM 0.84 33.512 0.04 7.35 41.66 13.98
3/15/2021 8:15:00 AM 0.82 33.476 0.04 7.23 40.22 14
3/15/2021 8:30:00 AM 0.82 33.476 0.04 7.34 54.89 14.01
3/15/2021 8:45:00 AM 0.82 33.476 0.04 7.36 48.46 14.01
3/15/2021 9:00:00 AM 0.83 33.494 0.04 7.32 63.75 14.02
3/15/2021 9:15:00 AM 0.85 33.53 0.04 7.25 43.48 14.02
3/15/2021 9:30:00 AM 0.9 33.62 0.04 7.31 55.85 14.02
3/15/2021 9:45:00 AM 0.95 33.71 0.04 7.35 49.1 13.99
3/15/2021 10:00:00 AM 1.01 33.818 0.04 7.35 47.46 13.99
3/15/2021 10:15:00 AM 1.06 33.908 0.04 7.32 36.81 13.96
3/15/2021 10:30:00 AM 1.13 34.034 0.04 7.33 35.82 13.94
3/15/2021 10:45:00 AM 1.2 34.16 0.04 7.36 48.5 13.92
3/15/2021 11:00:00 AM 1.29 34.322 0.04 7.25 46.65 13.89
3/15/2021 11:15:00 AM 1.37 34.466 0.04 7.35 42.2 13.86
3/15/2021 11:30:00 AM 1.44 34.592 0.04 7.35 49.26 13.82
3/15/2021 11:45:00 AM 1.54 34.772 0.04 7.25 46.71 13.78
3/15/2021 12:00:00 PM 1.64 34.952 0.04 7.36 39.04 13.75
3/15/2021 12:15:00 PM 1.73 35.114 0.04 7.36 40.91 13.71
3/15/2021 12:30:00 PM 1.81 35.258 0.04 7.37 43.41 13.67
3/15/2021 12:45:00 PM 1.94 35.492 0.04 7.37 38.73 13.63
3/15/2021 1:00:00 PM 2.05 35.69 0.04 7.37 42.67 13.59
3/15/2021 1:15:00 PM 2.14 35.852 0.04 7.37 44.26 13.55
3/15/2021 1:30:00 PM 2.27 36.086 0.04 7.39 42.52 13.5
3/15/2021 1:45:00 PM 2.34 36.212 0.04 7.3 84.91 13.47
3/15/2021 2:00:00 PM 2.38 36.284 0.04 7.42 39.52 13.45
3/15/2021 2:15:00 PM 2.44 36.392 0.04 7.42 46.24 13.41
3/15/2021 2:30:00 PM 2.49 36.482 0.04 7.4 46.19 13.39
3/15/2021 2:45:00 PM 2.53 36.554 0.04 7.39 49.65 13.37
3/15/2021 3:00:00 PM 2.56 36.608 0.04 7.39 41.77 13.35
3/15/2021 3:15:00 PM 2.56 36.608 0.04 7.27 45.07 13.35
3/15/2021 3:30:00 PM 2.55 36.59 0.04 7.4 53.98 13.34
3/15/2021 3:45:00 PM 2.53 36.554 0.04 7.4 50.69 13.35
3/15/2021 4:00:00 PM 2.54 36.572 0.04 7.39 45.12 13.34
3/15/2021 4:15:00 PM 2.52 36.536 0.04 7.34 46.18 13.34
3/15/2021 4:30:00 PM 2.51 36.518 0.04 7.33 43.7 13.34
3/15/2021 4:45:00 PM 2.48 36.464 0.04 7.39 51.44 13.35
3/15/2021 5:00:00 PM 2.46 36.428 0.04 7.28 43.32 13.35
3/15/2021 5:15:00 PM 2.47 36.446 0.04 7.41 42.57 13.34
3/15/2021 5:30:00 PM 2.45 36.41 0.04 7.4 44.73 13.35
3/15/2021 5:45:00 PM 2.43 36.374 0.04 7.3 35.69 13.34
3/15/2021 6:00:00 PM 2.42 36.356 0.04 7.37 38.96 13.34
3/15/2021 6:15:00 PM 2.4 36.32 0.04 7.31 38.06 13.35
3/15/2021 6:30:00 PM 2.39 36.302 0.04 7.4 40.25 13.35
3/15/2021 6:45:00 PM 2.37 36.266 0.04 7.39 37.4 13.36
3/15/2021 7:00:00 PM 2.34 36.212 0.04 7.28 44.33 13.35
3/15/2021 7:15:00 PM 2.31 36.158 0.04 7.33 39.92 13.37
3/15/2021 7:30:00 PM 2.28 36.104 0.04 7.39 42.22 13.38
3/15/2021 7:45:00 PM 2.25 36.05 0.04 7.37 47.57 13.39
3/15/2021 8:00:00 PM 2.21 35.978 0.04 7.38 37.43 13.4
3/15/2021 8:15:00 PM 2.17 35.906 0.04 7.4 36.64 13.41
3/15/2021 8:30:00 PM 2.14 35.852 0.041 7.29 37.19 13.42
3/15/2021 8:45:00 PM 2.11 35.798 0.041 7.31 32.35 13.44
3/15/2021 9:00:00 PM 2.07 35.726 0.041 7.38 48.53 13.45
3/15/2021 9:15:00 PM 2.03 35.654 0.041 7.37 37.61 13.46
3/15/2021 9:30:00 PM 2 35.6 0.041 7.33 41.16 13.47
3/15/2021 9:45:00 PM 1.96 35.528 0.041 7.38 39.44 13.49
3/15/2021 10:00:00 PM 1.93 35.474 0.041 7.37 43.79 13.5
3/15/2021 10:15:00 PM 1.89 35.402 0.041 7.38 35.41 13.52
3/15/2021 10:30:00 PM 1.86 35.348 0.041 7.37 38.23 13.54
3/15/2021 10:45:00 PM 1.83 35.294 0.041 7.38 60.99 13.54
3/15/2021 11:00:00 PM 1.8 35.24 0.041 7.28 34.69 13.55
3/15/2021 11:15:00 PM 1.76 35.168 0.041 7.38 37.92 13.56
3/15/2021 11:30:00 PM 1.73 35.114 0.041 7.39 32.84 13.57
3/15/2021 11:45:00 PM 1.7 35.06 0.041 7.36 64.3 13.59
3/16/2021 12:00:00 AM 1.69 35.042 0.041 7.38 36.18 13.59
3/16/2021 12:15:00 AM 1.68 35.024 0.041 7.28 32.45 13.59
3/16/2021 12:30:00 AM 1.67 35.006 0.041 7.37 42.18 13.59
3/16/2021 12:45:00 AM 1.65 34.97 0.041 7.39 40.82 13.6
3/16/2021 1:00:00 AM 1.63 34.934 0.041 7.39 38.75 13.6
3/16/2021 1:15:00 AM 1.61 34.898 0.041 7.38 34.93 13.61
3/16/2021 1:30:00 AM 1.6 34.88 0.041 7.37 36.69 13.61
3/16/2021 1:45:00 AM 1.59 34.862 0.041 7.39 38.77 13.61
3/16/2021 2:00:00 AM 1.58 34.844 0.041 7.32 28.71 13.62
3/16/2021 2:15:00 AM 1.57 34.826 0.041 7.37 36.99 13.62
3/16/2021 2:30:00 AM 1.56 34.808 0.041 7.39 36.67 13.62
3/16/2021 2:45:00 AM 1.55 34.79 0.041 7.39 29.35 13.63
3/16/2021 3:00:00 AM 1.55 34.79 0.041 7.4 36.64 13.63
3/16/2021 3:15:00 AM 1.54 34.772 0.041 7.27 41.79 13.62
3/16/2021 3:30:00 AM 1.54 34.772 0.041 7.39 66.72 13.62
3/16/2021 3:45:00 AM 1.53 34.754 0.041 7.39 57.22 13.62
3/16/2021 4:00:00 AM 1.52 34.736 0.041 7.4 44.47 13.62
3/16/2021 4:15:00 AM 1.52 34.736 0.041 7.39 41.35 13.61
3/16/2021 4:30:00 AM 1.52 34.736 0.041 7.39 41.03 13.61
3/16/2021 4:45:00 AM 1.53 34.754 0.041 7.29 47.25 13.61
3/16/2021 5:00:00 AM 1.53 34.754 0.041 7.39 45.77 13.6
3/16/2021 5:15:00 AM 1.54 34.772 0.041 7.39 45.94 13.6
3/16/2021 5:30:00 AM 1.53 34.754 0.041 7.41 42.05 13.59
3/16/2021 5:45:00 AM 1.53 34.754 0.041 7.4 40.03 13.6
3/16/2021 6:00:00 AM 1.55 34.79 0.041 7.3 51.5 13.6
3/16/2021 6:15:00 AM 1.55 34.79 0.041 7.34 34.31 13.59
3/16/2021 6:30:00 AM 1.56 34.808 0.041 7.41 39.09 13.59
3/16/2021 6:45:00 AM 1.56 34.808 0.042 7.4 53.12 13.59
3/16/2021 7:00:00 AM 1.57 34.826 0.042 7.4 50.1 13.58
3/16/2021 7:15:00 AM 1.58 34.844 0.042 7.29 43.47 13.58
3/16/2021 7:30:00 AM 1.59 34.862 0.042 7.38 46.63 13.57
3/16/2021 7:45:00 AM 1.61 34.898 0.042 7.42 42.36 13.57
3/16/2021 8:00:00 AM 1.63 34.934 0.042 7.41 39.08 13.56
3/16/2021 8:15:00 AM 1.65 34.97 0.042 7.41 27.73 13.56
3/16/2021 8:30:00 AM 1.67 35.006 0.042 7.42 36.71 13.55
3/16/2021 8:45:00 AM 1.66 34.988 0.042 7.38 37.62 13.55
3/16/2021 9:00:00 AM 1.66 34.988 0.042 7.36 36.68 13.56
3/16/2021 9:15:00 AM 1.65 34.97 0.042 7.36 36.37 13.57
3/16/2021 9:30:00 AM 1.67 35.006 0.042 7.43 31.24 13.57
3/16/2021 9:45:00 AM 1.68 35.024 0.042 7.42 35.74 13.57
3/16/2021 10:00:00 AM 1.63 34.934 0.042 7.4 46.35 13.57
3/16/2021 10:15:00 AM 1.62 34.916 0.042 7.41 42.86 13.58
3/16/2021 10:30:00 AM 1.55 34.79 0.042 7.43 37 13.59
3/16/2021 10:45:00 AM 1.53 34.754 0.042 7.42 50.46 13.62
3/16/2021 11:00:00 AM 1.51 34.718 0.042 7.31 32.73 13.62
3/16/2021 11:15:00 AM 1.56 34.808 0.042 7.36 41.26 13.61
3/16/2021 11:30:00 AM 1.66 34.988 0.041 7.43 39.98 13.59
3/16/2021 11:45:00 AM 1.7 35.06 0.042 7.44 26.95 13.57
3/16/2021 12:00:00 PM 1.71 35.078 0.042 7.43 65.17 13.56
3/16/2021 12:15:00 PM 1.73 35.114 0.042 7.41 56.17 13.55
3/16/2021 12:30:00 PM 1.77 35.186 0.042 7.43 53.74 13.53
3/16/2021 12:45:00 PM 1.81 35.258 0.042 7.43 54.7 13.53
3/16/2021 1:00:00 PM 1.83 35.294 0.042 7.41 51.47 13.51
3/16/2021 1:15:00 PM 1.86 35.348 0.042 7.43 50.61 13.51
3/16/2021 1:30:00 PM 1.87 35.366 0.042 7.42 49.77 13.5
3/16/2021 1:45:00 PM 1.9 35.42 0.042 7.37 51.25 13.48
3/16/2021 2:00:00 PM 1.94 35.492 0.042 7.44 45.19 13.47
3/16/2021 2:15:00 PM 1.93 35.474 0.042 7.37 65.26 13.46
3/16/2021 2:30:00 PM 1.93 35.474 0.042 7.44 40.74 13.46
3/16/2021 2:45:00 PM 1.93 35.474 0.042 7.39 50.91 13.45
3/16/2021 3:00:00 PM 1.93 35.474 0.042 7.42 45.33 13.44
3/16/2021 3:15:00 PM 1.92 35.456 0.042 7.33 40.01 13.45
3/16/2021 3:30:00 PM 1.93 35.474 0.042 7.37 41.58 13.44
3/16/2021 3:45:00 PM 1.93 35.474 0.042 7.37 44.9 13.45
3/16/2021 4:00:00 PM 1.95 35.51 0.042 7.44 44.26 13.45
3/16/2021 4:15:00 PM 1.99 35.582 0.042 7.43 36.38 13.44
3/16/2021 4:30:00 PM 2 35.6 0.042 7.43 42.55 13.42
3/16/2021 4:45:00 PM 2.05 35.69 0.042 7.36 57.23 13.41
3/16/2021 5:00:00 PM 2.08 35.744 0.042 7.42 41.76 13.4
3/16/2021 5:15:00 PM 2.11 35.798 0.042 7.45 40.83 13.39
3/16/2021 5:30:00 PM 2.12 35.816 0.042 7.43 40.54 13.37
3/16/2021 5:45:00 PM 2.14 35.852 0.042 7.45 40.28 13.36
3/16/2021 6:00:00 PM 2.14 35.852 0.042 7.36 41.91 13.35
3/16/2021 6:15:00 PM 2.15 35.87 0.042 7.38 38.55 13.34
3/16/2021 6:30:00 PM 2.15 35.87 0.042 7.43 51.69 13.34
3/16/2021 6:45:00 PM 2.17 35.906 0.042 7.44 34.48 13.33
3/16/2021 7:00:00 PM 2.18 35.924 0.042 7.44 41.08 13.32
3/16/2021 7:15:00 PM 2.19 35.942 0.042 7.38 35.15 13.31
3/16/2021 7:30:00 PM 2.21 35.978 0.042 7.42 41.01 13.3
3/16/2021 7:45:00 PM 2.22 35.996 0.042 7.41 35.71 13.3
3/16/2021 8:00:00 PM 2.24 36.032 0.042 7.43 34.97 13.3
3/16/2021 8:15:00 PM 2.25 36.05 0.042 7.43 34.53 13.3
3/16/2021 8:30:00 PM 2.27 36.086 0.042 7.4 42.03 13.29
3/16/2021 8:45:00 PM 2.28 36.104 0.042 7.4 34.7 13.28
3/16/2021 9:00:00 PM 2.3 36.14 0.042 7.45 31.5 13.28
3/16/2021 9:15:00 PM 2.31 36.158 0.042 7.43 43.89 13.27
3/16/2021 9:30:00 PM 2.32 36.176 0.042 7.34 34.6 13.27
3/16/2021 9:45:00 PM 2.33 36.194 0.042 7.38 32.59 13.27
3/16/2021 10:00:00 PM 2.34 36.212 0.042 7.4 33.9 13.26
3/16/2021 10:15:00 PM 2.35 36.23 0.042 7.44 46.36 13.26
3/16/2021 10:30:00 PM 2.36 36.248 0.043 7.43 35.82 13.26
3/16/2021 10:45:00 PM 2.37 36.266 0.043 7.44 39.27 13.25
3/16/2021 11:00:00 PM 2.38 36.284 0.043 7.44 27.04 13.25
3/16/2021 11:15:00 PM 2.38 36.284 0.043 7.44 37 13.25
3/16/2021 11:30:00 PM 2.39 36.302 0.043 7.33 32.61 13.25
3/16/2021 11:45:00 PM 2.39 36.302 0.043 7.44 48.83 13.24
3/17/2021 12:00:00 AM 2.4 36.32 0.043 7.44 38.66 13.24
3/17/2021 12:15:00 AM 2.4 36.32 0.043 7.44 32.57 13.24
3/17/2021 12:30:00 AM 2.41 36.338 0.043 7.44 36.05 13.24
3/17/2021 12:45:00 AM 2.41 36.338 0.043 7.44 38.01 13.23
3/17/2021 1:00:00 AM 2.42 36.356 0.043 7.44 33.28 13.23
3/17/2021 1:15:00 AM 2.43 36.374 0.043 7.44 35.26 13.22
3/17/2021 1:30:00 AM 2.44 36.392 0.043 7.43 48.1 13.22
3/17/2021 1:45:00 AM 2.44 36.392 0.043 7.45 26.78 13.21
3/17/2021 2:00:00 AM 2.45 36.41 0.043 7.43 31.92 13.22
3/17/2021 2:15:00 AM 2.46 36.428 0.043 7.44 25.74 13.22
3/17/2021 2:30:00 AM 2.47 36.446 0.043 7.45 26.22 13.21
3/17/2021 2:45:00 AM 2.48 36.464 0.043 7.44 43.65 13.21
3/17/2021 3:00:00 AM 2.49 36.482 0.043 7.44 39.28 13.2
3/17/2021 3:15:00 AM 2.5 36.5 0.043 7.37 38.57 13.2
3/17/2021 3:30:00 AM 2.51 36.518 0.043 7.44 33.8 13.19
3/17/2021 3:45:00 AM 2.52 36.536 0.043 7.44 27.14 13.19
3/17/2021 4:00:00 AM 2.53 36.554 0.043 7.44 28.98 13.19
3/17/2021 4:15:00 AM 2.54 36.572 0.043 7.44 33.65 13.18
3/17/2021 4:30:00 AM 2.55 36.59 0.043 7.45 42.07 13.17
3/17/2021 4:45:00 AM 2.55 36.59 0.043 7.45 32.61 13.18
3/17/2021 5:00:00 AM 2.56 36.608 0.043 7.45 42.86 13.18
3/17/2021 5:15:00 AM 2.57 36.626 0.043 7.45 28.54 13.17
3/17/2021 5:30:00 AM 2.57 36.626 0.043 7.44 49.75 13.17
3/17/2021 5:45:00 AM 2.58 36.644 0.043 7.45 36.84 13.17
3/17/2021 6:00:00 AM 2.59 36.662 0.043 7.46 33.37 13.17
3/17/2021 6:15:00 AM 2.59 36.662 0.043 7.33 55.08 13.18
3/17/2021 6:30:00 AM 2.6 36.68 0.043 7.39 28.25 13.18
3/17/2021 6:45:00 AM 2.6 36.68 0.043 7.46 35.47 13.17
3/17/2021 7:00:00 AM 2.61 36.698 0.043 7.49 35.83 13.17
3/17/2021 7:15:00 AM 2.61 36.698 0.043 7.47 37.53 13.17
3/17/2021 7:30:00 AM 2.62 36.716 0.043 7.46 29.61 13.17
3/17/2021 7:45:00 AM 2.63 36.734 0.043 7.45 40.91 13.17
3/17/2021 8:00:00 AM 2.65 36.77 0.043 7.39 40.24 13.17
3/17/2021 8:15:00 AM 2.67 36.806 0.043 7.47 39.31 13.17
3/17/2021 8:30:00 AM 2.69 36.842 0.043 7.47 50.42 13.17
3/17/2021 8:45:00 AM 2.7 36.86 0.043 7.47 33.85 13.17
3/17/2021 9:00:00 AM 2.72 36.896 0.043 7.49 40.29 13.18
3/17/2021 9:15:00 AM 2.74 36.932 0.043 7.49 32.49 13.17
3/17/2021 9:30:00 AM 2.77 36.986 0.043 7.49 40.64 13.17
3/17/2021 9:45:00 AM 2.8 37.04 0.043 7.4 34.36 13.16
3/17/2021 10:00:00 AM 2.83 37.094 0.043 7.49 39.81 13.16
3/17/2021 10:15:00 AM 2.86 37.148 0.043 7.48 34.74 13.15
3/17/2021 10:30:00 AM 2.88 37.184 0.043 7.49 34.82 13.14
3/17/2021 10:45:00 AM 2.93 37.274 0.043 7.43 54.38 13.13
3/17/2021 11:00:00 AM 3 37.4 0.043 7.44 44.17 13.11
3/17/2021 11:15:00 AM 3.05 37.49 0.043 7.51 36 13.09
3/17/2021 11:30:00 AM 3.1 37.58 0.043 7.51 35.84 13.08
3/17/2021 11:45:00 AM 3.15 37.67 0.043 7.47 33.37 13.06
3/17/2021 12:00:00 PM 3.21 37.778 0.043 7.5 43.91 13.04
3/17/2021 12:15:00 PM 3.28 37.904 0.043 7.51 61.41 13.02
3/17/2021 12:30:00 PM 3.37 38.066 0.043 7.5 41.61 12.99
3/17/2021 12:45:00 PM 3.44 38.192 0.043 7.52 35.53 12.96
3/17/2021 1:00:00 PM 3.53 38.354 0.043 7.53 44.36 12.93
3/17/2021 1:15:00 PM 3.64 38.552 0.043 7.52 39.15 12.89
3/17/2021 1:30:00 PM 3.72 38.696 0.043 7.53 31.76 12.87
3/17/2021 1:45:00 PM 3.78 38.804 0.043 7.53 32.34 12.84
3/17/2021 2:00:00 PM 3.95 39.11 0.043 7.53 42.94 12.79
3/17/2021 2:15:00 PM 4.09 39.362 0.043 7.53 39.6 12.73
3/17/2021 2:30:00 PM 4.14 39.452 0.043 7.42 35.27 12.7
3/17/2021 2:45:00 PM 4.22 39.596 0.043 7.54 42.89 12.67
3/17/2021 3:00:00 PM 4.3 39.74 0.043 7.53 44.58 12.65
3/17/2021 3:15:00 PM 4.36 39.848 0.043 7.47 67.34 12.62
3/17/2021 3:30:00 PM 4.4 39.92 0.043 7.56 66.02 12.6
3/17/2021 3:45:00 PM 4.43 39.974 0.043 7.53 36.93 12.59
3/17/2021 4:00:00 PM 4.45 40.01 0.043 7.44 49.31 12.58
3/17/2021 4:15:00 PM 4.46 40.028 0.043 7.49 62.99 12.57
3/17/2021 4:30:00 PM 4.45 40.01 0.043 7.54 47.32 12.57
3/17/2021 4:45:00 PM 4.44 39.992 0.043 7.53 53.52 12.56
3/17/2021 5:00:00 PM 4.43 39.974 0.043 7.53 34.12 12.56
3/17/2021 5:15:00 PM 4.42 39.956 0.043 7.5 53.73 12.56
3/17/2021 5:30:00 PM 4.4 39.92 0.043 7.51 54.25 12.56
3/17/2021 5:45:00 PM 4.39 39.902 0.043 7.53 54.92 12.56
3/17/2021 6:00:00 PM 4.38 39.884 0.043 7.44 58.28 12.55
3/17/2021 6:15:00 PM 4.36 39.848 0.044 7.53 58.77 12.55
3/17/2021 6:30:00 PM 4.34 39.812 0.044 7.53 75.84 12.56
3/17/2021 6:45:00 PM 4.32 39.776 0.044 7.52 57.83 12.57
3/17/2021 7:00:00 PM 4.28 39.704 0.044 7.53 49.36 12.57
3/17/2021 7:15:00 PM 4.24 39.632 0.044 7.45 63.59 12.58
3/17/2021 7:30:00 PM 4.19 39.542 0.044 7.51 70.98 12.58
3/17/2021 7:45:00 PM 4.14 39.452 0.044 7.53 77.02 12.6
3/17/2021 8:00:00 PM 4.09 39.362 0.044 7.53 62.34 12.62
3/17/2021 8:15:00 PM 4.04 39.272 0.044 7.33 49.4 12.63
3/17/2021 8:30:00 PM 3.99 39.182 0.044 7.53 49.93 12.65
3/17/2021 8:45:00 PM 3.94 39.092 0.044 7.46 46.54 12.67
3/17/2021 9:00:00 PM 3.9 39.02 0.044 7.52 40.59 12.69
3/17/2021 9:15:00 PM 3.86 38.948 0.044 7.52 49.64 12.7
3/17/2021 9:30:00 PM 3.81 38.858 0.044 7.53 58.6 12.71
3/17/2021 9:45:00 PM 3.77 38.786 0.044 7.53 35.13 12.74
3/17/2021 10:00:00 PM 3.73 38.714 0.044 7.51 42.76 12.74
3/17/2021 10:15:00 PM 3.68 38.624 0.044 7.43 40.43 12.75
3/17/2021 10:30:00 PM 3.64 38.552 0.045 7.52 49.12 12.77
3/17/2021 10:45:00 PM 3.62 38.516 0.045 7.49 47.63 12.79
3/17/2021 11:00:00 PM 3.63 38.534 0.045 7.54 36.63 12.79
3/17/2021 11:15:00 PM 3.63 38.534 0.045 7.52 40.06 12.78
3/17/2021 11:30:00 PM 3.63 38.534 0.045 7.49 59.84 12.78
3/17/2021 11:45:00 PM 3.61 38.498 0.045 7.53 47.79 12.78
3/18/2021 12:00:00 AM 3.6 38.48 0.045 7.48 50.79 12.78
3/18/2021 12:15:00 AM 3.59 38.462 0.045 7.53 56.38 12.79
3/18/2021 12:30:00 AM 3.58 38.444 0.045 7.52 70.05 12.8
3/18/2021 12:45:00 AM 3.57 38.426 0.045 7.52 35.18 12.8
3/18/2021 1:00:00 AM 3.56 38.408 0.045 7.46 47.22 12.79
3/18/2021 1:15:00 AM 3.55 38.39 0.045 7.52 64.51 12.8
3/18/2021 1:30:00 AM 3.54 38.372 0.045 7.47 49.46 12.79
3/18/2021 1:45:00 AM 3.54 38.372 0.045 7.5 39.77 12.79
3/18/2021 2:00:00 AM 3.53 38.354 0.045 7.53 59.42 12.8
3/18/2021 2:15:00 AM 3.53 38.354 0.045 7.47 42.26 12.8
3/18/2021 2:30:00 AM 3.53 38.354 0.045 7.53 44.55 12.8
3/18/2021 2:45:00 AM 3.53 38.354 0.045 7.53 69.65 12.79
3/18/2021 3:00:00 AM 3.53 38.354 0.045 7.42 45.48 12.8
3/18/2021 3:15:00 AM 3.53 38.354 0.045 7.45 44.29 12.79
3/18/2021 3:30:00 AM 3.53 38.354 0.045 7.47 63.13 12.79
3/18/2021 3:45:00 AM 3.53 38.354 0.045 7.46 47.21 12.78
3/18/2021 4:00:00 AM 3.53 38.354 0.045 7.49 37.24 12.78
3/18/2021 4:15:00 AM 3.53 38.354 0.045 7.51 43.44 12.78
3/18/2021 4:30:00 AM 3.53 38.354 0.045 7.53 57.47 12.78
3/18/2021 4:45:00 AM 3.54 38.372 0.045 7.44 55.18 12.77
3/18/2021 5:00:00 AM 3.54 38.372 0.045 7.52 44.27 12.77
3/18/2021 5:15:00 AM 3.54 38.372 0.045 7.52 37.2 12.78
3/18/2021 5:30:00 AM 3.55 38.39 0.045 7.44 47.34 12.77
3/18/2021 5:45:00 AM 3.55 38.39 0.045 7.51 44.31 12.77
3/18/2021 6:00:00 AM 3.56 38.408 0.045 7.45 56.81 12.77
3/18/2021 6:15:00 AM 3.56 38.408 0.045 7.54 60.15 12.76
3/18/2021 6:30:00 AM 3.56 38.408 0.045 7.53 59.13 12.76
3/18/2021 6:45:00 AM 3.56 38.408 0.045 7.45 47.03 12.76
3/18/2021 7:00:00 AM 3.56 38.408 0.045 7.46 46.55 12.76
3/18/2021 7:15:00 AM 3.56 38.408 0.045 7.52 61.17 12.75
3/18/2021 7:30:00 AM 3.56 38.408 0.045 7.52 44.2 12.76
3/18/2021 7:45:00 AM 3.56 38.408 0.045 7.44 51.36 12.76
3/18/2021 8:00:00 AM 3.56 38.408 0.045 7.53 60.78 12.76
3/18/2021 8:15:00 AM 3.56 38.408 0.045 7.5 46.63 12.77
3/18/2021 8:30:00 AM 3.56 38.408 0.046 7.52 56.13 12.76
3/18/2021 8:45:00 AM 3.56 38.408 0.046 7.52 90.6 12.77
3/18/2021 9:00:00 AM 3.56 38.408 0.047 7.51 115.06 12.77
3/18/2021 9:15:00 AM 3.55 38.39 0.052 7.57 108.76 12.78
3/18/2021 9:30:00 AM 3.55 38.39 0.056 7.71 161.85 12.78
3/18/2021 9:45:00 AM 3.55 38.39 0.053 7.68 137.46 12.79
3/18/2021 10:00:00 AM 3.55 38.39 0.051 7.65 115 12.78
3/18/2021 10:15:00 AM 3.57 38.426 0.051 7.66 150.49 12.79
3/18/2021 10:30:00 AM 3.57 38.426 0.052 7.6 128.53 12.79
3/18/2021 10:45:00 AM 3.58 38.444 0.052 7.66 179.75 12.79
3/18/2021 11:00:00 AM 3.6 38.48 0.051 7.66 102.4 12.78
3/18/2021 11:15:00 AM 3.62 38.516 0.05 7.64 163.94 12.78
3/18/2021 11:30:00 AM 3.65 38.57 0.049 7.58 153.73 12.78
3/18/2021 11:45:00 AM 3.68 38.624 0.05 7.64 260.92 12.77
3/18/2021 12:00:00 PM 3.71 38.678 0.05 7.59 118.53 12.76
3/18/2021 12:15:00 PM 3.73 38.714 0.05 7.64 137.24 12.75
3/18/2021 12:30:00 PM 3.76 38.768 0.05 7.6 121.83 12.74
3/18/2021 12:45:00 PM 3.81 38.858 0.049 7.63 109.25 12.74
3/18/2021 1:00:00 PM 3.85 38.93 0.049 7.64 160.01 12.72
3/18/2021 1:15:00 PM 3.89 39.002 0.048 7.61 121.55 12.71
3/18/2021 1:30:00 PM 3.92 39.056 0.048 7.6 123.43 12.7
3/18/2021 1:45:00 PM 3.91 39.038 0.048 7.62 135.5 12.68
3/18/2021 2:00:00 PM 3.94 39.092 0.048 7.58 136.05 12.68
3/18/2021 2:15:00 PM 3.94 39.092 0.047 7.62 125.42 12.67
3/18/2021 2:30:00 PM 3.91 39.038 0.047 7.57 109.15 12.67
3/18/2021 2:45:00 PM 3.89 39.002 0.047 7.56 181.08 12.67
3/18/2021 3:00:00 PM 3.88 38.984 0.046 7.59 194.31 12.67
3/18/2021 3:15:00 PM 3.86 38.948 0.046 7.5 172.63 12.68
3/18/2021 3:30:00 PM 3.84 38.912 0.046 7.57 182.23 12.69
3/18/2021 3:45:00 PM 3.82 38.876 0.045 7.48 164.64 12.69
3/18/2021 4:00:00 PM 3.79 38.822 0.045 7.52 136.66 12.7
3/18/2021 4:15:00 PM 3.77 38.786 0.046 7.57 186.11 12.7
3/18/2021 4:30:00 PM 3.75 38.75 0.046 7.55 127.81 12.7
3/18/2021 4:45:00 PM 3.74 38.732 0.046 7.58 129.56 12.72
3/18/2021 5:00:00 PM 3.73 38.714 0.046 7.48 144.28 12.72
3/18/2021 5:15:00 PM 3.71 38.678 0.045 7.55 131.34 12.73
3/18/2021 5:30:00 PM 3.68 38.624 0.045 7.49 170.16 12.73
3/18/2021 5:45:00 PM 3.64 38.552 0.046 7.53 171.7 12.75
3/18/2021 6:00:00 PM 3.61 38.498 0.046 7.51 163.6 12.77
3/18/2021 6:15:00 PM 3.56 38.408 0.046 7.49 139.91 12.78
3/18/2021 6:30:00 PM 3.52 38.336 0.045 7.48 180.54 12.79
3/18/2021 6:45:00 PM 3.5 38.3 0.045 7.46 157.2 12.81
3/18/2021 7:00:00 PM 3.46 38.228 0.045 7.51 181.24 12.82
3/18/2021 7:15:00 PM 3.42 38.156 0.044 7.42 167.24 12.83
3/18/2021 7:30:00 PM 3.39 38.102 0.044 7.44 136.89 12.85
3/18/2021 7:45:00 PM 3.37 38.066 0.044 7.46 124.2 12.86
3/18/2021 8:00:00 PM 3.34 38.012 0.044 7.43 178.8 12.87
3/18/2021 8:15:00 PM 3.31 37.958 0.044 7.44 113 12.88
3/18/2021 8:30:00 PM 3.28 37.904 0.044 7.43 121.88 12.89
3/18/2021 8:45:00 PM 3.26 37.868 0.043 7.44 108.14 12.9
3/18/2021 9:00:00 PM 3.22 37.796 0.043 7.42 89.41 12.9
3/18/2021 9:15:00 PM 3.2 37.76 0.043 7.43 103.08 12.92
3/18/2021 9:30:00 PM 3.17 37.706 0.043 7.42 142.83 12.93
3/18/2021 9:45:00 PM 3.14 37.652 0.043 7.42 107.88 12.95
3/18/2021 10:00:00 PM 3.11 37.598 0.043 7.41 118.67 12.96
3/18/2021 10:15:00 PM 3.09 37.562 0.043 7.47 77.66 12.96
3/18/2021 10:30:00 PM 3.05 37.49 0.043 7.39 82.63 12.97
3/18/2021 10:45:00 PM 3.02 37.436 0.043 7.42 76.17 12.99
3/18/2021 11:00:00 PM 2.99 37.382 0.043 7.4 83.06 13
3/18/2021 11:15:00 PM 2.95 37.31 0.043 7.4 62.62 13.01
3/18/2021 11:30:00 PM 2.91 37.238 0.043 7.45 86.87 13.03
3/18/2021 11:45:00 PM 2.87 37.166 0.043 7.46 84.76 13.05
3/19/2021 12:00:00 AM 2.82 37.076 0.043 7.46 79.83 13.07
3/19/2021 12:15:00 AM 2.77 36.986 0.043 7.37 58.26 13.09
3/19/2021 12:30:00 AM 2.71 36.878 0.043 7.46 78.55 13.11
3/19/2021 12:45:00 AM 2.65 36.77 0.043 7.46 77.47 13.12
3/19/2021 1:00:00 AM 2.62 36.716 0.043 7.47 78.72 13.14
3/19/2021 1:15:00 AM 2.57 36.626 0.042 7.39 82.64 13.16
3/19/2021 1:30:00 AM 2.53 36.554 0.043 7.45 127.83 13.19
3/19/2021 1:45:00 AM 2.47 36.446 0.043 7.42 57.09 13.2
3/19/2021 2:00:00 AM 2.43 36.374 0.042 7.41 88.8 13.23
3/19/2021 2:15:00 AM 2.38 36.284 0.042 7.43 75.82 13.25
3/19/2021 2:30:00 AM 2.32 36.176 0.042 7.39 77.81 13.27
3/19/2021 2:45:00 AM 2.27 36.086 0.042 7.39 77.45 13.29
3/19/2021 3:00:00 AM 2.21 35.978 0.042 7.46 65.57 13.32
3/19/2021 3:15:00 AM 2.14 35.852 0.042 7.36 69.46 13.34
3/19/2021 3:30:00 AM 2.11 35.798 0.042 7.39 70.59 13.36
3/19/2021 3:45:00 AM 2.04 35.672 0.042 7.39 53.99 13.38
3/19/2021 4:00:00 AM 1.96 35.528 0.042 7.47 69.05 13.41
3/19/2021 4:15:00 AM 1.9 35.42 0.042 7.48 59.5 13.43
3/19/2021 4:30:00 AM 1.86 35.348 0.042 7.47 54.27 13.46
3/19/2021 4:45:00 AM 1.82 35.276 0.042 7.39 70.31 13.47
3/19/2021 5:00:00 AM 1.77 35.186 0.042 7.45 75.48 13.49
3/19/2021 5:15:00 AM 1.7 35.06 0.042 7.4 43.41 13.52
3/19/2021 5:30:00 AM 1.65 34.97 0.042 7.48 50.88 13.55
3/19/2021 5:45:00 AM 1.6 34.88 0.042 7.47 96.72 13.57
3/19/2021 6:00:00 AM 1.55 34.79 0.042 7.43 59.82 13.59
3/19/2021 6:15:00 AM 1.5 34.7 0.042 7.42 49.91 13.61
3/19/2021 6:30:00 AM 1.45 34.61 0.042 7.46 49.94 13.63
3/19/2021 6:45:00 AM 1.4 34.52 0.043 7.39 58.94 13.66
3/19/2021 7:00:00 AM 1.33 34.394 0.043 7.45 51.15 13.69
3/19/2021 7:15:00 AM 1.31 34.358 0.043 7.38 40.41 13.7
3/19/2021 7:30:00 AM 1.26 34.268 0.043 7.45 46.64 13.73
3/19/2021 7:45:00 AM 1.24 34.232 0.043 7.47 57.36 13.75
3/19/2021 8:00:00 AM 1.18 34.124 0.043 7.46 44.65 13.78
3/19/2021 8:15:00 AM 1.15 34.07 0.043 7.39 57.25 13.82
3/19/2021 8:30:00 AM 1.16 34.088 0.043 7.41 43.7 13.83
3/19/2021 8:45:00 AM 1.16 34.088 0.043 7.44 49.55 13.84
3/19/2021 9:00:00 AM 1.16 34.088 0.043 7.47 51.69 13.85
3/19/2021 9:15:00 AM 1.17 34.106 0.043 7.47 39.07 13.85
3/19/2021 9:30:00 AM 1.21 34.178 0.043 7.47 44.03 13.86
3/19/2021 9:45:00 AM 1.27 34.286 0.043 7.47 38.87 13.85
3/19/2021 10:00:00 AM 1.31 34.358 0.043 7.39 46.43 13.84
3/19/2021 10:15:00 AM 1.39 34.502 0.043 7.48 52.94 13.82
3/19/2021 10:30:00 AM 1.46 34.628 0.043 7.41 46.06 13.79
3/19/2021 10:45:00 AM 1.52 34.736 0.043 7.44 47.94 13.77
3/19/2021 11:00:00 AM 1.62 34.916 0.043 7.5 39.96 13.75
3/19/2021 11:15:00 AM 1.72 35.096 0.043 7.49 45.92 13.71
3/19/2021 11:30:00 AM 1.82 35.276 0.043 7.48 42.83 13.67
3/19/2021 11:45:00 AM 1.94 35.492 0.042 7.42 46.01 13.63
3/19/2021 12:00:00 PM 2.03 35.654 0.042 7.47 45.4 13.6
3/19/2021 12:15:00 PM 2.11 35.798 0.042 7.5 49.23 13.57
3/19/2021 12:30:00 PM 2.2 35.96 0.042 7.47 40.99 13.54
3/19/2021 12:45:00 PM 2.29 36.122 0.042 7.49 35.42 13.5
3/19/2021 1:00:00 PM 2.4 36.32 0.042 7.42 67.05 13.46
3/19/2021 1:15:00 PM 2.52 36.536 0.043 7.51 47.58 13.42
3/19/2021 1:30:00 PM 2.63 36.734 0.043 7.52 45.02 13.38
3/19/2021 1:45:00 PM 2.71 36.878 0.042 7.42 43.99 13.34
3/19/2021 2:00:00 PM 2.77 36.986 0.042 7.44 42.44 13.31
3/19/2021 2:15:00 PM 2.82 37.076 0.042 7.52 42.35 13.29
3/19/2021 2:30:00 PM 2.88 37.184 0.042 7.48 43.17 13.27
3/19/2021 2:45:00 PM 2.92 37.256 0.042 7.52 41.23 13.25
3/19/2021 3:00:00 PM 2.92 37.256 0.042 7.45 38.8 13.24
3/19/2021 3:15:00 PM 2.91 37.238 0.042 7.47 45.58 13.24
3/19/2021 3:30:00 PM 2.92 37.256 0.042 7.53 42.14 13.23
3/19/2021 3:45:00 PM 2.92 37.256 0.043 7.52 37.77 13.23
3/19/2021 4:00:00 PM 2.9 37.22 0.043 7.52 35.5 13.24
3/19/2021 4:15:00 PM 2.89 37.202 0.042 7.41 41.89 13.23
3/19/2021 4:30:00 PM 2.87 37.166 0.043 7.43 40.19 13.24
3/19/2021 4:45:00 PM 2.83 37.094 0.043 7.48 33.08 13.24
3/19/2021 5:00:00 PM 2.81 37.058 0.043 7.51 57.2 13.25
3/19/2021 5:15:00 PM 2.79 37.022 0.043 7.51 34.39 13.26
3/19/2021 5:30:00 PM 2.77 36.986 0.043 7.42 35.2 13.26
3/19/2021 5:45:00 PM 2.76 36.968 0.043 7.52 34.35 13.26
3/19/2021 6:00:00 PM 2.75 36.95 0.067 7.47 38.1 13.27
3/19/2021 6:15:00 PM 2.73 36.914 0.043 7.5 42.15 13.27
3/19/2021 6:30:00 PM 2.7 36.86 0.043 7.5 32.5 13.28
3/19/2021 6:45:00 PM 2.68 36.824 0.043 7.46 27.93 13.28
3/19/2021 7:00:00 PM 2.65 36.77 0.043 7.44 38.87 13.3
3/19/2021 7:15:00 PM 2.63 36.734 0.086 7.52 36.52 13.3
3/19/2021 7:30:00 PM 2.57 36.626 0.043 7.5 30.95 13.31
3/19/2021 7:45:00 PM 2.52 36.536 0.043 7.49 66.65 13.33
3/19/2021 8:00:00 PM 2.46 36.428 0.043 7.37 37.32 13.36
3/19/2021 8:15:00 PM 2.42 36.356 0.043 7.48 40.01 13.36
3/19/2021 8:30:00 PM 2.37 36.266 0.043 7.4 38.73 13.39
3/19/2021 8:45:00 PM 2.32 36.176 0.043 7.49 41.23 13.41
3/19/2021 9:00:00 PM 2.28 36.104 0.043 7.48 33.12 13.43
3/19/2021 9:15:00 PM 2.23 36.014 0.043 7.48 35.1 13.45
3/19/2021 9:30:00 PM 2.19 35.942 0.043 7.39 30.98 13.46
3/19/2021 9:45:00 PM 2.16 35.888 0.043 7.47 42.19 13.48
3/19/2021 10:00:00 PM 2.13 35.834 0.043 7.41 45.35 13.49
3/19/2021 10:15:00 PM 2.1 35.78 0.043 7.43 29.84 13.5
3/19/2021 10:30:00 PM 2.08 35.744 0.043 7.48 32.43 13.51
3/19/2021 10:45:00 PM 2.06 35.708 0.043 7.39 29.5 13.52
3/19/2021 11:00:00 PM 2.04 35.672 0.043 7.42 45.91 13.53
3/19/2021 11:15:00 PM 2.02 35.636 0.043 7.45 30.37 13.54
3/19/2021 11:30:00 PM 1.99 35.582 0.043 7.47 29.68 13.55
3/19/2021 11:45:00 PM 1.96 35.528 0.043 7.42 29.78 13.56
3/20/2021 12:00:00 AM 1.93 35.474 0.043 7.47 31.84 13.57
3/20/2021 12:15:00 AM 1.9 35.42 0.043 7.47 39.44 13.59
3/20/2021 12:30:00 AM 1.87 35.366 0.043 7.37 26.04 13.6
3/20/2021 12:45:00 AM 1.84 35.312 0.043 7.46 47.89 13.61
3/20/2021 1:00:00 AM 1.81 35.258 0.043 7.46 36.3 13.63
3/20/2021 1:15:00 AM 1.77 35.186 0.043 7.38 39.73 13.64
3/20/2021 1:30:00 AM 1.74 35.132 0.043 7.45 33.84 13.65
3/20/2021 1:45:00 AM 1.71 35.078 0.043 7.46 22.47 13.67
3/20/2021 2:00:00 AM 1.67 35.006 0.043 7.38 23.85 13.68
3/20/2021 2:15:00 AM 1.64 34.952 0.043 7.47 34.97 13.7
3/20/2021 2:30:00 AM 1.6 34.88 0.044 7.42 25.38 13.71
3/20/2021 2:45:00 AM 1.57 34.826 0.044 7.38 29.73 13.73
3/20/2021 3:00:00 AM 1.54 34.772 0.044 7.38 39.94 13.74
3/20/2021 3:15:00 AM 1.5 34.7 0.044 7.46 30.46 13.75
3/20/2021 3:30:00 AM 1.47 34.646 0.044 7.45 32.9 13.77
3/20/2021 3:45:00 AM 1.44 34.592 0.044 7.44 29.22 13.78
3/20/2021 4:00:00 AM 1.41 34.538 0.044 7.45 22.3 13.79
3/20/2021 4:15:00 AM 1.37 34.466 0.044 7.38 31.02 13.81
3/20/2021 4:30:00 AM 1.34 34.412 0.044 7.45 38.85 13.83
3/20/2021 4:45:00 AM 1.31 34.358 0.044 7.41 30.26 13.84
3/20/2021 5:00:00 AM 1.28 34.304 0.044 7.46 26.99 13.85
3/20/2021 5:15:00 AM 1.25 34.25 0.044 7.41 26.25 13.85
3/20/2021 5:30:00 AM 1.21 34.178 0.044 7.46 28.01 13.88
3/20/2021 5:45:00 AM 1.18 34.124 0.044 7.46 26.23 13.88
3/20/2021 6:00:00 AM 1.14 34.052 0.044 7.44 27.9 13.89
3/20/2021 6:15:00 AM 1.11 33.998 0.044 7.47 29.78 13.93
3/20/2021 6:30:00 AM 1.08 33.944 0.044 7.46 25.88 13.92
3/20/2021 6:45:00 AM 1.05 33.89 0.044 7.41 31.02 13.94
3/20/2021 7:00:00 AM 1.02 33.836 0.044 7.42 35.01 13.96
3/20/2021 7:15:00 AM 1 33.8 0.044 7.46 30.56 13.96
3/20/2021 7:30:00 AM 0.98 33.764 0.044 7.42 23.31 13.98
3/20/2021 7:45:00 AM 0.96 33.728 0.044 7.46 27.87 14.01
3/20/2021 8:00:00 AM 0.97 33.746 0.044 7.37 27.63 14.02
3/20/2021 8:15:00 AM 0.99 33.782 0.044 7.4 27.53 14.01
3/20/2021 8:30:00 AM 1.03 33.854 0.044 7.46 30.47 14.01
3/20/2021 8:45:00 AM 1.07 33.926 0.044 7.47 34.53 14.01
3/20/2021 9:00:00 AM 1.12 34.016 0.044 7.47 23.82 14.01
3/20/2021 9:15:00 AM 1.19 34.142 0.044 7.47 25.83 13.99
3/20/2021 9:30:00 AM 1.27 34.286 0.044 7.4 22.64 13.97
3/20/2021 9:45:00 AM 1.39 34.502 0.044 7.49 30.7 13.93
3/20/2021 10:00:00 AM 1.51 34.718 0.044 7.49 35.44 13.88
3/20/2021 10:15:00 AM 1.63 34.934 0.044 7.48 31.72 13.85
3/20/2021 10:30:00 AM 1.77 35.186 0.044 7.5 25.47 13.8
3/20/2021 10:45:00 AM 1.92 35.456 0.044 7.48 34.37 13.74
3/20/2021 11:00:00 AM 2.09 35.762 0.044 7.5 23.06 13.68
3/20/2021 11:15:00 AM 2.27 36.086 0.043 7.5 29.17 13.61
3/20/2021 11:30:00 AM 2.46 36.428 0.043 7.51 29.53 13.54
3/20/2021 11:45:00 AM 2.65 36.77 0.043 7.52 45.78 13.47
3/20/2021 12:00:00 PM 2.84 37.112 0.043 7.52 38.34 13.4
3/20/2021 12:15:00 PM 3.04 37.472 0.043 7.51 30.85 13.33
3/20/2021 12:30:00 PM 3.22 37.796 0.043 7.54 35.03 13.26
3/20/2021 12:45:00 PM 3.41 38.138 0.043 7.52 31.21 13.19
3/20/2021 1:00:00 PM 3.61 38.498 0.043 7.48 34.09 13.13
3/20/2021 1:15:00 PM 3.8 38.84 0.043 7.5 39.66 13.06
3/20/2021 1:30:00 PM 3.97 39.146 0.043 7.55 26 12.99
3/20/2021 1:45:00 PM 4.14 39.452 0.043 7.55 34.12 12.92
3/20/2021 2:00:00 PM 4.26 39.668 0.043 7.56 44.94 12.87
3/20/2021 2:15:00 PM 4.36 39.848 0.043 7.51 61.72 12.83
3/20/2021 2:30:00 PM 4.45 40.01 0.043 7.5 37.78 12.79
3/20/2021 2:45:00 PM 4.54 40.172 0.043 7.57 41.59 12.75
3/20/2021 3:00:00 PM 4.62 40.316 0.043 7.55 33.33 12.72
3/20/2021 3:15:00 PM 4.67 40.406 0.043 7.57 34.82 12.7
3/20/2021 3:30:00 PM 4.69 40.442 0.043 7.58 36.83 12.69
3/20/2021 3:45:00 PM 4.71 40.478 0.043 7.57 40.54 12.67
3/20/2021 4:00:00 PM 4.72 40.496 0.043 7.57 33.99 12.66
3/20/2021 4:15:00 PM 4.71 40.478 0.043 7.57 49.67 12.66
3/20/2021 4:30:00 PM 4.69 40.442 0.043 7.57 34.2 12.66
3/20/2021 4:45:00 PM 4.67 40.406 0.043 7.56 36.56 12.66
3/20/2021 5:00:00 PM 4.64 40.352 0.043 7.56 41.64 12.67
3/20/2021 5:15:00 PM 4.62 40.316 0.043 7.57 44.49 12.66
3/20/2021 5:30:00 PM 4.6 40.28 0.043 7.56 35.71 12.67
3/20/2021 5:45:00 PM 4.57 40.226 0.043 7.47 47.17 12.67
3/20/2021 6:00:00 PM 4.53 40.154 0.043 7.55 36.8 12.69
3/20/2021 6:15:00 PM 4.48 40.064 0.043 7.52 40.3 12.7
3/20/2021 6:30:00 PM 4.43 39.974 0.043 7.48 32.36 12.71
3/20/2021 6:45:00 PM 4.37 39.866 0.043 7.55 27.64 12.73
3/20/2021 7:00:00 PM 4.3 39.74 0.043 7.55 52.62 12.75
3/20/2021 7:15:00 PM 4.23 39.614 0.043 7.54 40.46 12.77
3/20/2021 7:30:00 PM 4.17 39.506 0.044 7.54 34.16 12.78
3/20/2021 7:45:00 PM 4.1 39.38 0.044 7.53 34.4 12.8
3/20/2021 8:00:00 PM 4.03 39.254 0.044 7.53 25.11 12.82
3/20/2021 8:15:00 PM 3.96 39.128 0.044 7.41 27.05 12.85
3/20/2021 8:30:00 PM 3.9 39.02 0.044 7.51 30.7 12.88
3/20/2021 8:45:00 PM 3.82 38.876 0.044 7.52 26.52 12.9
3/20/2021 9:00:00 PM 3.75 38.75 0.044 7.51 32.17 12.93
3/20/2021 9:15:00 PM 3.68 38.624 0.044 7.51 23.51 12.95
3/20/2021 9:30:00 PM 3.61 38.498 0.044 7.5 37.22 12.97
3/20/2021 9:45:00 PM 3.54 38.372 0.044 7.42 33.02 13
3/20/2021 10:00:00 PM 3.47 38.246 0.044 7.43 24.85 13.03
3/20/2021 10:15:00 PM 3.4 38.12 0.044 7.5 22.28 13.06
3/20/2021 10:30:00 PM 3.33 37.994 0.044 7.45 47.66 13.08
3/20/2021 10:45:00 PM 3.27 37.886 0.044 7.52 37.64 13.1
3/20/2021 11:00:00 PM 3.2 37.76 0.044 7.51 31.55 13.12
3/20/2021 11:15:00 PM 3.15 37.67 0.044 7.53 59.38 13.14
3/20/2021 11:30:00 PM 3.09 37.562 0.044 7.52 37.36 13.16
3/20/2021 11:45:00 PM 3.04 37.472 0.044 7.52 39.27 13.18
3/21/2021 12:00:00 AM 2.99 37.382 0.044 7.52 49.49 13.2
3/21/2021 12:15:00 AM 2.94 37.292 0.044 7.5 35.9 13.22
3/21/2021 12:30:00 AM 2.89 37.202 0.044 7.42 39.78 13.24
3/21/2021 12:45:00 AM 2.84 37.112 0.044 7.42 41.89 13.25
3/21/2021 1:00:00 AM 2.79 37.022 0.044 7.49 35.8 13.27
3/21/2021 1:15:00 AM 2.75 36.95 0.044 7.5 30.57 13.29
3/21/2021 1:30:00 AM 2.71 36.878 0.041 7.45 15653.21 13.3
3/21/2021 1:45:00 AM 2.66 36.788 0.044 7.48 33.55 13.32
3/21/2021 2:00:00 AM 2.62 36.716 0.044 7.49 36.99 13.33
3/21/2021 2:15:00 AM 2.58 36.644 0.044 7.35 27.08 13.35
3/21/2021 2:30:00 AM 2.55 36.59 0.044 7.49 29.96 13.36
3/21/2021 2:45:00 AM 2.51 36.518 0.044 7.5 30.67 13.37
3/21/2021 3:00:00 AM 2.47 36.446 0.044 7.47 32.48 13.38
3/21/2021 3:15:00 AM 2.43 36.374 0.044 7.48 23.06 13.4
3/21/2021 3:30:00 AM 2.4 36.32 0.044 7.49 33.37 13.41
3/21/2021 3:45:00 AM 2.36 36.248 0.044 7.49 27.76 13.43
3/21/2021 4:00:00 AM 2.33 36.194 0.044 7.49 26.98 13.44
3/21/2021 4:15:00 AM 2.29 36.122 0.044 7.49 29.04 13.45
3/21/2021 4:30:00 AM 2.26 36.068 0.044 7.35 37.49 13.46
3/21/2021 4:45:00 AM 2.22 35.996 0.044 7.39 31.82 13.48
3/21/2021 5:00:00 AM 2.19 35.942 0.044 7.41 37.15 13.49
3/21/2021 5:15:00 AM 2.16 35.888 0.044 7.48 33 13.51
3/21/2021 5:30:00 AM 2.13 35.834 0.044 7.39 31.92 13.52
3/21/2021 5:45:00 AM 2.1 35.78 0.044 7.41 25.29 13.53
3/21/2021 6:00:00 AM 2.06 35.708 0.044 7.46 38.25 13.54
3/21/2021 6:15:00 AM 2.03 35.654 0.044 7.39 31.99 13.55
3/21/2021 6:30:00 AM 2 35.6 0.044 7.48 25.85 13.56
3/21/2021 6:45:00 AM 1.97 35.546 0.044 7.48 29.36 13.58
3/21/2021 7:00:00 AM 1.95 35.51 0.044 7.48 33.74 13.59
3/21/2021 7:15:00 AM 1.92 35.456 0.044 7.34 25.07 13.61
3/21/2021 7:30:00 AM 1.89 35.402 0.044 7.5 27.78 13.63
3/21/2021 7:45:00 AM 1.88 35.384 0.044 7.39 28.93 13.65
3/21/2021 8:00:00 AM 1.88 35.384 0.044 7.48 30.12 13.66
3/21/2021 8:15:00 AM 1.89 35.402 0.044 7.49 30.73 13.67
3/21/2021 8:30:00 AM 1.93 35.474 0.044 7.5 30.12 13.67
3/21/2021 8:45:00 AM 1.97 35.546 0.044 7.39 27.26 13.66
3/21/2021 9:00:00 AM 2.02 35.636 0.044 7.52 25.39 13.65
3/21/2021 9:15:00 AM 2.08 35.744 0.044 7.4 22.91 13.64
3/21/2021 9:30:00 AM 2.18 35.924 0.044 7.51 26.87 13.61
3/21/2021 9:45:00 AM 2.3 36.14 0.044 7.51 29.02 13.57
3/21/2021 10:00:00 AM 2.43 36.374 0.044 7.53 21.5 13.54
3/21/2021 10:15:00 AM 2.56 36.608 0.044 7.53 28.53 13.5
3/21/2021 10:30:00 AM 2.71 36.878 0.044 7.53 25.69 13.45
3/21/2021 10:45:00 AM 2.87 37.166 0.044 7.53 31.25 13.39
3/21/2021 11:00:00 AM 3.04 37.472 0.044 7.55 30.74 13.34
3/21/2021 11:15:00 AM 3.23 37.814 0.044 7.41 36.42 13.27
3/21/2021 11:30:00 AM 3.43 38.174 0.044 7.54 33.86 13.2
3/21/2021 11:45:00 AM 3.63 38.534 0.044 7.57 33.91 13.12
3/21/2021 12:00:00 PM 3.82 38.876 0.044 7.56 29.97 13.06
3/21/2021 12:15:00 PM 4 39.2 0.044 7.5 37.4 12.99
3/21/2021 12:30:00 PM 4.19 39.542 0.044 7.54 32.37 12.92
3/21/2021 12:45:00 PM 4.38 39.884 0.044 7.6 36.92 12.85
3/21/2021 1:00:00 PM 4.57 40.226 0.044 7.49 23.2 12.79
3/21/2021 1:15:00 PM 4.76 40.568 0.044 7.6 37.35 12.71
3/21/2021 1:30:00 PM 4.94 40.892 0.043 7.53 48.59 12.64
3/21/2021 1:45:00 PM 5.11 41.198 0.044 7.53 32.71 12.58
3/21/2021 2:00:00 PM 5.23 41.414 0.043 7.56 39.87 12.54
3/21/2021 2:15:00 PM 5.33 41.594 0.043 7.63 38.85 12.5
3/21/2021 2:30:00 PM 5.43 41.774 0.043 7.63 40.48 12.46
3/21/2021 2:45:00 PM 5.52 41.936 0.043 7.64 41.58 12.42
3/21/2021 3:00:00 PM 5.6 42.08 0.043 7.63 31.8 12.39
3/21/2021 3:15:00 PM 5.66 42.188 0.043 7.63 37.64 12.36
3/21/2021 3:30:00 PM 5.69 42.242 0.043 7.63 37.93 12.35
3/21/2021 3:45:00 PM 5.7 42.26 0.043 7.6 40.97 12.33
3/21/2021 4:00:00 PM 5.71 42.278 0.043 7.53 56.08 12.32
3/21/2021 4:15:00 PM 5.7 42.26 0.043 7.62 45.5 12.32
3/21/2021 4:30:00 PM 5.68 42.224 0.043 7.63 30.91 12.32
3/21/2021 4:45:00 PM 5.65 42.17 0.043 7.63 47.68 12.32
3/21/2021 5:00:00 PM 5.62 42.116 0.043 7.62 41.55 12.32
3/21/2021 5:15:00 PM 5.6 42.08 0.044 7.61 32.48 12.32
3/21/2021 5:30:00 PM 5.57 42.026 0.044 7.6 32.58 12.33
3/21/2021 5:45:00 PM 5.54 41.972 0.044 7.6 52.6 12.33
3/21/2021 6:00:00 PM 5.5 41.9 0.044 7.61 39.78 12.34
3/21/2021 6:15:00 PM 5.45 41.81 0.044 7.48 31.04 12.36
3/21/2021 6:30:00 PM 5.38 41.684 0.044 7.61 50.33 12.37
3/21/2021 6:45:00 PM 5.3 41.54 0.044 7.62 51.37 12.39
3/21/2021 7:00:00 PM 5.22 41.396 0.044 7.61 38.63 12.41
3/21/2021 7:15:00 PM 5.14 41.252 0.044 7.58 39.12 12.43
3/21/2021 7:30:00 PM 5.05 41.09 0.044 7.59 42.9 12.45
3/21/2021 7:45:00 PM 4.96 40.928 0.044 7.49 40.25 12.48
3/21/2021 8:00:00 PM 4.88 40.784 0.044 7.59 41.98 12.51
3/21/2021 8:15:00 PM 4.79 40.622 0.044 7.56 628.96 12.54
3/21/2021 8:30:00 PM 4.7 40.46 0.044 7.49 39.59 12.56
3/21/2021 8:45:00 PM 4.61 40.298 0.044 7.58 47.23 12.6
3/21/2021 9:00:00 PM 4.53 40.154 0.044 7.48 37.35 12.62
3/21/2021 9:15:00 PM 4.44 39.992 0.044 7.6 30.47 12.65
3/21/2021 9:30:00 PM 4.36 39.848 0.044 7.58 41.48 12.68
3/21/2021 9:45:00 PM 4.27 39.686 0.044 7.57 30.5 12.71
3/21/2021 10:00:00 PM 4.19 39.542 0.044 7.57 40.73 12.74
3/21/2021 10:15:00 PM 4.11 39.398 0.044 7.55 32.01 12.76
3/21/2021 10:30:00 PM 4.02 39.236 0.044 7.55 31.72 12.79
3/21/2021 10:45:00 PM 3.95 39.11 0.044 7.57 30.84 12.81
3/21/2021 11:00:00 PM 3.87 38.966 0.044 7.56 31.03 12.84
3/21/2021 11:15:00 PM 3.8 38.84 0.044 7.44 27.04 12.87
3/21/2021 11:30:00 PM 3.73 38.714 0.044 7.56 34.01 12.89
3/21/2021 11:45:00 PM 3.66 38.588 0.045 7.55 29.6 12.92
3/22/2021 12:00:00 AM 3.59 38.462 0.045 7.55 29.54 12.94
3/22/2021 12:15:00 AM 3.52 38.336 0.045 7.55 31.95 12.97
3/22/2021 12:30:00 AM 3.46 38.228 0.045 7.53 28.75 12.97
3/22/2021 12:45:00 AM 3.41 38.138 0.045 7.54 38.05 13
3/22/2021 1:00:00 AM 3.35 38.03 0.045 7.5 29.54 13.02
3/22/2021 1:15:00 AM 3.3 37.94 0.045 7.45 31.24 13.04
3/22/2021 1:30:00 AM 3.25 37.85 0.045 7.55 29.39 13.06
3/22/2021 1:45:00 AM 3.2 37.76 0.045 7.55 33.8 13.08
3/22/2021 2:00:00 AM 3.15 37.67 0.045 7.55 24.56 13.09
3/22/2021 2:15:00 AM 3.11 37.598 0.045 7.54 27.5 13.11
3/22/2021 2:30:00 AM 3.07 37.526 0.045 7.42 33.92 13.12
3/22/2021 2:45:00 AM 3.03 37.454 0.045 7.42 36.41 13.13
3/22/2021 3:00:00 AM 2.99 37.382 0.045 7.55 31.67 13.14
3/22/2021 3:15:00 AM 2.95 37.31 0.045 7.53 26.98 13.16
3/22/2021 3:30:00 AM 2.91 37.238 0.045 7.52 28.3 13.16
3/22/2021 3:45:00 AM 2.88 37.184 0.045 7.53 32.53 13.18
3/22/2021 4:00:00 AM 2.84 37.112 0.045 7.53 29.31 13.19
3/22/2021 4:15:00 AM 2.8 37.04 0.045 7.54 28.21 13.21
3/22/2021 4:30:00 AM 2.77 36.986 0.045 7.51 30.53 13.21
3/22/2021 4:45:00 AM 2.73 36.914 0.045 7.54 24.94 13.23
3/22/2021 5:00:00 AM 2.69 36.842 0.045 7.53 35.37 13.24
3/22/2021 5:15:00 AM 2.65 36.77 0.045 7.52 25.27 13.26
3/22/2021 5:30:00 AM 2.62 36.716 0.045 7.52 32.53 13.27
3/22/2021 5:45:00 AM 2.59 36.662 0.045 7.54 36.41 13.28
3/22/2021 6:00:00 AM 2.56 36.608 0.045 7.39 25.14 13.3
3/22/2021 6:15:00 AM 2.53 36.554 0.045 7.47 28.52 13.31
3/22/2021 6:30:00 AM 2.5 36.5 0.045 7.53 28.89 13.32
3/22/2021 6:45:00 AM 2.47 36.446 0.045 7.41 30.23 13.33
3/22/2021 7:00:00 AM 2.44 36.392 0.045 7.51 28.55 13.34
3/22/2021 7:15:00 AM 2.41 36.338 0.045 7.54 27.02 13.35
3/22/2021 7:30:00 AM 2.39 36.302 0.045 7.52 34.18 13.38
3/22/2021 7:45:00 AM 2.37 36.266 0.045 7.43 38.78 13.39
3/22/2021 8:00:00 AM 2.39 36.302 0.045 7.54 26.72 13.4
3/22/2021 8:15:00 AM 2.41 36.338 0.045 7.55 27.23 13.42
3/22/2021 8:30:00 AM 2.45 36.41 0.045 7.54 28.12 13.41
3/22/2021 8:45:00 AM 2.49 36.482 0.045 7.55 23.3 13.41
3/22/2021 9:00:00 AM 2.54 36.572 0.044 7.57 26.86 13.41
3/22/2021 9:15:00 AM 2.61 36.698 0.044 7.58 26.88 13.39
3/22/2021 9:30:00 AM 2.72 36.896 0.044 7.45 28.13 13.36
3/22/2021 9:45:00 AM 2.85 37.13 0.044 7.54 33.23 13.32
3/22/2021 10:00:00 AM 2.99 37.382 0.044 7.6 21.2 13.27
3/22/2021 10:15:00 AM 3.14 37.652 0.044 7.6 34.75 13.23
3/22/2021 10:30:00 AM 3.29 37.922 0.044 7.57 27.26 13.18
3/22/2021 10:45:00 AM 3.45 38.21 0.044 7.6 17.61 13.12
3/22/2021 11:00:00 AM 3.62 38.516 0.044 7.61 25.68 13.07
3/22/2021 11:15:00 AM 3.81 38.858 0.044 7.5 37.51 13.01
3/22/2021 11:30:00 AM 4 39.2 0.044 7.59 22.46 12.93
3/22/2021 11:45:00 AM 4.2 39.56 0.044 7.52 25.85 12.87
3/22/2021 12:00:00 PM 4.4 39.92 0.044 7.61 32.79 12.8
3/22/2021 12:15:00 PM 4.59 40.262 0.044 7.64 35.99 12.73
3/22/2021 12:30:00 PM 4.78 40.604 0.044 7.6 28.69 12.66
3/22/2021 12:45:00 PM 4.96 40.928 0.044 7.54 29.6 12.6
3/22/2021 1:00:00 PM 5.15 41.27 0.044 7.65 28.9 12.53
3/22/2021 1:15:00 PM 5.35 41.63 0.044 7.65 34.75 12.46
3/22/2021 1:30:00 PM 5.53 41.954 0.044 7.66 38.86 12.39
3/22/2021 1:45:00 PM 5.69 42.242 0.044 7.62 34.17 12.33
3/22/2021 2:00:00 PM 5.81 42.458 0.044 7.67 58.46 12.29
3/22/2021 2:15:00 PM 5.9 42.62 0.044 7.68 38.9 12.25
3/22/2021 2:30:00 PM 5.99 42.782 0.044 7.66 42.83 12.21
3/22/2021 2:45:00 PM 6.08 42.944 0.044 7.67 29.76 12.18
3/22/2021 3:00:00 PM 6.15 43.07 0.044 7.69 40.31 12.15
3/22/2021 3:15:00 PM 6.2 43.16 0.044 7.69 34.16 12.13
3/22/2021 3:30:00 PM 6.23 43.214 0.044 7.58 44.83 12.11
3/22/2021 3:45:00 PM 6.24 43.232 0.044 7.67 35.94 12.1
3/22/2021 4:00:00 PM 6.25 43.25 0.044 7.67 36.26 12.09
3/22/2021 4:15:00 PM 6.24 43.232 0.044 7.68 58.7 12.08
3/22/2021 4:30:00 PM 6.22 43.196 0.044 7.68 45.86 12.08
3/22/2021 4:45:00 PM 6.19 43.142 0.044 7.67 57.36 12.08
3/22/2021 5:00:00 PM 6.17 43.106 0.044 7.64 56.28 12.08
3/22/2021 5:15:00 PM 6.14 43.052 0.044 7.67 48.82 12.08
3/22/2021 5:30:00 PM 6.12 43.016 0.044 7.67 45.85 12.08
3/22/2021 5:45:00 PM 6.09 42.962 0.044 7.52 61.99 12.09
3/22/2021 6:00:00 PM 6.06 42.908 0.044 7.65 49.75 12.09
3/22/2021 6:15:00 PM 6.03 42.854 0.044 7.64 43.87 12.1
3/22/2021 6:30:00 PM 5.98 42.764 0.044 7.65 40.03 12.11
3/22/2021 6:45:00 PM 5.92 42.656 0.044 7.64 38.77 12.13
3/22/2021 7:00:00 PM 5.85 42.53 0.044 7.63 37.79 12.14
3/22/2021 7:15:00 PM 5.77 42.386 0.044 7.62 63.52 12.16
3/22/2021 7:30:00 PM 5.69 42.242 0.044 7.6 51.98 12.18
3/22/2021 7:45:00 PM 5.6 42.08 0.044 7.62 54.4 12.2
3/22/2021 8:00:00 PM 5.52 41.936 0.044 7.62 57.88 12.23
3/22/2021 8:15:00 PM 5.43 41.774 0.044 7.62 55.77 12.25
3/22/2021 8:30:00 PM 5.33 41.594 0.044 7.5 60.27 12.28
3/22/2021 8:45:00 PM 5.24 41.432 0.045 7.61 82.56 12.31
3/22/2021 9:00:00 PM 5.15 41.27 0.045 7.53 69.07 12.35
3/22/2021 9:15:00 PM 5.06 41.108 0.045 7.61 46.44 12.37
3/22/2021 9:30:00 PM 4.97 40.946 0.045 7.62 64.07 12.4
3/22/2021 9:45:00 PM 4.88 40.784 0.045 7.62 48.63 12.43
3/22/2021 10:00:00 PM 4.79 40.622 0.045 7.59 52.59 12.46
3/22/2021 10:15:00 PM 4.71 40.478 0.045 7.59 55.53 12.49
3/22/2021 10:30:00 PM 4.62 40.316 0.045 7.48 37.82 12.52
3/22/2021 10:45:00 PM 4.54 40.172 0.045 7.59 41.96 12.55
3/22/2021 11:00:00 PM 4.47 40.046 0.045 7.61 48.97 12.57
3/22/2021 11:15:00 PM 4.39 39.902 0.045 7.6 60.7 12.6
3/22/2021 11:30:00 PM 4.32 39.776 0.045 7.61 61.15 12.62
3/22/2021 11:45:00 PM 4.25 39.65 0.045 7.59 43.58 12.65
3/23/2021 12:00:00 AM 4.18 39.524 0.045 7.55 39.15 12.68
3/23/2021 12:15:00 AM 4.11 39.398 0.045 7.59 30.51 12.7
3/23/2021 12:30:00 AM 4.05 39.29 0.045 7.6 68.62 12.72
3/23/2021 12:45:00 AM 3.98 39.164 0.045 7.6 39.37 12.74
3/23/2021 1:00:00 AM 3.92 39.056 0.045 7.59 43.01 12.76
3/23/2021 1:15:00 AM 3.86 38.948 0.045 7.59 43.33 12.78
3/23/2021 1:30:00 AM 3.8 38.84 0.045 7.59 43.39 12.8
3/23/2021 1:45:00 AM 3.75 38.75 0.045 7.58 31.6 12.82
3/23/2021 2:00:00 AM 3.69 38.642 0.045 7.59 34.55 12.83
3/23/2021 2:15:00 AM 3.64 38.552 0.045 7.44 45.3 12.86
3/23/2021 2:30:00 AM 3.59 38.462 0.045 7.56 55.7 12.87
3/23/2021 2:45:00 AM 3.54 38.372 0.045 7.59 48.68 12.9
3/23/2021 3:00:00 AM 3.5 38.3 0.045 7.58 38.07 12.91
3/23/2021 3:15:00 AM 3.45 38.21 0.045 7.59 37.06 12.92
3/23/2021 3:30:00 AM 3.41 38.138 0.045 7.58 47.57 12.94
3/23/2021 3:45:00 AM 3.37 38.066 0.045 7.58 33.28 12.95
3/23/2021 4:00:00 AM 3.33 37.994 0.045 7.58 47.99 12.96
3/23/2021 4:15:00 AM 3.29 37.922 0.045 7.57 43.5 12.98
3/23/2021 4:30:00 AM 3.25 37.85 0.045 7.52 54.5 12.99
3/23/2021 4:45:00 AM 3.21 37.778 0.045 7.53 32.52 13
3/23/2021 5:00:00 AM 3.17 37.706 0.045 7.48 35.01 13.01
3/23/2021 5:15:00 AM 3.13 37.634 0.045 7.58 43.11 13.03
3/23/2021 5:30:00 AM 3.09 37.562 0.045 7.58 35.02 13.05
3/23/2021 5:45:00 AM 3.06 37.508 0.045 7.58 45.79 13.06
3/23/2021 6:00:00 AM 3.02 37.436 0.045 7.58 28.64 13.07
3/23/2021 6:15:00 AM 2.99 37.382 0.045 7.57 37.63 13.08
3/23/2021 6:30:00 AM 2.95 37.31 0.045 7.57 31.95 13.1
3/23/2021 6:45:00 AM 2.92 37.256 0.045 7.56 42.43 13.11
3/23/2021 7:00:00 AM 2.89 37.202 0.045 7.47 51.2 13.13
3/23/2021 7:15:00 AM 2.85 37.13 0.045 7.51 60.17 13.14
3/23/2021 7:30:00 AM 2.83 37.094 0.045 7.57 32.2 13.16
3/23/2021 7:45:00 AM 2.82 37.076 0.045 7.58 37.53 13.18
3/23/2021 8:00:00 AM 2.84 37.112 0.045 7.58 38.87 13.19
3/23/2021 8:15:00 AM 2.86 37.148 0.045 7.49 35.13 13.2
3/23/2021 8:30:00 AM 2.9 37.22 0.045 7.6 35.2 13.2
3/23/2021 8:45:00 AM 2.95 37.31 0.045 7.59 36.95 13.2
3/23/2021 9:00:00 AM 3.01 37.418 0.045 7.6 51.7 13.19
3/23/2021 9:15:00 AM 3.08 37.544 0.045 7.61 39.05 13.17
3/23/2021 9:30:00 AM 3.17 37.706 0.045 7.61 40.08 13.15
3/23/2021 9:45:00 AM 3.29 37.922 0.045 7.52 25.51 13.12
3/23/2021 10:00:00 AM 3.43 38.174 0.045 7.61 41.3 13.08
3/23/2021 10:15:00 AM 3.57 38.426 0.045 7.62 38.93 13.04
3/23/2021 10:30:00 AM 3.73 38.714 0.045 7.63 36.54 12.99
3/23/2021 10:45:00 AM 3.92 39.056 0.045 7.63 31.02 12.92
3/23/2021 11:00:00 AM 4.09 39.362 0.044 7.53 38.98 12.86
3/23/2021 11:15:00 AM 4.28 39.704 0.044 7.64 43.84 12.81
3/23/2021 11:30:00 AM 4.48 40.064 0.044 7.57 39.41 12.74
3/23/2021 11:45:00 AM 4.7 40.46 0.044 7.66 50.5 12.67
3/23/2021 12:00:00 PM 4.91 40.838 0.044 7.66 44.25 12.6
3/23/2021 12:15:00 PM 5.1 41.18 0.044 7.56 44.15 12.53
3/23/2021 12:30:00 PM 5.27 41.486 0.044 7.68 50.27 12.47
3/23/2021 12:45:00 PM 5.43 41.774 0.044 7.68 39.86 12.42
3/23/2021 1:00:00 PM 5.65 42.17 0.044 7.7 45.15 12.35
3/23/2021 1:15:00 PM 5.82 42.476 0.044 7.71 69.73 12.28
3/23/2021 1:30:00 PM 5.9 42.62 0.044 7.71 40.73 12.25
3/23/2021 1:45:00 PM 6.08 42.944 0.044 7.64 49.41 12.19
3/23/2021 2:00:00 PM 6.19 43.142 0.044 7.72 52.48 12.15
3/23/2021 2:15:00 PM 6.34 43.412 0.044 7.72 42.55 12.1
3/23/2021 2:30:00 PM 6.38 43.484 0.044 7.73 36.12 12.07
3/23/2021 2:45:00 PM 6.47 43.646 0.044 7.73 64.74 12.05
3/23/2021 3:00:00 PM 6.53 43.754 0.044 7.62 46.44 12.01
3/23/2021 3:15:00 PM 6.57 43.826 0.044 7.74 48.96 12
3/23/2021 3:30:00 PM 6.64 43.952 0.044 7.73 67.56 11.98
3/23/2021 3:45:00 PM 6.69 44.042 0.044 7.75 49.61 11.96
3/23/2021 4:00:00 PM 6.69 44.042 0.044 7.62 37.89 11.95
3/23/2021 4:15:00 PM 6.69 44.042 0.044 7.7 47.28 11.94
3/23/2021 4:30:00 PM 6.7 44.06 0.044 7.73 57.83 11.94
3/23/2021 4:45:00 PM 6.74 44.132 0.044 7.74 45.85 11.93
3/23/2021 5:00:00 PM 6.73 44.114 0.044 7.73 67.45 11.91
3/23/2021 5:15:00 PM 6.74 44.132 0.044 7.73 49.54 11.91
3/23/2021 5:30:00 PM 6.75 44.15 0.044 7.6 51.89 11.91
3/23/2021 5:45:00 PM 6.77 44.186 0.044 7.65 61.4 11.9
3/23/2021 6:00:00 PM 6.73 44.114 0.044 7.73 47.94 11.89
3/23/2021 6:15:00 PM 6.69 44.042 0.044 7.73 59.79 11.89
3/23/2021 6:30:00 PM 6.68 44.024 0.044 7.73 64.84 11.9
3/23/2021 6:45:00 PM 6.65 43.97 0.044 7.72 38.99 11.9
3/23/2021 7:00:00 PM 6.59 43.862 0.044 7.68 57.02 11.9
3/23/2021 7:15:00 PM 6.52 43.736 0.044 7.7 58.73 11.91
3/23/2021 7:30:00 PM 6.46 43.628 0.044 7.7 49.12 11.92
3/23/2021 7:45:00 PM 6.4 43.52 0.044 7.65 57.38 11.93
3/23/2021 8:00:00 PM 6.34 43.412 0.044 7.66 51.64 11.95
3/23/2021 8:15:00 PM 6.28 43.304 0.044 7.67 64.18 11.96
3/23/2021 8:30:00 PM 6.22 43.196 0.045 7.69 41.06 11.98
3/23/2021 8:45:00 PM 6.16 43.088 0.045 7.69 69.61 12
3/23/2021 9:00:00 PM 6.1 42.98 0.045 7.57 66.85 12.03
3/23/2021 9:15:00 PM 6.04 42.872 0.045 7.66 42.89 12.04
3/23/2021 9:30:00 PM 5.98 42.764 0.045 7.6 49.29 12.06
3/23/2021 9:45:00 PM 5.9 42.62 0.045 7.65 50.6 12.08
3/23/2021 10:00:00 PM 5.82 42.476 0.045 7.67 66.4 12.1
3/23/2021 10:15:00 PM 5.74 42.332 0.045 7.66 52.88 12.13
3/23/2021 10:30:00 PM 5.67 42.206 0.045 7.66 45.47 12.15
3/23/2021 10:45:00 PM 5.61 42.098 0.045 7.67 57.77 12.16
3/23/2021 11:00:00 PM 5.54 41.972 0.045 7.64 41.45 12.19
3/23/2021 11:15:00 PM 5.47 41.846 0.045 7.67 56.6 12.21
3/23/2021 11:30:00 PM 5.4 41.72 0.045 7.65 49.04 12.23
3/23/2021 11:45:00 PM 5.34 41.612 0.045 7.64 57.2 12.25
3/24/2021 12:00:00 AM 5.28 41.504 0.045 7.63 42.66 12.27
3/24/2021 12:15:00 AM 5.22 41.396 0.045 7.66 56.19 12.29
3/24/2021 12:30:00 AM 5.17 41.306 0.045 7.65 34.83 12.31
3/24/2021 12:45:00 AM 5.13 41.234 0.045 7.66 40.47 12.32
3/24/2021 1:00:00 AM 5.09 41.162 0.045 7.64 38.03 12.33
3/24/2021 1:15:00 AM 5.04 41.072 0.045 7.63 31.35 12.35
3/24/2021 1:30:00 AM 5.01 41.018 0.045 7.63 36.77 12.36
3/24/2021 1:45:00 AM 4.98 40.964 0.045 7.53 48.61 12.37
3/24/2021 2:00:00 AM 4.96 40.928 0.045 7.54 46.55 12.38
3/24/2021 2:15:00 AM 4.94 40.892 0.045 7.64 45.39 12.38
3/24/2021 2:30:00 AM 4.91 40.838 0.045 7.62 37.54 12.39
3/24/2021 2:45:00 AM 4.89 40.802 0.045 7.64 41.08 12.39
3/24/2021 3:00:00 AM 4.88 40.784 0.045 7.64 40.75 12.4
3/24/2021 3:15:00 AM 4.88 40.784 0.045 7.63 44.97 12.39
3/24/2021 3:30:00 AM 4.88 40.784 0.045 7.64 60.5 12.4
3/24/2021 3:45:00 AM 4.88 40.784 0.045 7.48 52.96 12.4
3/24/2021 4:00:00 AM 4.88 40.784 0.045 7.62 49.99 12.4
3/24/2021 4:15:00 AM 4.88 40.784 0.045 7.61 50.36 12.4
3/24/2021 4:30:00 AM 4.89 40.802 0.045 7.62 45.59 12.4
3/24/2021 4:45:00 AM 4.91 40.838 0.045 7.61 58.11 12.39
3/24/2021 5:00:00 AM 4.93 40.874 0.045 7.6 43.42 12.38
3/24/2021 5:15:00 AM 4.94 40.892 0.045 7.61 43.96 12.37
3/24/2021 5:30:00 AM 4.96 40.928 0.045 7.61 60.72 12.37
3/24/2021 5:45:00 AM 4.98 40.964 0.045 7.62 37.57 12.35
3/24/2021 6:00:00 AM 5.01 41.018 0.045 7.61 37.03 12.35
3/24/2021 6:15:00 AM 5.03 41.054 0.045 7.61 60.36 12.35
3/24/2021 6:30:00 AM 5.05 41.09 0.045 7.6 56.46 12.34
3/24/2021 6:45:00 AM 5.07 41.126 0.045 7.62 45.08 12.33
3/24/2021 7:00:00 AM 5.09 41.162 0.044 7.61 47.53 12.33
3/24/2021 7:15:00 AM 5.11 41.198 0.044 7.61 43.11 12.32
3/24/2021 7:30:00 AM 5.12 41.216 0.044 7.61 42.5 12.32
3/24/2021 7:45:00 AM 5.14 41.252 0.044 7.61 47.14 12.31
3/24/2021 8:00:00 AM 5.15 41.27 0.044 7.59 56.21 12.31
3/24/2021 8:15:00 AM 5.16 41.288 0.044 7.62 49.98 12.31
3/24/2021 8:30:00 AM 5.18 41.324 0.044 7.62 39.58 12.31
3/24/2021 8:45:00 AM 5.2 41.36 0.044 7.49 54.56 12.3
3/24/2021 9:00:00 AM 5.22 41.396 0.044 7.62 48.11 12.3
3/24/2021 9:15:00 AM 5.24 41.432 0.044 7.62 56.74 12.3
3/24/2021 9:30:00 AM 5.28 41.504 0.044 7.63 61.66 12.29
3/24/2021 9:45:00 AM 5.34 41.612 0.045 7.6 58.64 12.28
3/24/2021 10:00:00 AM 5.38 41.684 0.049 7.78 158.65 12.27
3/24/2021 10:15:00 AM 5.41 41.738 0.055 7.9 217.25 12.25
3/24/2021 10:30:00 AM 5.45 41.81 0.056 7.95 170.71 12.24
3/24/2021 10:45:00 AM 5.48 41.864 0.05 7.81 149.86 12.24
3/24/2021 11:00:00 AM 5.51 41.918 0.048 7.74 153.47 12.23
3/24/2021 11:15:00 AM 5.53 41.954 0.046 7.71 144.96 12.22
3/24/2021 11:30:00 AM 5.55 41.99 0.047 7.72 95.42 12.21
3/24/2021 11:45:00 AM 5.58 42.044 0.049 7.74 99.27 12.21
3/24/2021 12:00:00 PM 5.61 42.098 0.051 7.79 94.33 12.21
3/24/2021 12:15:00 PM 5.63 42.134 0.052 7.8 80.99 12.2
3/24/2021 12:30:00 PM 5.65 42.17 0.053 7.7 95 12.19
3/24/2021 12:45:00 PM 5.67 42.206 0.052 7.81 83.97 12.18
3/24/2021 1:00:00 PM 5.69 42.242 0.051 7.81 97.38 12.17
3/24/2021 1:15:00 PM 5.75 42.35 0.05 7.81 98.45 12.17
3/24/2021 1:30:00 PM 5.82 42.476 0.049 7.8 84.5 12.15
3/24/2021 1:45:00 PM 5.9 42.62 0.048 7.66 87.16 12.13
3/24/2021 2:00:00 PM 5.94 42.692 0.048 7.78 69.78 12.11
3/24/2021 2:15:00 PM 5.98 42.764 0.047 7.79 80.27 12.09
3/24/2021 2:30:00 PM 6 42.8 0.047 7.77 94.23 12.07
3/24/2021 2:45:00 PM 6.04 42.872 0.047 7.64 82.53 12.06
3/24/2021 3:00:00 PM 6.07 42.926 0.046 7.77 96.62 12.05
3/24/2021 3:15:00 PM 6.1 42.98 0.046 7.64 90.04 12.04
3/24/2021 3:30:00 PM 6.15 43.07 0.046 7.72 83.27 12.02
3/24/2021 3:45:00 PM 6.19 43.142 0.046 7.75 62.93 12.01
3/24/2021 4:00:00 PM 6.25 43.25 0.045 7.75 82.47 11.99
3/24/2021 4:15:00 PM 6.3 43.34 0.045 7.76 79.11 11.98
3/24/2021 4:30:00 PM 6.32 43.376 0.045 7.75 76.53 11.97
3/24/2021 4:45:00 PM 6.34 43.412 0.045 7.74 97.89 11.95
3/24/2021 5:00:00 PM 6.35 43.43 0.045 7.8 72.04 11.94
3/24/2021 5:15:00 PM 6.34 43.412 0.045 7.78 88.23 11.94
3/24/2021 5:30:00 PM 6.36 43.448 0.045 7.65 61.43 11.92
3/24/2021 5:45:00 PM 6.36 43.448 0.045 7.75 67.86 11.92
3/24/2021 6:00:00 PM 6.37 43.466 0.044 7.77 65.83 11.92
3/24/2021 6:15:00 PM 6.37 43.466 0.044 7.73 66.13 11.92
3/24/2021 6:30:00 PM 6.36 43.448 0.044 7.73 81.66 11.91
3/24/2021 6:45:00 PM 6.37 43.466 0.044 7.73 64.05 11.91
3/24/2021 7:00:00 PM 6.38 43.484 0.044 7.72 75.38 11.9
3/24/2021 7:15:00 PM 6.38 43.484 0.044 7.6 88.75 11.89
3/24/2021 7:30:00 PM 6.39 43.502 0.044 7.72 72.44 11.89
3/24/2021 7:45:00 PM 6.4 43.52 0.044 7.71 65.53 11.88
3/24/2021 8:00:00 PM 6.39 43.502 0.044 7.72 64.05 11.88
3/24/2021 8:15:00 PM 6.38 43.484 0.044 7.71 73.1 11.88
3/24/2021 8:30:00 PM 6.37 43.466 0.044 7.71 81.58 11.89
3/24/2021 8:45:00 PM 6.36 43.448 0.044 7.7 104.42 11.89
3/24/2021 9:00:00 PM 6.35 43.43 0.044 7.7 49.06 11.9
3/24/2021 9:15:00 PM 6.35 43.43 0.044 7.71 57.48 11.9
3/24/2021 9:30:00 PM 6.34 43.412 0.044 7.7 78.19 11.9
3/24/2021 9:45:00 PM 6.32 43.376 0.044 7.7 50.72 11.9
3/24/2021 10:00:00 PM 6.31 43.358 0.044 7.69 86.68 11.91
3/24/2021 10:15:00 PM 6.29 43.322 0.044 7.6 79.16 11.92
3/24/2021 10:30:00 PM 6.26 43.268 0.044 7.6 83.13 11.92
3/24/2021 10:45:00 PM 6.24 43.232 0.044 7.67 74.48 11.93
3/24/2021 11:00:00 PM 6.22 43.196 0.044 7.69 73.28 11.94
3/24/2021 11:15:00 PM 6.21 43.178 0.044 7.67 73.15 11.94
3/24/2021 11:30:00 PM 6.21 43.178 0.044 7.68 73.85 11.94
3/24/2021 11:45:00 PM 6.19 43.142 0.044 7.68 67 11.95
3/25/2021 12:00:00 AM 6.18 43.124 0.044 7.55 57.2 11.95
3/25/2021 12:15:00 AM 6.19 43.142 0.044 7.69 65.62 11.95
3/25/2021 12:30:00 AM 6.19 43.142 0.043 7.58 57.04 11.95
3/25/2021 12:45:00 AM 6.19 43.142 0.043 7.68 62.05 11.95
3/25/2021 1:00:00 AM 6.19 43.142 0.043 7.69 67.96 11.95
3/25/2021 1:15:00 AM 6.21 43.178 0.043 7.66 62.28 11.94
3/25/2021 1:30:00 AM 6.24 43.232 0.043 7.69 92.61 11.93
3/25/2021 1:45:00 AM 6.26 43.268 0.043 7.7 86.15 11.93
3/25/2021 2:00:00 AM 6.28 43.304 0.043 7.68 57.14 11.92
3/25/2021 2:15:00 AM 6.31 43.358 0.043 7.7 79.76 11.91
3/25/2021 2:30:00 AM 6.33 43.394 0.043 7.7 78.8 11.91
3/25/2021 2:45:00 AM 6.33 43.394 0.043 7.57 67.17 11.9
3/25/2021 3:00:00 AM 6.35 43.43 0.043 7.7 73.71 11.9
3/25/2021 3:15:00 AM 6.36 43.448 0.043 7.7 59.72 11.89
3/25/2021 3:30:00 AM 6.36 43.448 0.043 7.69 72.42 11.89
3/25/2021 3:45:00 AM 6.36 43.448 0.043 7.69 69.06 11.89
3/25/2021 4:00:00 AM 6.37 43.466 0.043 7.68 58.09 11.89
3/25/2021 4:15:00 AM 6.36 43.448 0.043 7.69 103.73 11.89
3/25/2021 4:30:00 AM 6.36 43.448 0.043 7.67 69.34 11.9
3/25/2021 4:45:00 AM 6.35 43.43 0.043 7.69 60.65 11.9
3/25/2021 5:00:00 AM 6.34 43.412 0.043 7.69 75.2 11.9
3/25/2021 5:15:00 AM 6.33 43.394 0.043 7.69 50.69 11.91
3/25/2021 5:30:00 AM 6.33 43.394 0.043 7.62 61.13 11.91
3/25/2021 5:45:00 AM 6.34 43.412 0.043 7.62 48.2 11.91
3/25/2021 6:00:00 AM 6.34 43.412 0.043 7.6 85.62 11.91
3/25/2021 6:15:00 AM 6.34 43.412 0.043 7.7 76.83 11.91
3/25/2021 6:30:00 AM 6.35 43.43 0.043 7.68 59.37 11.91
3/25/2021 6:45:00 AM 6.35 43.43 0.043 7.7 85.64 11.91
3/25/2021 7:00:00 AM 6.36 43.448 0.043 7.7 57.8 11.91
3/25/2021 7:15:00 AM 6.36 43.448 0.043 7.69 71.37 11.92
3/25/2021 7:30:00 AM 6.36 43.448 0.043 7.59 59.81 11.92
3/25/2021 7:45:00 AM 6.37 43.466 0.043 7.7 57.61 11.93
3/25/2021 8:00:00 AM 6.39 43.502 0.043 7.71 58.76 11.93
3/25/2021 8:15:00 AM 6.4 43.52 0.043 7.72 65.16 11.94
3/25/2021 8:30:00 AM 6.43 43.574 0.043 7.69 63.69 11.93
3/25/2021 8:45:00 AM 6.44 43.592 0.043 7.69 78.92 11.94
3/25/2021 9:00:00 AM 6.44 43.592 0.043 7.7 59.95 11.94
3/25/2021 9:15:00 AM 6.49 43.682 0.043 7.61 81.87 11.94
3/25/2021 9:30:00 AM 6.52 43.736 0.043 7.72 60.82 11.93
3/25/2021 9:45:00 AM 6.57 43.826 0.043 7.75 51.07 11.93
3/25/2021 10:00:00 AM 6.62 43.916 0.043 7.72 70.27 11.92
3/25/2021 10:15:00 AM 6.64 43.952 0.043 7.72 54.74 11.91
3/25/2021 10:30:00 AM 6.8 44.24 0.042 7.64 60.6 11.9
3/25/2021 10:45:00 AM 6.93 44.474 0.042 7.75 55.19 11.86
3/25/2021 11:00:00 AM 7.04 44.672 0.042 7.76 80.47 11.84
3/25/2021 11:15:00 AM 7.17 44.906 0.042 7.76 55.01 11.8
3/25/2021 11:30:00 AM 7.34 45.212 0.042 7.77 55.49 11.76
3/25/2021 11:45:00 AM 7.51 45.518 0.042 7.75 63.08 11.71
3/25/2021 12:00:00 PM 7.66 45.788 0.042 7.78 56.51 11.67
3/25/2021 12:15:00 PM 7.81 46.058 0.042 7.78 55.09 11.63
3/25/2021 12:30:00 PM 7.94 46.292 0.042 7.79 54.8 11.59
3/25/2021 12:45:00 PM 8.08 46.544 0.042 7.83 60.52 11.55
3/25/2021 1:00:00 PM 8.25 46.85 0.042 7.82 51.57 11.5
3/25/2021 1:15:00 PM 8.39 47.102 0.042 7.8 64.54 11.45
3/25/2021 1:30:00 PM 8.57 47.426 0.042 7.82 64.04 11.4
3/25/2021 1:45:00 PM 8.68 47.624 0.042 7.82 61.96 11.36
3/25/2021 2:00:00 PM 8.77 47.786 0.042 7.78 54.23 11.32
3/25/2021 2:15:00 PM 8.84 47.912 0.042 7.81 58.69 11.29
3/25/2021 2:30:00 PM 8.92 48.056 0.042 7.82 46.62 11.27
3/25/2021 2:45:00 PM 8.98 48.164 0.042 7.82 44.05 11.25
3/25/2021 3:00:00 PM 9.06 48.308 0.042 7.82 71.22 11.22
3/25/2021 3:15:00 PM 9.13 48.434 0.042 7.71 64.66 11.21
3/25/2021 3:30:00 PM 9.14 48.452 0.042 7.83 40.9 11.2
3/25/2021 3:45:00 PM 9.16 48.488 0.042 7.82 62.67 11.19
3/25/2021 4:00:00 PM 9.15 48.47 0.042 7.69 56.93 11.19
3/25/2021 4:15:00 PM 9.14 48.452 0.042 7.83 56.63 11.19
3/25/2021 4:30:00 PM 9.13 48.434 0.042 7.83 52.06 11.18
3/25/2021 4:45:00 PM 9.13 48.434 0.042 7.81 54.33 11.18
3/25/2021 5:00:00 PM 9.12 48.416 0.042 7.82 54.05 11.18
3/25/2021 5:15:00 PM 9.11 48.398 0.042 7.82 64.9 11.17
3/25/2021 5:30:00 PM 9.09 48.362 0.042 7.77 139.32 11.15
3/25/2021 5:45:00 PM 9.05 48.29 0.042 7.71 101.69 11.15
3/25/2021 6:00:00 PM 9 48.2 0.042 7.79 54.65 11.17
3/25/2021 6:15:00 PM 8.93 48.074 0.042 7.8 64.07 11.17
3/25/2021 6:30:00 PM 8.86 47.948 0.043 7.65 60.55 11.19
3/25/2021 6:45:00 PM 8.79 47.822 0.043 7.77 62.31 11.19
3/25/2021 7:00:00 PM 8.73 47.714 0.043 7.76 70.39 11.2
3/25/2021 7:15:00 PM 8.66 47.588 0.043 7.64 69.97 11.21
3/25/2021 7:30:00 PM 8.59 47.462 0.043 7.76 67.46 11.22
3/25/2021 7:45:00 PM 8.53 47.354 0.043 7.75 81.72 11.24
3/25/2021 8:00:00 PM 8.46 47.228 0.043 7.74 68.78 11.26
3/25/2021 8:15:00 PM 8.4 47.12 0.043 7.74 67.38 11.27
3/25/2021 8:30:00 PM 8.36 47.048 0.043 7.76 72.86 11.28
3/25/2021 8:45:00 PM 8.3 46.94 0.043 7.76 58.56 11.29
3/25/2021 9:00:00 PM 8.25 46.85 0.043 7.66 55.12 11.31
3/25/2021 9:15:00 PM 8.2 46.76 0.043 7.7 69.24 11.32
3/25/2021 9:30:00 PM 8.16 46.688 0.043 7.76 48.13 11.34
3/25/2021 9:45:00 PM 8.13 46.634 0.043 7.77 53.53 11.35
3/25/2021 10:00:00 PM 8.1 46.58 0.043 7.77 66.38 11.35
3/25/2021 10:15:00 PM 8.08 46.544 0.043 7.77 57.68 11.35
3/25/2021 10:30:00 PM 8.04 46.472 0.043 7.72 69.97 11.36
3/25/2021 10:45:00 PM 8.03 46.454 0.043 7.76 49.66 11.36
3/25/2021 11:00:00 PM 7.99 46.382 0.043 7.76 62.93 11.37
3/25/2021 11:15:00 PM 7.99 46.382 0.043 7.65 55.8 11.37
3/25/2021 11:30:00 PM 7.97 46.346 0.043 7.7 60.04 11.37
3/25/2021 11:45:00 PM 7.95 46.31 0.043 7.76 54.99 11.37
3/26/2021 12:00:00 AM 7.94 46.292 0.043 7.73 49.38 11.38
3/26/2021 12:15:00 AM 7.93 46.274 0.043 7.75 71.62 11.37
3/26/2021 12:30:00 AM 7.89 46.202 0.043 7.74 58.18 11.38
3/26/2021 12:45:00 AM 7.86 46.148 0.043 7.74 55.78 11.39
3/26/2021 1:00:00 AM 7.83 46.094 0.043 7.73 57.94 11.4
3/26/2021 1:15:00 AM 7.81 46.058 0.043 7.74 87.54 11.4
3/26/2021 1:30:00 AM 7.78 46.004 0.043 7.74 49.28 11.4
3/26/2021 1:45:00 AM 7.78 46.004 0.043 7.74 56.97 11.4
3/26/2021 2:00:00 AM 7.77 45.986 0.043 7.65 51.33 11.4
3/26/2021 2:15:00 AM 7.77 45.986 0.044 7.74 70.1 11.4
3/26/2021 2:30:00 AM 7.76 45.968 0.044 7.74 57.14 11.4
3/26/2021 2:45:00 AM 7.75 45.95 0.044 7.74 75.15 11.4
3/26/2021 3:00:00 AM 7.75 45.95 0.044 7.75 52.9 11.39
3/26/2021 3:15:00 AM 7.74 45.932 0.044 7.75 58.77 11.39
3/26/2021 3:30:00 AM 7.74 45.932 0.044 7.75 53.96 11.39
3/26/2021 3:45:00 AM 7.75 45.95 0.044 7.76 64.29 11.39
3/26/2021 4:00:00 AM 7.82 46.076 0.044 7.63 51.61 11.36
3/26/2021 4:15:00 AM 7.84 46.112 0.044 7.77 53.62 11.35
3/26/2021 4:30:00 AM 7.85 46.13 0.044 7.75 61.35 11.33
3/26/2021 4:45:00 AM 7.86 46.148 0.044 7.74 51.83 11.32
3/26/2021 5:00:00 AM 7.85 46.13 0.044 7.74 57.05 11.32
3/26/2021 5:15:00 AM 7.82 46.076 0.044 7.62 79.2 11.33
3/26/2021 5:30:00 AM 7.8 46.04 0.044 7.73 55.7 11.33
3/26/2021 5:45:00 AM 7.8 46.04 0.044 7.63 59.41 11.33
3/26/2021 6:00:00 AM 7.82 46.076 0.044 7.74 60.2 11.32
3/26/2021 6:15:00 AM 7.84 46.112 0.044 7.74 62.37 11.32
3/26/2021 6:30:00 AM 7.86 46.148 0.044 7.74 59.09 11.31
3/26/2021 6:45:00 AM 7.85 46.13 0.044 7.67 51.57 11.31
3/26/2021 7:00:00 AM 7.86 46.148 0.044 7.74 41.96 11.31
3/26/2021 7:15:00 AM 7.86 46.148 0.044 7.71 49.56 11.32
3/26/2021 7:30:00 AM 7.93 46.274 0.043 7.74 46.96 11.3
3/26/2021 7:45:00 AM 7.93 46.274 0.044 7.76 52.79 11.3
3/26/2021 8:00:00 AM 7.98 46.364 0.044 7.76 55.69 11.31
3/26/2021 8:15:00 AM 8.03 46.454 0.045 7.79 54.84 11.31
3/26/2021 8:30:00 AM 8.1 46.58 0.045 7.81 77.71 11.29
3/26/2021 8:45:00 AM 8.15 46.67 0.045 7.81 74.28 11.27
3/26/2021 9:00:00 AM 8.27 46.886 0.044 7.7 74.95 11.26
3/26/2021 9:15:00 AM 8.41 47.138 0.044 7.73 58.2 11.23
3/26/2021 9:30:00 AM 8.43 47.174 0.044 7.75 48.92 11.22
3/26/2021 9:45:00 AM 8.57 47.426 0.044 7.82 55.39 11.2
3/26/2021 10:00:00 AM 8.72 47.696 0.044 7.84 59.11 11.17
3/26/2021 10:15:00 AM 8.78 47.804 0.045 7.86 67.69 11.14
3/26/2021 10:30:00 AM 8.9 48.02 0.047 7.89 44.23 11.13
3/26/2021 10:45:00 AM 8.85 47.93 0.047 7.89 47.86 11.11
3/26/2021 11:00:00 AM 8.81 47.858 0.046 7.89 59 11.12
3/26/2021 11:15:00 AM 8.79 47.822 0.046 7.87 48.85 11.11
3/26/2021 11:30:00 AM 8.84 47.912 0.045 7.88 64.44 11.13
3/26/2021 11:45:00 AM 8.92 48.056 0.045 7.87 58.42 11.13
3/26/2021 12:00:00 PM 9.02 48.236 0.045 7.94 48.3 11.1
3/26/2021 12:15:00 PM 8.98 48.164 0.045 7.79 53.59 11.1
3/26/2021 12:30:00 PM 8.93 48.074 0.044 7.86 68.27 11.11
3/26/2021 12:45:00 PM 8.91 48.038 0.044 7.85 54.88 11.12
3/26/2021 1:00:00 PM 8.98 48.164 0.044 7.92 49.7 11.13
3/26/2021 1:15:00 PM 9.08 48.344 0.044 7.91 48.58 11.1
3/26/2021 1:30:00 PM 9.18 48.524 0.044 7.92 64.34 11.09
3/26/2021 1:45:00 PM 9.19 48.542 0.044 7.91 55.22 11.08
3/26/2021 2:00:00 PM 9.14 48.452 0.044 7.9 45.47 11.09
3/26/2021 2:15:00 PM 9.12 48.416 0.044 7.91 59.55 11.09
3/26/2021 2:30:00 PM 9.11 48.398 0.044 7.89 56.76 11.09
3/26/2021 2:45:00 PM 9.13 48.434 0.044 7.89 54.6 11.1
3/26/2021 3:00:00 PM 9.14 48.452 0.044 7.87 51.79 11.11
3/26/2021 3:15:00 PM 9.09 48.362 0.044 7.88 54.03 11.13
3/26/2021 3:30:00 PM 9.02 48.236 0.043 7.89 49.67 11.14
3/26/2021 3:45:00 PM 9.01 48.218 0.043 7.9 45.72 11.16
3/26/2021 4:00:00 PM 8.91 48.038 0.043 7.9 42.3 11.18
3/26/2021 4:15:00 PM 8.81 47.858 0.043 7.88 51.2 11.2
3/26/2021 4:30:00 PM 8.76 47.768 0.043 7.91 42.6 11.23
3/26/2021 4:45:00 PM 8.7 47.66 0.043 7.88 45.86 11.24
3/26/2021 5:00:00 PM 8.62 47.516 0.043 7.89 55.14 11.26
3/26/2021 5:15:00 PM 8.59 47.462 0.043 7.88 45.46 11.29
3/26/2021 5:30:00 PM 8.53 47.354 0.044 7.88 47.1 11.3
3/26/2021 5:45:00 PM 8.46 47.228 0.044 7.87 42.43 11.31
3/26/2021 6:00:00 PM 8.4 47.12 0.044 7.88 42.3 11.32
3/26/2021 6:15:00 PM 8.33 46.994 0.044 7.87 40.75 11.33
3/26/2021 6:30:00 PM 8.27 46.886 0.044 7.87 46.45 11.35
3/26/2021 6:45:00 PM 8.19 46.742 0.044 7.82 41.48 11.38
3/26/2021 7:00:00 PM 8.11 46.598 0.044 7.85 41.82 11.4
3/26/2021 7:15:00 PM 8.03 46.454 0.044 7.85 41.3 11.41
3/26/2021 7:30:00 PM 7.96 46.328 0.044 7.85 37.61 11.42
3/26/2021 7:45:00 PM 7.9 46.22 0.044 7.84 44.16 11.44
3/26/2021 8:00:00 PM 7.84 46.112 0.044 7.82 35.41 11.46
3/26/2021 8:15:00 PM 7.78 46.004 0.044 7.83 36.15 11.47
3/26/2021 8:30:00 PM 7.72 45.896 0.044 7.8 32.96 11.49
3/26/2021 8:45:00 PM 7.65 45.77 0.044 7.82 43.32 11.51
3/26/2021 9:00:00 PM 7.6 45.68 0.044 7.81 39.58 11.53
3/26/2021 9:15:00 PM 7.55 45.59 0.044 7.81 39 11.55
3/26/2021 9:30:00 PM 7.49 45.482 0.044 7.84 36.88 11.58
3/26/2021 9:45:00 PM 7.43 45.374 0.044 7.81 49.34 11.6
3/26/2021 10:00:00 PM 7.38 45.284 0.044 7.81 29.53 11.61
3/26/2021 10:15:00 PM 7.34 45.212 0.045 7.82 51.36 11.62
3/26/2021 10:30:00 PM 7.29 45.122 0.045 7.82 32.99 11.64
3/26/2021 10:45:00 PM 7.25 45.05 0.045 7.82 35.46 11.65
3/26/2021 11:00:00 PM 7.2 44.96 0.045 7.83 29.23 11.67
3/26/2021 11:15:00 PM 7.16 44.888 0.045 7.81 33.51 11.68
3/26/2021 11:30:00 PM 7.12 44.816 0.045 7.82 41.63 11.69
3/26/2021 11:45:00 PM 7.09 44.762 0.045 7.81 31.98 11.7
3/27/2021 12:00:00 AM 7.07 44.726 0.044 7.66 38.3 11.71
3/27/2021 12:15:00 AM 7.04 44.672 0.045 7.77 37.7 11.71
3/27/2021 12:30:00 AM 7.01 44.618 0.045 7.79 31.54 11.72
3/27/2021 12:45:00 AM 6.98 44.564 0.045 7.78 30.79 11.73
3/27/2021 1:00:00 AM 6.96 44.528 0.045 7.8 37.87 11.74
3/27/2021 1:15:00 AM 6.93 44.474 0.045 7.8 25.49 11.74
3/27/2021 1:30:00 AM 6.91 44.438 0.045 7.79 35.09 11.75
3/27/2021 1:45:00 AM 6.89 44.402 0.045 7.79 30.07 11.76
3/27/2021 2:00:00 AM 6.87 44.366 0.045 7.68 32 11.76
3/27/2021 2:15:00 AM 6.85 44.33 0.045 7.76 39.37 11.77
3/27/2021 2:30:00 AM 6.84 44.312 0.045 7.77 35.39 11.77
3/27/2021 2:45:00 AM 6.82 44.276 0.045 7.78 43.74 11.77
3/27/2021 3:00:00 AM 6.8 44.24 0.045 7.79 29.61 11.78
3/27/2021 3:15:00 AM 6.79 44.222 0.045 7.78 42.36 11.79
3/27/2021 3:30:00 AM 6.78 44.204 0.045 7.76 29.43 11.79
3/27/2021 3:45:00 AM 6.75 44.15 0.045 7.68 32.54 11.79
3/27/2021 4:00:00 AM 6.73 44.114 0.045 7.79 26.69 11.8
3/27/2021 4:15:00 AM 6.72 44.096 0.045 7.79 52.21 11.81
3/27/2021 4:30:00 AM 6.71 44.078 0.045 7.67 24.64 11.81
3/27/2021 4:45:00 AM 6.69 44.042 0.045 7.8 33.76 11.82
3/27/2021 5:00:00 AM 6.68 44.024 0.045 7.8 47.89 11.82
3/27/2021 5:15:00 AM 6.67 44.006 0.045 7.79 36.88 11.82
3/27/2021 5:30:00 AM 6.65 43.97 0.045 7.8 46.11 11.83
3/27/2021 5:45:00 AM 6.64 43.952 0.045 7.8 44.27 11.83
3/27/2021 6:00:00 AM 6.63 43.934 0.045 7.69 36.63 11.83
3/27/2021 6:15:00 AM 6.62 43.916 0.045 7.8 33.76 11.84
3/27/2021 6:30:00 AM 6.6 43.88 0.045 7.79 33.69 11.85
3/27/2021 6:45:00 AM 6.58 43.844 0.045 7.8 60.83 11.86
3/27/2021 7:00:00 AM 6.58 43.844 0.045 7.8 48.67 11.86
3/27/2021 7:15:00 AM 6.57 43.826 0.045 7.8 38.92 11.87
3/27/2021 7:30:00 AM 6.56 43.808 0.045 7.8 40.23 11.88
3/27/2021 7:45:00 AM 6.57 43.826 0.045 7.8 38.97 11.89
3/27/2021 8:00:00 AM 6.58 43.844 0.045 7.81 39.58 11.91
3/27/2021 8:15:00 AM 6.6 43.88 0.045 7.81 44.98 11.91
3/27/2021 8:30:00 AM 6.63 43.934 0.045 7.83 44.71 11.92
3/27/2021 8:45:00 AM 6.66 43.988 0.045 7.79 42.53 11.93
3/27/2021 9:00:00 AM 6.7 44.06 0.045 7.85 36.16 11.92
3/27/2021 9:15:00 AM 6.75 44.15 0.045 7.86 35.34 11.92
3/27/2021 9:30:00 AM 6.81 44.258 0.045 7.86 33.23 11.91
3/27/2021 9:45:00 AM 6.83 44.294 0.045 7.86 40.99 11.9
3/27/2021 10:00:00 AM 6.85 44.33 0.045 7.87 47.74 11.89
3/27/2021 10:15:00 AM 6.94 44.492 0.045 7.88 38.2 11.88
3/27/2021 10:30:00 AM 7.05 44.69 0.045 7.87 27.48 11.84
3/27/2021 10:45:00 AM 7.09 44.762 0.045 7.87 40.22 11.84
3/27/2021 11:00:00 AM 7.26 45.068 0.045 7.89 32.09 11.81
3/27/2021 11:15:00 AM 7.27 45.086 0.045 7.89 63.72 11.79
3/27/2021 11:30:00 AM 7.25 45.05 0.045 7.9 27.87 11.79
3/27/2021 11:45:00 AM 7.46 45.428 0.045 7.81 30.96 11.74
3/27/2021 12:00:00 PM 7.7 45.86 0.045 7.91 42.19 11.68
3/27/2021 12:15:00 PM 7.7 45.86 0.045 7.9 30.18 11.67
3/27/2021 12:30:00 PM 7.91 46.238 0.045 7.91 45.61 11.63
3/27/2021 12:45:00 PM 8.08 46.544 0.045 7.86 32.77 11.58
3/27/2021 1:00:00 PM 8.25 46.85 0.045 7.92 31.52 11.53
3/27/2021 1:15:00 PM 8.39 47.102 0.045 7.92 34.66 11.48
3/27/2021 1:30:00 PM 8.51 47.318 0.045 7.91 45.47 11.43
3/27/2021 1:45:00 PM 8.63 47.534 0.045 7.9 38.48 11.4
3/27/2021 2:00:00 PM 8.69 47.642 0.045 7.91 49.17 11.38
3/27/2021 2:15:00 PM 8.78 47.804 0.045 7.93 36.37 11.35
3/27/2021 2:30:00 PM 8.81 47.858 0.045 7.89 45.26 11.33
3/27/2021 2:45:00 PM 8.88 47.984 0.045 7.94 35.41 11.31
3/27/2021 3:00:00 PM 8.93 48.074 0.045 7.92 47.57 11.3
3/27/2021 3:15:00 PM 8.96 48.128 0.045 7.94 32.65 11.29
3/27/2021 3:30:00 PM 8.97 48.146 0.045 7.93 38 11.28
3/27/2021 3:45:00 PM 9 48.2 0.045 7.94 39.42 11.26
3/27/2021 4:00:00 PM 9.01 48.218 0.045 7.81 39.38 11.25
3/27/2021 4:15:00 PM 9.01 48.218 0.045 7.93 38.68 11.25
3/27/2021 4:30:00 PM 9.01 48.218 0.045 7.91 44.96 11.25
3/27/2021 4:45:00 PM 9.01 48.218 0.045 7.87 37.7 11.24
3/27/2021 5:00:00 PM 9 48.2 0.045 7.93 47.31 11.24
3/27/2021 5:15:00 PM 9 48.2 0.045 7.92 33.39 11.23
3/27/2021 5:30:00 PM 8.97 48.146 0.045 7.93 69.55 11.21
3/27/2021 5:45:00 PM 8.94 48.092 0.045 7.92 37.9 11.22
3/27/2021 6:00:00 PM 8.93 48.074 0.045 7.91 49.68 11.21
3/27/2021 6:15:00 PM 8.88 47.984 0.045 7.91 42.15 11.21
3/27/2021 6:30:00 PM 8.84 47.912 0.045 7.89 37.79 11.21
3/27/2021 6:45:00 PM 8.8 47.84 0.045 7.89 45.28 11.2
3/27/2021 7:00:00 PM 8.75 47.75 0.05 7.9 38.21 11.21
3/27/2021 7:15:00 PM 8.71 47.678 0.046 7.88 50.68 11.22
3/27/2021 7:30:00 PM 8.66 47.588 0.046 7.87 46.42 11.21
3/27/2021 7:45:00 PM 8.6 47.48 0.089 7.88 39.31 11.22
3/27/2021 8:00:00 PM 8.55 47.39 0.046 7.87 46.81 11.23
3/27/2021 8:15:00 PM 8.49 47.282 0.046 7.86 40.63 11.25
3/27/2021 8:30:00 PM 8.44 47.192 0.09 7.84 47.39 11.26
3/27/2021 8:45:00 PM 8.39 47.102 0.047 7.86 40.51 11.28
3/27/2021 9:00:00 PM 8.33 46.994 0.046 7.86 40.03 11.3
3/27/2021 9:15:00 PM 8.26 46.868 0.046 7.86 44.57 11.31
3/27/2021 9:30:00 PM 8.2 46.76 0.046 7.86 34.06 11.33
3/27/2021 9:45:00 PM 8.13 46.634 0.046 7.83 47.56 11.35
3/27/2021 10:00:00 PM 8.06 46.508 0.046 7.85 39.13 11.37
3/27/2021 10:15:00 PM 7.99 46.382 0.046 7.73 47.1 11.38
3/27/2021 10:30:00 PM 7.92 46.256 0.046 7.85 36.11 11.4
3/27/2021 10:45:00 PM 7.86 46.148 0.046 7.86 35.3 11.42
3/27/2021 11:00:00 PM 7.79 46.022 0.046 7.73 26.08 11.43
3/27/2021 11:15:00 PM 7.72 45.896 0.047 7.86 36.41 11.45
3/27/2021 11:30:00 PM 7.65 45.77 0.047 7.86 44.39 11.48
3/27/2021 11:45:00 PM 7.58 45.644 0.047 7.73 28.47 11.49
3/28/2021 12:00:00 AM 7.52 45.536 0.047 7.91 2622.98 11.51
3/28/2021 12:15:00 AM 7.46 45.428 0.047 7.87 31.71 11.52
3/28/2021 12:30:00 AM 7.39 45.302 0.047 7.64 42.41 11.53
3/28/2021 12:45:00 AM 7.34 45.212 0.047 7.85 34.87 11.55
3/28/2021 1:00:00 AM 7.28 45.104 0.047 7.83 33.15 11.56
3/28/2021 1:15:00 AM 7.22 44.996 0.047 7.83 32.54 11.57
3/28/2021 1:30:00 AM 7.17 44.906 0.047 7.83 62.65 11.59
3/28/2021 1:45:00 AM 7.12 44.816 0.047 7.68 40.5 11.6
3/28/2021 2:00:00 AM 7.08 44.744 0.047 7.73 37.82 11.61
3/28/2021 2:15:00 AM 7.05 44.69 0.047 7.84 59.82 11.62
3/28/2021 2:30:00 AM 7.01 44.618 0.047 7.84 39.72 11.63
3/28/2021 2:45:00 AM 6.99 44.582 0.047 7.69 51.95 11.63
3/28/2021 3:00:00 AM 6.97 44.546 0.047 7.69 34.1 11.64
3/28/2021 3:15:00 AM 6.93 44.474 0.047 7.83 37.09 11.64
3/28/2021 3:30:00 AM 6.92 44.456 0.047 7.68 42.47 11.65
3/28/2021 3:45:00 AM 6.89 44.402 0.047 7.73 37.36 11.65
3/28/2021 4:00:00 AM 6.87 44.366 0.047 7.82 34.24 11.65
3/28/2021 4:15:00 AM 6.85 44.33 0.047 7.78 38.91 11.66
3/28/2021 4:30:00 AM 6.84 44.312 0.047 7.85 45.15 11.66
3/28/2021 4:45:00 AM 6.84 44.312 0.047 7.82 36.22 11.66
3/28/2021 5:00:00 AM 6.83 44.294 0.047 7.83 37.12 11.66
3/28/2021 5:15:00 AM 6.83 44.294 0.047 7.68 28.99 11.65
3/28/2021 5:30:00 AM 6.82 44.276 0.047 7.74 29.53 11.66
3/28/2021 5:45:00 AM 6.82 44.276 0.047 7.84 30.07 11.66
3/28/2021 6:00:00 AM 6.81 44.258 0.047 7.82 39.28 11.65
3/28/2021 6:15:00 AM 6.81 44.258 0.047 7.83 29.64 11.65
3/28/2021 6:30:00 AM 6.83 44.294 0.047 7.81 31.88 11.65
3/28/2021 6:45:00 AM 6.85 44.33 0.047 7.83 30.97 11.65
3/28/2021 7:00:00 AM 6.87 44.366 0.047 7.69 52.73 11.64
3/28/2021 7:15:00 AM 6.89 44.402 0.047 7.85 32.24 11.63
3/28/2021 7:30:00 AM 6.92 44.456 0.047 7.84 30.82 11.62
3/28/2021 7:45:00 AM 6.96 44.528 0.047 7.85 28.4 11.61
3/28/2021 8:00:00 AM 6.98 44.564 0.047 7.78 42.04 11.6
3/28/2021 8:15:00 AM 7.01 44.618 0.047 7.84 34.84 11.6
3/28/2021 8:30:00 AM 7.04 44.672 0.047 7.85 37.8 11.59
3/28/2021 8:45:00 AM 7.05 44.69 0.047 7.84 57.56 11.59
3/28/2021 9:00:00 AM 7.08 44.744 0.047 7.87 38.09 11.59
3/28/2021 9:15:00 AM 7.12 44.816 0.047 7.87 43.38 11.58
3/28/2021 9:30:00 AM 7.13 44.834 0.047 7.67 33.51 11.57
3/28/2021 9:45:00 AM 7.16 44.888 0.047 7.89 36.91 11.56
3/28/2021 10:00:00 AM 7.19 44.942 0.047 7.88 39.92 11.55
3/28/2021 10:15:00 AM 7.23 45.014 0.047 7.87 39.58 11.54
3/28/2021 10:30:00 AM 7.29 45.122 0.047 7.89 38.01 11.54
3/28/2021 10:45:00 AM 7.34 45.212 0.047 7.76 51.13 11.52
3/28/2021 11:00:00 AM 7.4 45.32 0.047 7.88 60.69 11.5
3/28/2021 11:15:00 AM 7.44 45.392 0.047 7.9 37.05 11.48
3/28/2021 11:30:00 AM 7.49 45.482 0.047 7.89 42.72 11.47
3/28/2021 11:45:00 AM 7.54 45.572 0.047 7.92 47 11.46
3/28/2021 12:00:00 PM 7.59 45.662 0.047 7.88 56.32 11.43
3/28/2021 12:15:00 PM 7.64 45.752 0.047 7.93 51.19 11.42
3/28/2021 12:30:00 PM 7.67 45.806 0.047 7.93 48.97 11.41
3/28/2021 12:45:00 PM 7.7 45.86 0.048 7.84 45.79 11.38
3/28/2021 1:00:00 PM 7.78 46.004 0.048 7.92 44.09 11.37
3/28/2021 1:15:00 PM 7.84 46.112 0.048 7.94 37.83 11.37
3/28/2021 1:30:00 PM 7.89 46.202 0.048 7.95 48.26 11.35
3/28/2021 1:45:00 PM 7.96 46.328 0.048 7.89 38.73 11.33
3/28/2021 2:00:00 PM 8.02 46.436 0.048 7.82 45.55 11.32
3/28/2021 2:15:00 PM 8.06 46.508 0.048 7.97 41.55 11.28
3/28/2021 2:30:00 PM 8.06 46.508 0.048 7.95 64.08 11.25
3/28/2021 2:45:00 PM 8.09 46.562 0.048 7.95 46.46 11.24
3/28/2021 3:00:00 PM 8.12 46.616 0.048 7.93 40.49 11.22
3/28/2021 3:15:00 PM 8.2 46.76 0.047 7.94 61.55 11.21
3/28/2021 3:30:00 PM 8.18 46.724 0.051 8.02 85.07 11.2
3/28/2021 3:45:00 PM 8.17 46.706 0.05 7.98 93.74 11.2
3/28/2021 4:00:00 PM 8.15 46.67 0.06 8.18 196.96 11.19
3/28/2021 4:15:00 PM 8.16 46.688 0.059 8.13 143.39 11.2
3/28/2021 4:30:00 PM 8.15 46.67 0.058 8.1 142.33 11.21
3/28/2021 4:45:00 PM 8.12 46.616 0.055 8.08 127.7 11.23
3/28/2021 5:00:00 PM 8.11 46.598 0.054 7.97 135.16 11.26
3/28/2021 5:15:00 PM 8.11 46.598 0.052 8.01 112.37 11.29
3/28/2021 5:30:00 PM 8.09 46.562 0.05 7.94 81.83 11.3
3/28/2021 5:45:00 PM 8.02 46.436 0.05 8.01 74.52 11.3
3/28/2021 6:00:00 PM 7.97 46.346 0.049 7.98 67.34 11.31
3/28/2021 6:15:00 PM 7.88 46.184 0.05 7.99 96.92 11.31
3/28/2021 6:30:00 PM 7.84 46.112 0.05 7.97 57.81 11.31
3/28/2021 6:45:00 PM 7.81 46.058 0.051 7.93 83.72 11.31
3/28/2021 7:00:00 PM 7.73 45.914 0.051 7.99 48.05 11.34
3/28/2021 7:15:00 PM 7.64 45.752 0.051 7.98 72.44 11.35
3/28/2021 7:30:00 PM 7.55 45.59 0.051 7.98 124.09 11.37
3/28/2021 7:45:00 PM 7.47 45.446 0.051 7.98 58.81 11.39
3/28/2021 8:00:00 PM 7.39 45.302 0.051 7.92 131.33 11.42
3/28/2021 8:15:00 PM 7.31 45.158 0.05 7.97 76.86 11.44
3/28/2021 8:30:00 PM 7.24 45.032 0.05 7.93 59.1 11.47
3/28/2021 8:45:00 PM 7.18 44.924 0.05 7.95 74.04 11.49
3/28/2021 9:00:00 PM 7.1 44.78 0.05 7.83 78.44 11.52
3/28/2021 9:15:00 PM 7.03 44.654 0.049 7.95 61.21 11.54
3/28/2021 9:30:00 PM 6.94 44.492 0.049 7.93 52.52 11.57
3/28/2021 9:45:00 PM 6.86 44.348 0.049 7.94 42.95 11.6
3/28/2021 10:00:00 PM 6.79 44.222 0.049 7.79 62.83 11.62
3/28/2021 10:15:00 PM 6.73 44.114 0.049 7.95 69.44 11.64
3/28/2021 10:30:00 PM 6.66 43.988 0.049 7.9 78.22 11.67
3/28/2021 10:45:00 PM 6.56 43.808 0.049 7.93 47.51 11.69
3/28/2021 11:00:00 PM 6.46 43.628 0.049 7.78 51.19 11.72
3/28/2021 11:15:00 PM 6.37 43.466 0.049 7.93 47.75 11.75
3/28/2021 11:30:00 PM 6.33 43.394 0.049 7.91 66.18 11.77
3/28/2021 11:45:00 PM 6.24 43.232 0.049 7.78 58.91 11.8
3/29/2021 12:00:00 AM 6.19 43.142 0.049 7.91 41.01 11.82
3/29/2021 12:15:00 AM 6.11 42.998 0.049 7.9 52.97 11.84
3/29/2021 12:30:00 AM 6.02 42.836 0.049 7.87 48.34 11.87
3/29/2021 12:45:00 AM 5.95 42.71 0.049 7.89 64.18 11.9
3/29/2021 1:00:00 AM 5.86 42.548 0.048 7.88 58.06 11.93
3/29/2021 1:15:00 AM 5.77 42.386 0.048 7.7 68.76 11.96
3/29/2021 1:30:00 AM 5.69 42.242 0.048 7.89 83.53 11.98
3/29/2021 1:45:00 AM 5.63 42.134 0.048 7.7 41.99 12
3/29/2021 2:00:00 AM 5.57 42.026 0.048 7.83 47.78 12.02
3/29/2021 2:15:00 AM 5.5 41.9 0.048 7.88 52.94 12.04
3/29/2021 2:30:00 AM 5.44 41.792 0.048 7.7 38.93 12.07
3/29/2021 2:45:00 AM 5.38 41.684 0.048 7.81 39.15 12.09
3/29/2021 3:00:00 AM 5.33 41.594 0.048 7.88 57.51 12.11
3/29/2021 3:15:00 AM 5.29 41.522 0.048 7.81 43.5 12.12
3/29/2021 3:30:00 AM 5.22 41.396 0.048 7.87 44.21 12.14
3/29/2021 3:45:00 AM 5.15 41.27 0.048 7.87 33.99 12.17
3/29/2021 4:00:00 AM 5.11 41.198 0.048 7.86 49.68 12.19
3/29/2021 4:15:00 AM 5.07 41.126 0.048 7.67 39.14 12.21
3/29/2021 4:30:00 AM 5.03 41.054 0.048 7.88 48.59 12.23
3/29/2021 4:45:00 AM 4.99 40.982 0.048 7.87 83.03 12.24
3/29/2021 5:00:00 AM 4.95 40.91 0.048 7.74 45.58 12.26
3/29/2021 5:15:00 AM 4.9 40.82 0.048 7.77 42.41 12.28
3/29/2021 5:30:00 AM 4.87 40.766 0.048 7.89 37.8 12.29
3/29/2021 5:45:00 AM 4.84 40.712 0.048 7.87 35.54 12.31
3/29/2021 6:00:00 AM 4.8 40.64 0.048 7.85 48.61 12.33
3/29/2021 6:15:00 AM 4.76 40.568 0.048 7.87 45.96 12.35
3/29/2021 6:30:00 AM 4.73 40.514 0.048 7.71 50.06 12.36
3/29/2021 6:45:00 AM 4.69 40.442 0.048 7.88 38.41 12.38
3/29/2021 7:00:00 AM 4.66 40.388 0.048 7.88 45.44 12.39
3/29/2021 7:15:00 AM 4.62 40.316 0.048 7.77 38.89 12.41
3/29/2021 7:30:00 AM 4.58 40.244 0.048 7.86 58.57 12.44
3/29/2021 7:45:00 AM 4.54 40.172 0.048 7.88 47.14 12.46
3/29/2021 8:00:00 AM 4.52 40.136 0.048 7.86 42.52 12.47
3/29/2021 8:15:00 AM 4.51 40.118 0.048 7.88 52.72 12.49
3/29/2021 8:30:00 AM 4.48 40.064 0.048 7.89 68.39 12.51
3/29/2021 8:45:00 AM 4.46 40.028 0.048 7.89 36.74 12.55
3/29/2021 9:00:00 AM 4.48 40.064 0.048 7.89 40.52 12.56
3/29/2021 9:15:00 AM 4.46 40.028 0.048 7.81 37.25 12.58
3/29/2021 9:30:00 AM 4.45 40.01 0.048 7.9 35 12.59
3/29/2021 9:45:00 AM 4.45 40.01 0.048 7.89 34.02 12.6
3/29/2021 10:00:00 AM 4.46 40.028 0.048 7.87 45.44 12.61
3/29/2021 10:15:00 AM 4.49 40.082 0.048 7.91 42.71 12.62
3/29/2021 10:30:00 AM 4.52 40.136 0.048 7.92 34.65 12.61
3/29/2021 10:45:00 AM 4.51 40.118 0.048 7.76 34.3 12.62
3/29/2021 11:00:00 AM 4.56 40.208 0.048 7.86 55.19 12.62
3/29/2021 11:15:00 AM 4.69 40.442 0.047 7.91 40.53 12.59
3/29/2021 11:30:00 AM 4.79 40.622 0.047 7.92 39.74 12.58
3/29/2021 11:45:00 AM 4.86 40.748 0.047 7.91 38.39 12.55
3/29/2021 12:00:00 PM 4.93 40.874 0.047 7.94 41.11 12.52
3/29/2021 12:15:00 PM 5.19 41.342 0.047 7.79 89.96 12.47
3/29/2021 12:30:00 PM 5.18 41.324 0.047 7.95 56.32 12.45
3/29/2021 12:45:00 PM 5.12 41.216 0.047 7.93 69.06 12.46
3/29/2021 1:00:00 PM 5.36 41.648 0.047 7.91 42.66 12.42
3/29/2021 1:15:00 PM 5.57 42.026 0.047 7.94 43.2 12.36
3/29/2021 1:30:00 PM 5.61 42.098 0.047 7.76 37.32 12.32
3/29/2021 1:45:00 PM 5.67 42.206 0.047 7.96 34.03 12.31
3/29/2021 2:00:00 PM 5.73 42.314 0.047 7.95 37.7 12.28
3/29/2021 2:15:00 PM 5.8 42.44 0.047 7.94 38.11 12.26
3/29/2021 2:30:00 PM 5.79 42.422 0.047 7.77 37.57 12.25
3/29/2021 2:45:00 PM 5.85 42.53 0.047 7.88 60.21 12.23
3/29/2021 3:00:00 PM 5.88 42.584 0.047 7.95 44.45 12.21
3/29/2021 3:15:00 PM 5.91 42.638 0.047 7.93 69.21 12.2
3/29/2021 3:30:00 PM 5.93 42.674 0.047 7.95 48.78 12.18
3/29/2021 3:45:00 PM 5.93 42.674 0.047 7.95 40.62 12.18
3/29/2021 4:00:00 PM 5.91 42.638 0.047 7.83 42.77 12.17
3/29/2021 4:15:00 PM 5.88 42.584 0.047 7.85 49.51 12.18
3/29/2021 4:30:00 PM 5.84 42.512 0.047 7.95 40.71 12.18
3/29/2021 4:45:00 PM 5.78 42.404 0.047 7.94 51.62 12.19
3/29/2021 5:00:00 PM 5.73 42.314 0.047 7.77 64.12 12.2
3/29/2021 5:15:00 PM 5.7 42.26 0.047 7.88 39.08 12.2
3/29/2021 5:30:00 PM 5.66 42.188 0.047 7.93 54.48 12.21
3/29/2021 5:45:00 PM 5.63 42.134 0.047 7.93 126.89 12.21
3/29/2021 6:00:00 PM 5.61 42.098 0.047 7.92 78.76 12.21
3/29/2021 6:15:00 PM 5.59 42.062 0.047 7.91 62.78 12.21
3/29/2021 6:30:00 PM 5.58 42.044 0.047 7.9 51.81 12.21
3/29/2021 6:45:00 PM 5.55 41.99 0.047 7.9 70.94 12.22
3/29/2021 7:00:00 PM 5.53 41.954 0.047 7.74 77.98 12.22
3/29/2021 7:15:00 PM 5.49 41.882 0.047 7.88 52.44 12.23
3/29/2021 7:30:00 PM 5.44 41.792 0.047 7.91 52.11 12.24
3/29/2021 7:45:00 PM 5.39 41.702 0.047 7.76 81.13 12.24
3/29/2021 8:00:00 PM 5.34 41.612 0.047 7.77 45.02 12.26
3/29/2021 8:15:00 PM 5.28 41.504 0.047 7.91 74.94 12.28
3/29/2021 8:30:00 PM 5.23 41.414 0.048 7.87 61.41 12.29
3/29/2021 8:45:00 PM 5.17 41.306 0.048 7.75 54.01 12.31
3/29/2021 9:00:00 PM 5.11 41.198 0.048 7.87 50.77 12.33
3/29/2021 9:15:00 PM 5.05 41.09 0.048 7.88 96.5 12.35
3/29/2021 9:30:00 PM 4.99 40.982 0.048 7.85 51.29 12.37
3/29/2021 9:45:00 PM 4.92 40.856 0.048 7.87 74.2 12.39
3/29/2021 10:00:00 PM 4.86 40.748 0.048 7.85 47.96 12.41
3/29/2021 10:15:00 PM 4.79 40.622 0.048 7.89 47.45 12.44
3/29/2021 10:30:00 PM 4.72 40.496 0.048 7.87 56.68 12.46
3/29/2021 10:45:00 PM 4.65 40.37 0.048 7.83 59.56 12.48
3/29/2021 11:00:00 PM 4.58 40.244 0.048 7.88 41.97 12.51
3/29/2021 11:15:00 PM 4.51 40.118 0.048 7.88 63.2 12.53
3/29/2021 11:30:00 PM 4.45 40.01 0.048 7.88 66.17 12.55
3/29/2021 11:45:00 PM 4.39 39.902 0.048 7.88 38.26 12.56
3/30/2021 12:00:00 AM 4.33 39.794 0.048 7.87 34.21 12.59
3/30/2021 12:15:00 AM 4.28 39.704 0.048 7.87 39.39 12.61
3/30/2021 12:30:00 AM 4.22 39.596 0.048 7.85 75.4 12.63
3/30/2021 12:45:00 AM 4.17 39.506 0.048 7.82 57.18 12.65
3/30/2021 1:00:00 AM 4.12 39.416 0.048 7.81 56.91 12.66
3/30/2021 1:15:00 AM 4.07 39.326 0.048 7.78 47.03 12.67
3/30/2021 1:30:00 AM 4.02 39.236 0.048 7.87 85.98 12.7
3/30/2021 1:45:00 AM 3.97 39.146 0.048 7.85 56.28 12.71
3/30/2021 2:00:00 AM 3.92 39.056 0.048 7.76 67.89 12.73
3/30/2021 2:15:00 AM 3.88 38.984 0.048 7.87 68.4 12.75
3/30/2021 2:30:00 AM 3.84 38.912 0.048 7.85 61.92 12.75
3/30/2021 2:45:00 AM 3.8 38.84 0.048 7.86 63.39 12.78
3/30/2021 3:00:00 AM 3.76 38.768 0.048 7.77 54.72 12.79
3/30/2021 3:15:00 AM 3.72 38.696 0.048 7.81 38.89 12.8
3/30/2021 3:30:00 AM 3.68 38.624 0.048 7.85 68.09 12.8
3/30/2021 3:45:00 AM 3.65 38.57 0.048 7.79 44.35 12.82
3/30/2021 4:00:00 AM 3.61 38.498 0.048 7.84 56.42 12.84
3/30/2021 4:15:00 AM 3.58 38.444 0.048 7.83 46.36 12.84
3/30/2021 4:30:00 AM 3.55 38.39 0.048 7.84 51.63 12.86
3/30/2021 4:45:00 AM 3.52 38.336 0.048 7.84 68.34 12.86
3/30/2021 5:00:00 AM 3.49 38.282 0.048 7.85 64.66 12.88
3/30/2021 5:15:00 AM 3.46 38.228 0.048 7.85 59.56 12.89
3/30/2021 5:30:00 AM 3.43 38.174 0.048 7.85 44.09 12.9
3/30/2021 5:45:00 AM 3.4 38.12 0.048 7.85 47.87 12.91
3/30/2021 6:00:00 AM 3.38 38.084 0.048 7.85 38.49 12.92
3/30/2021 6:15:00 AM 3.35 38.03 0.048 7.82 39.1 12.93
3/30/2021 6:30:00 AM 3.33 37.994 0.048 7.85 36.35 12.94
3/30/2021 6:45:00 AM 3.3 37.94 0.048 7.82 41.47 12.94
3/30/2021 7:00:00 AM 3.28 37.904 0.048 7.81 35.33 12.96
3/30/2021 7:15:00 AM 3.27 37.886 0.048 7.85 43.31 12.98
3/30/2021 7:30:00 AM 3.26 37.868 0.028 7.86 45.63 12.99
3/30/2021 7:45:00 AM 3.27 37.886 0.048 7.86 36.3 13.02
3/30/2021 8:00:00 AM 3.31 37.958 0.048 7.86 37.98 13.02
3/30/2021 8:15:00 AM 3.36 38.048 0.048 7.89 47.77 13.02
3/30/2021 8:30:00 AM 3.45 38.21 0.048 7.9 51.72 13.01
3/30/2021 8:45:00 AM 3.56 38.408 0.048 7.89 53.33 12.99
3/30/2021 9:00:00 AM 3.68 38.624 0.048 7.9 48.45 12.96
3/30/2021 9:15:00 AM 3.8 38.84 0.048 7.92 45.58 12.94
3/30/2021 9:30:00 AM 3.94 39.092 0.048 7.92 61.42 12.9
3/30/2021 9:45:00 AM 4.12 39.416 0.048 7.9 64.83 12.85
3/30/2021 10:00:00 AM 4.31 39.758 0.048 7.94 56.13 12.79
3/30/2021 10:15:00 AM 4.51 40.118 0.048 7.94 74.67 12.73
3/30/2021 10:30:00 AM 4.7 40.46 0.048 7.93 63.04 12.67
3/30/2021 10:45:00 AM 4.89 40.802 0.048 7.93 57.21 12.62
3/30/2021 11:00:00 AM 5.07 41.126 0.048 7.95 73.49 12.56
3/30/2021 11:15:00 AM 5.26 41.468 0.048 7.97 44.37 12.5
3/30/2021 11:30:00 AM 5.45 41.81 0.048 7.85 67.71 12.44
3/30/2021 11:45:00 AM 5.66 42.188 0.048 7.98 70.19 12.38
3/30/2021 12:00:00 PM 5.85 42.53 0.048 7.97 77.11 12.31
3/30/2021 12:15:00 PM 6.04 42.872 0.047 7.99 60.39 12.25
3/30/2021 12:30:00 PM 6.22 43.196 0.047 7.98 76.18 12.19
3/30/2021 12:45:00 PM 6.41 43.538 0.047 8.01 47.53 12.14
3/30/2021 1:00:00 PM 6.59 43.862 0.047 8 59.25 12.07
3/30/2021 1:15:00 PM 6.77 44.186 0.047 7.96 50.27 12.01
3/30/2021 1:30:00 PM 6.96 44.528 0.047 8.02 64.79 11.94
3/30/2021 1:45:00 PM 7.14 44.852 0.047 8.02 53.25 11.88
3/30/2021 2:00:00 PM 7.29 45.122 0.047 8.03 82.92 11.83
3/30/2021 2:15:00 PM 7.41 45.338 0.047 8.02 75.24 11.79
3/30/2021 2:30:00 PM 7.51 45.518 0.047 8.02 66.44 11.75
3/30/2021 2:45:00 PM 7.6 45.68 0.047 7.92 79.73 11.71
3/30/2021 3:00:00 PM 7.69 45.842 0.047 7.95 93.5 11.68
3/30/2021 3:15:00 PM 7.75 45.95 0.047 8.01 62.7 11.65
3/30/2021 3:30:00 PM 7.81 46.058 0.047 8.01 65.57 11.62
3/30/2021 3:45:00 PM 7.86 46.148 0.047 8.02 72.04 11.6
3/30/2021 4:00:00 PM 7.9 46.22 0.047 8.05 65.87 11.58
3/30/2021 4:15:00 PM 7.9 46.22 0.047 8.04 61.71 11.56
3/30/2021 4:30:00 PM 7.89 46.202 0.047 8.04 96.76 11.56
3/30/2021 4:45:00 PM 7.87 46.166 0.047 8.04 80.86 11.56
3/30/2021 5:00:00 PM 7.88 46.184 0.047 8.04 83.6 11.55
3/30/2021 5:15:00 PM 7.87 46.166 0.047 8.03 78.3 11.54
3/30/2021 5:30:00 PM 7.84 46.112 0.047 8.02 67.68 11.53
3/30/2021 5:45:00 PM 7.81 46.058 0.047 8.02 69.49 11.53
3/30/2021 6:00:00 PM 7.8 46.04 0.047 8.01 139.19 11.51
3/30/2021 6:15:00 PM 7.8 46.04 0.047 8.01 93.09 11.51
3/30/2021 6:30:00 PM 7.79 46.022 0.048 8.02 80.31 11.51
3/30/2021 6:45:00 PM 7.8 46.04 0.048 8.02 62.72 11.51
3/30/2021 7:00:00 PM 7.78 46.004 0.048 8.01 54.4 11.5
3/30/2021 7:15:00 PM 7.76 45.968 0.048 7.99 61.73 11.49
3/30/2021 7:30:00 PM 7.73 45.914 0.048 7.99 53.08 11.49
3/30/2021 7:45:00 PM 7.71 45.878 0.048 8 60.55 11.48
3/30/2021 8:00:00 PM 7.69 45.842 0.048 7.99 56.47 11.49
3/30/2021 8:15:00 PM 7.66 45.788 0.048 7.98 70 11.5
3/30/2021 8:30:00 PM 7.64 45.752 0.048 7.99 45.91 11.51
3/30/2021 8:45:00 PM 7.62 45.716 0.048 7.96 45.7 11.51
3/30/2021 9:00:00 PM 7.59 45.662 0.048 7.99 69.08 11.52
3/30/2021 9:15:00 PM 7.58 45.644 0.048 7.98 47.89 11.53
3/30/2021 9:30:00 PM 7.55 45.59 0.048 7.98 51 11.53
3/30/2021 9:45:00 PM 7.51 45.518 0.048 7.99 47.98 11.55
3/30/2021 10:00:00 PM 7.49 45.482 0.048 7.86 45.25 11.55
3/30/2021 10:15:00 PM 7.46 45.428 0.048 7.98 49.57 11.56
3/30/2021 10:30:00 PM 7.43 45.374 0.048 7.98 60.53 11.57
3/30/2021 10:45:00 PM 7.4 45.32 0.048 7.94 37 11.58
3/30/2021 11:00:00 PM 7.38 45.284 0.048 7.99 52.54 11.59
3/30/2021 11:15:00 PM 7.36 45.248 0.048 7.88 64.1 11.6
3/30/2021 11:30:00 PM 7.33 45.194 0.049 7.98 42.4 11.61
3/30/2021 11:45:00 PM 7.29 45.122 0.049 7.98 42.44 11.61
3/31/2021 12:00:00 AM 7.26 45.068 0.049 7.95 45.41 11.62
3/31/2021 12:15:00 AM 7.23 45.014 0.049 7.98 45.12 11.63
3/31/2021 12:30:00 AM 7.2 44.96 0.049 7.98 42.14 11.64
3/31/2021 12:45:00 AM 7.17 44.906 0.049 7.98 41.45 11.65
3/31/2021 1:00:00 AM 7.14 44.852 0.049 7.87 61.95 11.65
3/31/2021 1:15:00 AM 7.12 44.816 0.049 7.99 73.33 11.66
3/31/2021 1:30:00 AM 7.09 44.762 0.049 7.99 67.22 11.67
3/31/2021 1:45:00 AM 7.07 44.726 0.049 7.99 55.07 11.67
3/31/2021 2:00:00 AM 7.04 44.672 0.049 7.98 57.41 11.68
3/31/2021 2:15:00 AM 7.03 44.654 0.049 7.99 40.82 11.68
3/31/2021 2:30:00 AM 7 44.6 0.049 7.99 66.08 11.69
3/31/2021 2:45:00 AM 6.97 44.546 0.049 7.99 45.32 11.69
3/31/2021 3:00:00 AM 6.93 44.474 0.049 7.86 40.9 11.7
3/31/2021 3:15:00 AM 6.9 44.42 0.049 7.92 55.25 11.71
3/31/2021 3:30:00 AM 6.87 44.366 0.049 7.98 38.03 11.72
3/31/2021 3:45:00 AM 6.85 44.33 0.049 7.98 49.01 11.72
3/31/2021 4:00:00 AM 6.82 44.276 0.049 7.98 45.18 11.73
3/31/2021 4:15:00 AM 6.8 44.24 0.049 7.99 39.21 11.74
3/31/2021 4:30:00 AM 6.77 44.186 0.049 7.98 69.95 11.74
3/31/2021 4:45:00 AM 6.75 44.15 0.049 7.97 60.62 11.75
3/31/2021 5:00:00 AM 6.73 44.114 0.049 7.98 66.07 11.75
3/31/2021 5:15:00 AM 6.72 44.096 0.049 7.98 40.35 11.75
3/31/2021 5:30:00 AM 6.71 44.078 0.049 7.98 43.4 11.76
3/31/2021 5:45:00 AM 6.7 44.06 0.049 7.86 39.86 11.76
3/31/2021 6:00:00 AM 6.69 44.042 0.049 7.99 40.58 11.76
3/31/2021 6:15:00 AM 6.68 44.024 0.049 7.97 47.34 11.76
3/31/2021 6:30:00 AM 6.67 44.006 0.049 7.96 53.85 11.77
3/31/2021 6:45:00 AM 6.65 43.97 0.049 7.88 37.21 11.77
3/31/2021 7:00:00 AM 6.65 43.97 0.049 7.92 41.82 11.78
3/31/2021 7:15:00 AM 6.64 43.952 0.049 7.98 52.85 11.79
3/31/2021 7:30:00 AM 6.64 43.952 0.049 7.9 33.38 11.8
3/31/2021 7:45:00 AM 6.66 43.988 0.049 8 32.24 11.81
3/31/2021 8:00:00 AM 6.67 44.006 0.049 7.99 44.1 11.81
3/31/2021 8:15:00 AM 6.69 44.042 0.049 8 38.96 11.81
3/31/2021 8:30:00 AM 6.71 44.078 0.049 8 41.97 11.81
3/31/2021 8:45:00 AM 6.72 44.096 0.049 8.01 49.78 11.8
3/31/2021 9:00:00 AM 6.75 44.15 0.049 8.02 59.81 11.83
3/31/2021 9:15:00 AM 6.78 44.204 0.049 8.03 46.9 11.83
3/31/2021 9:30:00 AM 6.8 44.24 0.049 8.04 44.63 11.82
3/31/2021 9:45:00 AM 6.81 44.258 0.049 8.02 49.54 11.79
3/31/2021 10:00:00 AM 6.81 44.258 0.049 7.98 37 11.8
3/31/2021 10:15:00 AM 6.82 44.276 0.049 8.02 46.65 11.8
3/31/2021 10:30:00 AM 6.84 44.312 0.048 8.02 56.09 11.79
3/31/2021 10:45:00 AM 6.85 44.33 0.048 8.02 41.4 11.8
3/31/2021 11:00:00 AM 6.89 44.402 0.048 8